<?xml version="1.0" encoding="UTF-8" standalone="no" ?>
<gpx xmlns="http://www.topografix.com/GPX/1/1" xmlns:xsi="http://www.w3.org/2001/XMLSchema-instance" xsi:schemaLocation="http://www.topografix.com/GPX/1/1 http://www.topografix.com/GPX/1/1/gpx.xsd" version="1.1" creator="VisuGPX - https://www.visugpx.com">
  <metadata>
    <name>Ampiac - Cayralet - Rieutor - Agnac - Toizac - Ruols</name>
    <desc><![CDATA[Ampiac - Cayralet - Rieutor - Agnac - Toizac -  Ruols

15 km]]></desc>
  </metadata>
  <trk>
    <name><![CDATA[20 mars 2012 14:53:27]]></name>
    <cmt><![CDATA[20 mars 2012 14:53:27]]></cmt>
    <trkseg>
      <trkpt lat="44.3422" lon="2.49466">
        <ele>515</ele>
        <time>2012-03-20T13:53:28Z</time>
      </trkpt>
      <trkpt lat="44.34175" lon="2.49466">
        <ele>513</ele>
        <time>2012-03-20T13:53:58Z</time>
      </trkpt>
      <trkpt lat="44.3417" lon="2.49465">
        <ele>515</ele>
        <time>2012-03-20T13:54:01Z</time>
      </trkpt>
      <trkpt lat="44.34161" lon="2.49468">
        <ele>516</ele>
        <time>2012-03-20T13:54:07Z</time>
      </trkpt>
      <trkpt lat="44.34156" lon="2.4947">
        <ele>513</ele>
        <time>2012-03-20T13:54:10Z</time>
      </trkpt>
      <trkpt lat="44.34151" lon="2.49473">
        <ele>516</ele>
        <time>2012-03-20T13:54:14Z</time>
      </trkpt>
      <trkpt lat="44.3414" lon="2.49477">
        <ele>510</ele>
        <time>2012-03-20T13:54:21Z</time>
      </trkpt>
      <trkpt lat="44.34129" lon="2.49483">
        <ele>515</ele>
        <time>2012-03-20T13:54:30Z</time>
      </trkpt>
      <trkpt lat="44.34125" lon="2.49486">
        <ele>514</ele>
        <time>2012-03-20T13:54:33Z</time>
      </trkpt>
      <trkpt lat="44.34119" lon="2.49488">
        <ele>516</ele>
        <time>2012-03-20T13:54:38Z</time>
      </trkpt>
      <trkpt lat="44.34114" lon="2.4949">
        <ele>508</ele>
        <time>2012-03-20T13:54:42Z</time>
      </trkpt>
      <trkpt lat="44.34109" lon="2.49489">
        <ele>510</ele>
        <time>2012-03-20T13:54:54Z</time>
      </trkpt>
      <trkpt lat="44.34099" lon="2.4949">
        <ele>511</ele>
        <time>2012-03-20T13:55:05Z</time>
      </trkpt>
      <trkpt lat="44.3409" lon="2.49499">
        <ele>502</ele>
        <time>2012-03-20T13:55:15Z</time>
      </trkpt>
      <trkpt lat="44.34079" lon="2.49505">
        <ele>509</ele>
        <time>2012-03-20T13:55:23Z</time>
      </trkpt>
      <trkpt lat="44.34074" lon="2.49508">
        <ele>510</ele>
        <time>2012-03-20T13:55:27Z</time>
      </trkpt>
      <trkpt lat="44.34069" lon="2.49512">
        <ele>508</ele>
        <time>2012-03-20T13:55:31Z</time>
      </trkpt>
      <trkpt lat="44.34064" lon="2.49513">
        <ele>510</ele>
        <time>2012-03-20T13:55:35Z</time>
      </trkpt>
      <trkpt lat="44.34054" lon="2.49517">
        <ele>505</ele>
        <time>2012-03-20T13:55:43Z</time>
      </trkpt>
      <trkpt lat="44.34044" lon="2.49521">
        <ele>510</ele>
        <time>2012-03-20T13:55:50Z</time>
      </trkpt>
      <trkpt lat="44.34033" lon="2.49528">
        <ele>502</ele>
        <time>2012-03-20T13:56:10Z</time>
      </trkpt>
      <trkpt lat="44.34026" lon="2.49531">
        <ele>505</ele>
        <time>2012-03-20T13:56:15Z</time>
      </trkpt>
      <trkpt lat="44.34017" lon="2.49536">
        <ele>506</ele>
        <time>2012-03-20T13:56:23Z</time>
      </trkpt>
      <trkpt lat="44.34008" lon="2.49544">
        <ele>502</ele>
        <time>2012-03-20T13:56:29Z</time>
      </trkpt>
      <trkpt lat="44.33996" lon="2.49557">
        <ele>510</ele>
        <time>2012-03-20T13:56:42Z</time>
      </trkpt>
      <trkpt lat="44.33981" lon="2.49578">
        <ele>496</ele>
        <time>2012-03-20T13:56:53Z</time>
      </trkpt>
      <trkpt lat="44.33978" lon="2.49586">
        <ele>496</ele>
        <time>2012-03-20T13:56:56Z</time>
      </trkpt>
      <trkpt lat="44.33973" lon="2.49599">
        <ele>500</ele>
        <time>2012-03-20T13:57:02Z</time>
      </trkpt>
      <trkpt lat="44.33969" lon="2.49605">
        <ele>500</ele>
        <time>2012-03-20T13:57:05Z</time>
      </trkpt>
      <trkpt lat="44.33965" lon="2.49625">
        <ele>503</ele>
        <time>2012-03-20T13:57:18Z</time>
      </trkpt>
      <trkpt lat="44.33959" lon="2.49653">
        <ele>494</ele>
        <time>2012-03-20T13:57:31Z</time>
      </trkpt>
      <trkpt lat="44.3396" lon="2.49662">
        <ele>496</ele>
        <time>2012-03-20T13:57:35Z</time>
      </trkpt>
      <trkpt lat="44.33962" lon="2.49675">
        <ele>495</ele>
        <time>2012-03-20T13:57:41Z</time>
      </trkpt>
      <trkpt lat="44.33973" lon="2.49697">
        <ele>481</ele>
        <time>2012-03-20T13:57:57Z</time>
      </trkpt>
      <trkpt lat="44.33975" lon="2.49711">
        <ele>488</ele>
        <time>2012-03-20T13:58:04Z</time>
      </trkpt>
      <trkpt lat="44.33978" lon="2.49717">
        <ele>487</ele>
        <time>2012-03-20T13:58:08Z</time>
      </trkpt>
      <trkpt lat="44.33983" lon="2.4973">
        <ele>494</ele>
        <time>2012-03-20T13:58:22Z</time>
      </trkpt>
      <trkpt lat="44.33988" lon="2.49741">
        <ele>493</ele>
        <time>2012-03-20T13:58:30Z</time>
      </trkpt>
      <trkpt lat="44.33993" lon="2.49753">
        <ele>496</ele>
        <time>2012-03-20T13:58:37Z</time>
      </trkpt>
      <trkpt lat="44.34007" lon="2.49772">
        <ele>492</ele>
        <time>2012-03-20T13:58:51Z</time>
      </trkpt>
      <trkpt lat="44.34022" lon="2.49787">
        <ele>500</ele>
        <time>2012-03-20T13:59:04Z</time>
      </trkpt>
      <trkpt lat="44.34031" lon="2.49794">
        <ele>495</ele>
        <time>2012-03-20T13:59:11Z</time>
      </trkpt>
      <trkpt lat="44.34039" lon="2.49801">
        <ele>495</ele>
        <time>2012-03-20T13:59:19Z</time>
      </trkpt>
      <trkpt lat="44.34048" lon="2.49805">
        <ele>497</ele>
        <time>2012-03-20T13:59:30Z</time>
      </trkpt>
      <trkpt lat="44.3406" lon="2.49796">
        <ele>495</ele>
        <time>2012-03-20T13:59:43Z</time>
      </trkpt>
      <trkpt lat="44.3407" lon="2.49793">
        <ele>499</ele>
        <time>2012-03-20T13:59:54Z</time>
      </trkpt>
      <trkpt lat="44.34082" lon="2.49793">
        <ele>492</ele>
        <time>2012-03-20T14:00:16Z</time>
      </trkpt>
      <trkpt lat="44.34094" lon="2.49798">
        <ele>493</ele>
        <time>2012-03-20T14:00:25Z</time>
      </trkpt>
      <trkpt lat="44.34089" lon="2.49807">
        <ele>511</ele>
        <time>2012-03-20T14:00:44Z</time>
      </trkpt>
      <trkpt lat="44.34084" lon="2.49809">
        <ele>512</ele>
        <time>2012-03-20T14:00:48Z</time>
      </trkpt>
      <trkpt lat="44.3408" lon="2.49812">
        <ele>509</ele>
        <time>2012-03-20T14:00:53Z</time>
      </trkpt>
      <trkpt lat="44.34074" lon="2.49822">
        <ele>512</ele>
        <time>2012-03-20T14:01:02Z</time>
      </trkpt>
      <trkpt lat="44.34067" lon="2.49832">
        <ele>511</ele>
        <time>2012-03-20T14:01:12Z</time>
      </trkpt>
      <trkpt lat="44.3406" lon="2.49841">
        <ele>514</ele>
        <time>2012-03-20T14:01:20Z</time>
      </trkpt>
      <trkpt lat="44.34059" lon="2.49854">
        <ele>519</ele>
        <time>2012-03-20T14:01:34Z</time>
      </trkpt>
      <trkpt lat="44.34063" lon="2.49868">
        <ele>511</ele>
        <time>2012-03-20T14:01:49Z</time>
      </trkpt>
      <trkpt lat="44.34072" lon="2.49861">
        <ele>514</ele>
        <time>2012-03-20T14:01:58Z</time>
      </trkpt>
      <trkpt lat="44.34078" lon="2.49853">
        <ele>517</ele>
        <time>2012-03-20T14:02:27Z</time>
      </trkpt>
      <trkpt lat="44.34077" lon="2.4985">
        <ele>533</ele>
        <time>2012-03-20T14:02:43Z</time>
      </trkpt>
      <trkpt lat="44.34087" lon="2.49845">
        <ele>529</ele>
        <time>2012-03-20T14:02:57Z</time>
      </trkpt>
      <trkpt lat="44.34096" lon="2.49848">
        <ele>521</ele>
        <time>2012-03-20T14:03:05Z</time>
      </trkpt>
      <trkpt lat="44.34114" lon="2.49869">
        <ele>524</ele>
        <time>2012-03-20T14:03:29Z</time>
      </trkpt>
      <trkpt lat="44.34122" lon="2.49876">
        <ele>530</ele>
        <time>2012-03-20T14:03:35Z</time>
      </trkpt>
      <trkpt lat="44.34124" lon="2.49885">
        <ele>532</ele>
        <time>2012-03-20T14:03:50Z</time>
      </trkpt>
      <trkpt lat="44.34122" lon="2.49899">
        <ele>535</ele>
        <time>2012-03-20T14:03:56Z</time>
      </trkpt>
      <trkpt lat="44.34121" lon="2.49912">
        <ele>534</ele>
        <time>2012-03-20T14:04:03Z</time>
      </trkpt>
      <trkpt lat="44.34123" lon="2.49925">
        <ele>541</ele>
        <time>2012-03-20T14:04:12Z</time>
      </trkpt>
      <trkpt lat="44.34124" lon="2.49938">
        <ele>542</ele>
        <time>2012-03-20T14:04:19Z</time>
      </trkpt>
      <trkpt lat="44.34124" lon="2.49946">
        <ele>544</ele>
        <time>2012-03-20T14:04:23Z</time>
      </trkpt>
      <trkpt lat="44.34127" lon="2.49961">
        <ele>545</ele>
        <time>2012-03-20T14:04:30Z</time>
      </trkpt>
      <trkpt lat="44.34129" lon="2.49967">
        <ele>542</ele>
        <time>2012-03-20T14:04:34Z</time>
      </trkpt>
      <trkpt lat="44.34131" lon="2.49974">
        <ele>543</ele>
        <time>2012-03-20T14:04:38Z</time>
      </trkpt>
      <trkpt lat="44.34139" lon="2.4999">
        <ele>549</ele>
        <time>2012-03-20T14:04:50Z</time>
      </trkpt>
      <trkpt lat="44.34147" lon="2.5">
        <ele>544</ele>
        <time>2012-03-20T14:04:59Z</time>
      </trkpt>
      <trkpt lat="44.34153" lon="2.50009">
        <ele>543</ele>
        <time>2012-03-20T14:05:06Z</time>
      </trkpt>
      <trkpt lat="44.34157" lon="2.50016">
        <ele>540</ele>
        <time>2012-03-20T14:05:10Z</time>
      </trkpt>
      <trkpt lat="44.34164" lon="2.50025">
        <ele>541</ele>
        <time>2012-03-20T14:05:19Z</time>
      </trkpt>
      <trkpt lat="44.34173" lon="2.50032">
        <ele>548</ele>
        <time>2012-03-20T14:05:26Z</time>
      </trkpt>
      <trkpt lat="44.34182" lon="2.50038">
        <ele>542</ele>
        <time>2012-03-20T14:05:35Z</time>
      </trkpt>
      <trkpt lat="44.34191" lon="2.50043">
        <ele>545</ele>
        <time>2012-03-20T14:05:42Z</time>
      </trkpt>
      <trkpt lat="44.34203" lon="2.50043">
        <ele>545</ele>
        <time>2012-03-20T14:05:57Z</time>
      </trkpt>
      <trkpt lat="44.34211" lon="2.50049">
        <ele>551</ele>
        <time>2012-03-20T14:06:04Z</time>
      </trkpt>
      <trkpt lat="44.3422" lon="2.50057">
        <ele>552</ele>
        <time>2012-03-20T14:06:10Z</time>
      </trkpt>
      <trkpt lat="44.34226" lon="2.50068">
        <ele>556</ele>
        <time>2012-03-20T14:06:16Z</time>
      </trkpt>
      <trkpt lat="44.34236" lon="2.50091">
        <ele>544</ele>
        <time>2012-03-20T14:06:31Z</time>
      </trkpt>
      <trkpt lat="44.34243" lon="2.50114">
        <ele>553</ele>
        <time>2012-03-20T14:06:46Z</time>
      </trkpt>
      <trkpt lat="44.34242" lon="2.50128">
        <ele>556</ele>
        <time>2012-03-20T14:06:54Z</time>
      </trkpt>
      <trkpt lat="44.34242" lon="2.50141">
        <ele>553</ele>
        <time>2012-03-20T14:07:02Z</time>
      </trkpt>
      <trkpt lat="44.34243" lon="2.50158">
        <ele>558</ele>
        <time>2012-03-20T14:07:08Z</time>
      </trkpt>
      <trkpt lat="44.34246" lon="2.50171">
        <ele>549</ele>
        <time>2012-03-20T14:07:14Z</time>
      </trkpt>
      <trkpt lat="44.34249" lon="2.50185">
        <ele>553</ele>
        <time>2012-03-20T14:07:22Z</time>
      </trkpt>
      <trkpt lat="44.34254" lon="2.50196">
        <ele>550</ele>
        <time>2012-03-20T14:07:29Z</time>
      </trkpt>
      <trkpt lat="44.34264" lon="2.50213">
        <ele>561</ele>
        <time>2012-03-20T14:07:42Z</time>
      </trkpt>
      <trkpt lat="44.34275" lon="2.50228">
        <ele>556</ele>
        <time>2012-03-20T14:07:54Z</time>
      </trkpt>
      <trkpt lat="44.34278" lon="2.50234">
        <ele>561</ele>
        <time>2012-03-20T14:07:58Z</time>
      </trkpt>
      <trkpt lat="44.34283" lon="2.5024">
        <ele>557</ele>
        <time>2012-03-20T14:08:02Z</time>
      </trkpt>
      <trkpt lat="44.34294" lon="2.50253">
        <ele>560</ele>
        <time>2012-03-20T14:08:19Z</time>
      </trkpt>
      <trkpt lat="44.34299" lon="2.50265">
        <ele>560</ele>
        <time>2012-03-20T14:08:27Z</time>
      </trkpt>
      <trkpt lat="44.34304" lon="2.50279">
        <ele>560</ele>
        <time>2012-03-20T14:08:35Z</time>
      </trkpt>
      <trkpt lat="44.34306" lon="2.50294">
        <ele>560</ele>
        <time>2012-03-20T14:08:42Z</time>
      </trkpt>
      <trkpt lat="44.34311" lon="2.50307">
        <ele>563</ele>
        <time>2012-03-20T14:08:49Z</time>
      </trkpt>
      <trkpt lat="44.34316" lon="2.50319">
        <ele>560</ele>
        <time>2012-03-20T14:08:56Z</time>
      </trkpt>
      <trkpt lat="44.34326" lon="2.50345">
        <ele>565</ele>
        <time>2012-03-20T14:09:11Z</time>
      </trkpt>
      <trkpt lat="44.34334" lon="2.50354">
        <ele>565</ele>
        <time>2012-03-20T14:09:18Z</time>
      </trkpt>
      <trkpt lat="44.34341" lon="2.50364">
        <ele>567</ele>
        <time>2012-03-20T14:09:24Z</time>
      </trkpt>
      <trkpt lat="44.34348" lon="2.50376">
        <ele>567</ele>
        <time>2012-03-20T14:09:31Z</time>
      </trkpt>
      <trkpt lat="44.34355" lon="2.50387">
        <ele>571</ele>
        <time>2012-03-20T14:09:39Z</time>
      </trkpt>
      <trkpt lat="44.34358" lon="2.50401">
        <ele>574</ele>
        <time>2012-03-20T14:09:47Z</time>
      </trkpt>
      <trkpt lat="44.3436" lon="2.50415">
        <ele>567</ele>
        <time>2012-03-20T14:09:54Z</time>
      </trkpt>
      <trkpt lat="44.3436" lon="2.5043">
        <ele>569</ele>
        <time>2012-03-20T14:10:01Z</time>
      </trkpt>
      <trkpt lat="44.34359" lon="2.50445">
        <ele>567</ele>
        <time>2012-03-20T14:10:08Z</time>
      </trkpt>
      <trkpt lat="44.34358" lon="2.50459">
        <ele>567</ele>
        <time>2012-03-20T14:10:15Z</time>
      </trkpt>
      <trkpt lat="44.34356" lon="2.50474">
        <ele>573</ele>
        <time>2012-03-20T14:10:21Z</time>
      </trkpt>
      <trkpt lat="44.34356" lon="2.50487">
        <ele>573</ele>
        <time>2012-03-20T14:10:28Z</time>
      </trkpt>
      <trkpt lat="44.34356" lon="2.50502">
        <ele>572</ele>
        <time>2012-03-20T14:10:37Z</time>
      </trkpt>
      <trkpt lat="44.34356" lon="2.50516">
        <ele>575</ele>
        <time>2012-03-20T14:10:45Z</time>
      </trkpt>
      <trkpt lat="44.34356" lon="2.50524">
        <ele>574</ele>
        <time>2012-03-20T14:10:50Z</time>
      </trkpt>
      <trkpt lat="44.34356" lon="2.5053">
        <ele>575</ele>
        <time>2012-03-20T14:10:53Z</time>
      </trkpt>
      <trkpt lat="44.34355" lon="2.50544">
        <ele>576</ele>
        <time>2012-03-20T14:11:01Z</time>
      </trkpt>
      <trkpt lat="44.34355" lon="2.50559">
        <ele>573</ele>
        <time>2012-03-20T14:11:07Z</time>
      </trkpt>
      <trkpt lat="44.34355" lon="2.50573">
        <ele>574</ele>
        <time>2012-03-20T14:11:15Z</time>
      </trkpt>
      <trkpt lat="44.34355" lon="2.50586">
        <ele>574</ele>
        <time>2012-03-20T14:11:23Z</time>
      </trkpt>
      <trkpt lat="44.34352" lon="2.506">
        <ele>573</ele>
        <time>2012-03-20T14:11:31Z</time>
      </trkpt>
      <trkpt lat="44.34353" lon="2.50615">
        <ele>574</ele>
        <time>2012-03-20T14:11:38Z</time>
      </trkpt>
      <trkpt lat="44.34354" lon="2.50643">
        <ele>576</ele>
        <time>2012-03-20T14:11:53Z</time>
      </trkpt>
      <trkpt lat="44.34354" lon="2.50657">
        <ele>576</ele>
        <time>2012-03-20T14:12:01Z</time>
      </trkpt>
      <trkpt lat="44.34354" lon="2.50686">
        <ele>573</ele>
        <time>2012-03-20T14:12:18Z</time>
      </trkpt>
      <trkpt lat="44.34354" lon="2.507">
        <ele>587</ele>
        <time>2012-03-20T14:12:24Z</time>
      </trkpt>
      <trkpt lat="44.34352" lon="2.50713">
        <ele>581</ele>
        <time>2012-03-20T14:12:31Z</time>
      </trkpt>
      <trkpt lat="44.34351" lon="2.50727">
        <ele>582</ele>
        <time>2012-03-20T14:12:38Z</time>
      </trkpt>
      <trkpt lat="44.34349" lon="2.50741">
        <ele>585</ele>
        <time>2012-03-20T14:12:45Z</time>
      </trkpt>
      <trkpt lat="44.34349" lon="2.50755">
        <ele>584</ele>
        <time>2012-03-20T14:12:51Z</time>
      </trkpt>
      <trkpt lat="44.3435" lon="2.5077">
        <ele>593</ele>
        <time>2012-03-20T14:13:02Z</time>
      </trkpt>
      <trkpt lat="44.34348" lon="2.50785">
        <ele>594</ele>
        <time>2012-03-20T14:13:07Z</time>
      </trkpt>
      <trkpt lat="44.34348" lon="2.50799">
        <ele>599</ele>
        <time>2012-03-20T14:13:13Z</time>
      </trkpt>
      <trkpt lat="44.34351" lon="2.50829">
        <ele>595</ele>
        <time>2012-03-20T14:13:27Z</time>
      </trkpt>
      <trkpt lat="44.34356" lon="2.50848">
        <ele>599</ele>
        <time>2012-03-20T14:13:38Z</time>
      </trkpt>
      <trkpt lat="44.34359" lon="2.50854">
        <ele>599</ele>
        <time>2012-03-20T14:13:41Z</time>
      </trkpt>
      <trkpt lat="44.34362" lon="2.50861">
        <ele>600</ele>
        <time>2012-03-20T14:13:44Z</time>
      </trkpt>
      <trkpt lat="44.34374" lon="2.50881">
        <ele>596</ele>
        <time>2012-03-20T14:14:01Z</time>
      </trkpt>
      <trkpt lat="44.34379" lon="2.50888">
        <ele>598</ele>
        <time>2012-03-20T14:14:07Z</time>
      </trkpt>
      <trkpt lat="44.34384" lon="2.50899">
        <ele>596</ele>
        <time>2012-03-20T14:14:14Z</time>
      </trkpt>
      <trkpt lat="44.34387" lon="2.50912">
        <ele>598</ele>
        <time>2012-03-20T14:14:21Z</time>
      </trkpt>
      <trkpt lat="44.34393" lon="2.50924">
        <ele>596</ele>
        <time>2012-03-20T14:14:30Z</time>
      </trkpt>
      <trkpt lat="44.34396" lon="2.5093">
        <ele>593</ele>
        <time>2012-03-20T14:14:34Z</time>
      </trkpt>
      <trkpt lat="44.34402" lon="2.50952">
        <ele>606</ele>
        <time>2012-03-20T14:14:44Z</time>
      </trkpt>
      <trkpt lat="44.34406" lon="2.50954">
        <ele>605</ele>
        <time>2012-03-20T14:17:35Z</time>
      </trkpt>
      <trkpt lat="44.34407" lon="2.50959">
        <ele>611</ele>
        <time>2012-03-20T14:19:31Z</time>
      </trkpt>
      <trkpt lat="44.34408" lon="2.50972">
        <ele>605</ele>
        <time>2012-03-20T14:20:10Z</time>
      </trkpt>
      <trkpt lat="44.34416" lon="2.50982">
        <ele>601</ele>
        <time>2012-03-20T14:20:18Z</time>
      </trkpt>
      <trkpt lat="44.34422" lon="2.50992">
        <ele>602</ele>
        <time>2012-03-20T14:20:23Z</time>
      </trkpt>
      <trkpt lat="44.34426" lon="2.51004">
        <ele>597</ele>
        <time>2012-03-20T14:20:32Z</time>
      </trkpt>
      <trkpt lat="44.34432" lon="2.51015">
        <ele>596</ele>
        <time>2012-03-20T14:20:39Z</time>
      </trkpt>
      <trkpt lat="44.34433" lon="2.51022">
        <ele>606</ele>
        <time>2012-03-20T14:21:12Z</time>
      </trkpt>
      <trkpt lat="44.34436" lon="2.51028">
        <ele>607</ele>
        <time>2012-03-20T14:21:55Z</time>
      </trkpt>
      <trkpt lat="44.34444" lon="2.51079">
        <ele>599</ele>
        <time>2012-03-20T14:22:14Z</time>
      </trkpt>
      <trkpt lat="44.34447" lon="2.51092">
        <ele>604</ele>
        <time>2012-03-20T14:22:18Z</time>
      </trkpt>
      <trkpt lat="44.34452" lon="2.51116">
        <ele>601</ele>
        <time>2012-03-20T14:22:24Z</time>
      </trkpt>
      <trkpt lat="44.34454" lon="2.51132">
        <ele>601</ele>
        <time>2012-03-20T14:22:28Z</time>
      </trkpt>
      <trkpt lat="44.34457" lon="2.51147">
        <ele>602</ele>
        <time>2012-03-20T14:22:32Z</time>
      </trkpt>
      <trkpt lat="44.34459" lon="2.5116">
        <ele>601</ele>
        <time>2012-03-20T14:22:36Z</time>
      </trkpt>
      <trkpt lat="44.34464" lon="2.51165">
        <ele>605</ele>
        <time>2012-03-20T14:22:39Z</time>
      </trkpt>
      <trkpt lat="44.34475" lon="2.5116">
        <ele>610</ele>
        <time>2012-03-20T14:22:44Z</time>
      </trkpt>
      <trkpt lat="44.34483" lon="2.51154">
        <ele>609</ele>
        <time>2012-03-20T14:22:47Z</time>
      </trkpt>
      <trkpt lat="44.34493" lon="2.51148">
        <ele>610</ele>
        <time>2012-03-20T14:22:50Z</time>
      </trkpt>
      <trkpt lat="44.34502" lon="2.5114">
        <ele>610</ele>
        <time>2012-03-20T14:22:53Z</time>
      </trkpt>
      <trkpt lat="44.34521" lon="2.51126">
        <ele>616</ele>
        <time>2012-03-20T14:22:59Z</time>
      </trkpt>
      <trkpt lat="44.34553" lon="2.51116">
        <ele>609</ele>
        <time>2012-03-20T14:23:10Z</time>
      </trkpt>
      <trkpt lat="44.34563" lon="2.51113">
        <ele>614</ele>
        <time>2012-03-20T14:23:16Z</time>
      </trkpt>
      <trkpt lat="44.34572" lon="2.51109">
        <ele>608</ele>
        <time>2012-03-20T14:23:22Z</time>
      </trkpt>
      <trkpt lat="44.34579" lon="2.511">
        <ele>609</ele>
        <time>2012-03-20T14:23:35Z</time>
      </trkpt>
      <trkpt lat="44.34584" lon="2.51078">
        <ele>601</ele>
        <time>2012-03-20T14:23:46Z</time>
      </trkpt>
      <trkpt lat="44.34589" lon="2.51061">
        <ele>610</ele>
        <time>2012-03-20T14:23:55Z</time>
      </trkpt>
      <trkpt lat="44.34599" lon="2.51037">
        <ele>602</ele>
        <time>2012-03-20T14:24:10Z</time>
      </trkpt>
      <trkpt lat="44.34602" lon="2.5103">
        <ele>604</ele>
        <time>2012-03-20T14:24:14Z</time>
      </trkpt>
      <trkpt lat="44.346" lon="2.51035">
        <ele>596</ele>
        <time>2012-03-20T14:24:44Z</time>
      </trkpt>
      <trkpt lat="44.34597" lon="2.51043">
        <ele>597</ele>
        <time>2012-03-20T14:24:47Z</time>
      </trkpt>
      <trkpt lat="44.34585" lon="2.51076">
        <ele>595</ele>
        <time>2012-03-20T14:24:53Z</time>
      </trkpt>
      <trkpt lat="44.3458" lon="2.5109">
        <ele>596</ele>
        <time>2012-03-20T14:24:56Z</time>
      </trkpt>
      <trkpt lat="44.34576" lon="2.51103">
        <ele>607</ele>
        <time>2012-03-20T14:25:04Z</time>
      </trkpt>
      <trkpt lat="44.34571" lon="2.51109">
        <ele>607</ele>
        <time>2012-03-20T14:25:09Z</time>
      </trkpt>
      <trkpt lat="44.34561" lon="2.51115">
        <ele>610</ele>
        <time>2012-03-20T14:25:17Z</time>
      </trkpt>
      <trkpt lat="44.34548" lon="2.51118">
        <ele>606</ele>
        <time>2012-03-20T14:25:22Z</time>
      </trkpt>
      <trkpt lat="44.34542" lon="2.51118">
        <ele>606</ele>
        <time>2012-03-20T14:25:24Z</time>
      </trkpt>
      <trkpt lat="44.34536" lon="2.5112">
        <ele>606</ele>
        <time>2012-03-20T14:25:26Z</time>
      </trkpt>
      <trkpt lat="44.3453" lon="2.51122">
        <ele>606</ele>
        <time>2012-03-20T14:25:28Z</time>
      </trkpt>
      <trkpt lat="44.34516" lon="2.5113">
        <ele>611</ele>
        <time>2012-03-20T14:25:34Z</time>
      </trkpt>
      <trkpt lat="44.34506" lon="2.51137">
        <ele>612</ele>
        <time>2012-03-20T14:25:37Z</time>
      </trkpt>
      <trkpt lat="44.34488" lon="2.5115">
        <ele>606</ele>
        <time>2012-03-20T14:25:43Z</time>
      </trkpt>
      <trkpt lat="44.3448" lon="2.51156">
        <ele>607</ele>
        <time>2012-03-20T14:25:46Z</time>
      </trkpt>
      <trkpt lat="44.34474" lon="2.5116">
        <ele>606</ele>
        <time>2012-03-20T14:25:48Z</time>
      </trkpt>
      <trkpt lat="44.34469" lon="2.51164">
        <ele>610</ele>
        <time>2012-03-20T14:25:50Z</time>
      </trkpt>
      <trkpt lat="44.34464" lon="2.51167">
        <ele>608</ele>
        <time>2012-03-20T14:25:52Z</time>
      </trkpt>
      <trkpt lat="44.3446" lon="2.51175">
        <ele>609</ele>
        <time>2012-03-20T14:25:55Z</time>
      </trkpt>
      <trkpt lat="44.3446" lon="2.51182">
        <ele>608</ele>
        <time>2012-03-20T14:25:57Z</time>
      </trkpt>
      <trkpt lat="44.34461" lon="2.51188">
        <ele>607</ele>
        <time>2012-03-20T14:25:59Z</time>
      </trkpt>
      <trkpt lat="44.34461" lon="2.51199">
        <ele>607</ele>
        <time>2012-03-20T14:26:02Z</time>
      </trkpt>
      <trkpt lat="44.34462" lon="2.51208">
        <ele>608</ele>
        <time>2012-03-20T14:26:04Z</time>
      </trkpt>
      <trkpt lat="44.34465" lon="2.51225">
        <ele>607</ele>
        <time>2012-03-20T14:26:08Z</time>
      </trkpt>
      <trkpt lat="44.34474" lon="2.51265">
        <ele>598</ele>
        <time>2012-03-20T14:26:20Z</time>
      </trkpt>
      <trkpt lat="44.34477" lon="2.51279">
        <ele>600</ele>
        <time>2012-03-20T14:26:33Z</time>
      </trkpt>
      <trkpt lat="44.34479" lon="2.51292">
        <ele>601</ele>
        <time>2012-03-20T14:26:39Z</time>
      </trkpt>
      <trkpt lat="44.34484" lon="2.51307">
        <ele>607</ele>
        <time>2012-03-20T14:26:46Z</time>
      </trkpt>
      <trkpt lat="44.34485" lon="2.51315">
        <ele>604</ele>
        <time>2012-03-20T14:26:50Z</time>
      </trkpt>
      <trkpt lat="44.34488" lon="2.51321">
        <ele>605</ele>
        <time>2012-03-20T14:26:53Z</time>
      </trkpt>
      <trkpt lat="44.3449" lon="2.51329">
        <ele>603</ele>
        <time>2012-03-20T14:26:57Z</time>
      </trkpt>
      <trkpt lat="44.34493" lon="2.51344">
        <ele>607</ele>
        <time>2012-03-20T14:27:06Z</time>
      </trkpt>
      <trkpt lat="44.34498" lon="2.51357">
        <ele>607</ele>
        <time>2012-03-20T14:27:12Z</time>
      </trkpt>
      <trkpt lat="44.34509" lon="2.51393">
        <ele>598</ele>
        <time>2012-03-20T14:27:31Z</time>
      </trkpt>
      <trkpt lat="44.3451" lon="2.51401">
        <ele>600</ele>
        <time>2012-03-20T14:27:35Z</time>
      </trkpt>
      <trkpt lat="44.34514" lon="2.51417">
        <ele>596</ele>
        <time>2012-03-20T14:27:43Z</time>
      </trkpt>
      <trkpt lat="44.34515" lon="2.51425">
        <ele>599</ele>
        <time>2012-03-20T14:27:47Z</time>
      </trkpt>
      <trkpt lat="44.34516" lon="2.51432">
        <ele>599</ele>
        <time>2012-03-20T14:27:50Z</time>
      </trkpt>
      <trkpt lat="44.34518" lon="2.51439">
        <ele>600</ele>
        <time>2012-03-20T14:27:53Z</time>
      </trkpt>
      <trkpt lat="44.34522" lon="2.51453">
        <ele>600</ele>
        <time>2012-03-20T14:28:01Z</time>
      </trkpt>
      <trkpt lat="44.34524" lon="2.51459">
        <ele>599</ele>
        <time>2012-03-20T14:28:05Z</time>
      </trkpt>
      <trkpt lat="44.34525" lon="2.51467">
        <ele>602</ele>
        <time>2012-03-20T14:28:09Z</time>
      </trkpt>
      <trkpt lat="44.34525" lon="2.51474">
        <ele>602</ele>
        <time>2012-03-20T14:28:13Z</time>
      </trkpt>
      <trkpt lat="44.34526" lon="2.51481">
        <ele>601</ele>
        <time>2012-03-20T14:28:16Z</time>
      </trkpt>
      <trkpt lat="44.34529" lon="2.51494">
        <ele>601</ele>
        <time>2012-03-20T14:28:22Z</time>
      </trkpt>
      <trkpt lat="44.3453" lon="2.51501">
        <ele>602</ele>
        <time>2012-03-20T14:28:25Z</time>
      </trkpt>
      <trkpt lat="44.34531" lon="2.51522">
        <ele>599</ele>
        <time>2012-03-20T14:28:35Z</time>
      </trkpt>
      <trkpt lat="44.34533" lon="2.51543">
        <ele>604</ele>
        <time>2012-03-20T14:28:46Z</time>
      </trkpt>
      <trkpt lat="44.34534" lon="2.51551">
        <ele>604</ele>
        <time>2012-03-20T14:28:50Z</time>
      </trkpt>
      <trkpt lat="44.34539" lon="2.51583">
        <ele>596</ele>
        <time>2012-03-20T14:29:07Z</time>
      </trkpt>
      <trkpt lat="44.34541" lon="2.5159">
        <ele>598</ele>
        <time>2012-03-20T14:29:10Z</time>
      </trkpt>
      <trkpt lat="44.34543" lon="2.51597">
        <ele>598</ele>
        <time>2012-03-20T14:29:13Z</time>
      </trkpt>
      <trkpt lat="44.34544" lon="2.51603">
        <ele>596</ele>
        <time>2012-03-20T14:29:16Z</time>
      </trkpt>
      <trkpt lat="44.34547" lon="2.51619">
        <ele>600</ele>
        <time>2012-03-20T14:29:23Z</time>
      </trkpt>
      <trkpt lat="44.34548" lon="2.51626">
        <ele>599</ele>
        <time>2012-03-20T14:29:27Z</time>
      </trkpt>
      <trkpt lat="44.34548" lon="2.51641">
        <ele>602</ele>
        <time>2012-03-20T14:29:35Z</time>
      </trkpt>
      <trkpt lat="44.3455" lon="2.51648">
        <ele>602</ele>
        <time>2012-03-20T14:29:44Z</time>
      </trkpt>
      <trkpt lat="44.34558" lon="2.51655">
        <ele>597</ele>
        <time>2012-03-20T14:29:52Z</time>
      </trkpt>
      <trkpt lat="44.34569" lon="2.51661">
        <ele>605</ele>
        <time>2012-03-20T14:29:59Z</time>
      </trkpt>
      <trkpt lat="44.34579" lon="2.51658">
        <ele>606</ele>
        <time>2012-03-20T14:30:06Z</time>
      </trkpt>
      <trkpt lat="44.34584" lon="2.51655">
        <ele>608</ele>
        <time>2012-03-20T14:30:10Z</time>
      </trkpt>
      <trkpt lat="44.34589" lon="2.51654">
        <ele>607</ele>
        <time>2012-03-20T14:30:13Z</time>
      </trkpt>
      <trkpt lat="44.34597" lon="2.51651">
        <ele>609</ele>
        <time>2012-03-20T14:30:19Z</time>
      </trkpt>
      <trkpt lat="44.34603" lon="2.51648">
        <ele>610</ele>
        <time>2012-03-20T14:30:23Z</time>
      </trkpt>
      <trkpt lat="44.34608" lon="2.51645">
        <ele>608</ele>
        <time>2012-03-20T14:30:26Z</time>
      </trkpt>
      <trkpt lat="44.34613" lon="2.51642">
        <ele>610</ele>
        <time>2012-03-20T14:30:30Z</time>
      </trkpt>
      <trkpt lat="44.34619" lon="2.5164">
        <ele>609</ele>
        <time>2012-03-20T14:30:34Z</time>
      </trkpt>
      <trkpt lat="44.34623" lon="2.51639">
        <ele>608</ele>
        <time>2012-03-20T14:30:37Z</time>
      </trkpt>
      <trkpt lat="44.34627" lon="2.51637">
        <ele>608</ele>
        <time>2012-03-20T14:30:40Z</time>
      </trkpt>
      <trkpt lat="44.34648" lon="2.51625">
        <ele>609</ele>
        <time>2012-03-20T14:30:55Z</time>
      </trkpt>
      <trkpt lat="44.34653" lon="2.51624">
        <ele>612</ele>
        <time>2012-03-20T14:31:00Z</time>
      </trkpt>
      <trkpt lat="44.34659" lon="2.51623">
        <ele>608</ele>
        <time>2012-03-20T14:31:04Z</time>
      </trkpt>
      <trkpt lat="44.34671" lon="2.5162">
        <ele>613</ele>
        <time>2012-03-20T14:31:20Z</time>
      </trkpt>
      <trkpt lat="44.34682" lon="2.51621">
        <ele>611</ele>
        <time>2012-03-20T14:31:27Z</time>
      </trkpt>
      <trkpt lat="44.34691" lon="2.51626">
        <ele>612</ele>
        <time>2012-03-20T14:31:34Z</time>
      </trkpt>
      <trkpt lat="44.34696" lon="2.51627">
        <ele>606</ele>
        <time>2012-03-20T14:31:38Z</time>
      </trkpt>
      <trkpt lat="44.34701" lon="2.51627">
        <ele>605</ele>
        <time>2012-03-20T14:31:42Z</time>
      </trkpt>
      <trkpt lat="44.34708" lon="2.51628">
        <ele>606</ele>
        <time>2012-03-20T14:31:48Z</time>
      </trkpt>
      <trkpt lat="44.3472" lon="2.5163">
        <ele>605</ele>
        <time>2012-03-20T14:31:56Z</time>
      </trkpt>
      <trkpt lat="44.34725" lon="2.5163">
        <ele>605</ele>
        <time>2012-03-20T14:32:00Z</time>
      </trkpt>
      <trkpt lat="44.34736" lon="2.51632">
        <ele>603</ele>
        <time>2012-03-20T14:32:07Z</time>
      </trkpt>
      <trkpt lat="44.34741" lon="2.51632">
        <ele>603</ele>
        <time>2012-03-20T14:32:10Z</time>
      </trkpt>
      <trkpt lat="44.34746" lon="2.51633">
        <ele>604</ele>
        <time>2012-03-20T14:32:13Z</time>
      </trkpt>
      <trkpt lat="44.34752" lon="2.51634">
        <ele>603</ele>
        <time>2012-03-20T14:32:17Z</time>
      </trkpt>
      <trkpt lat="44.34768" lon="2.51636">
        <ele>602</ele>
        <time>2012-03-20T14:32:28Z</time>
      </trkpt>
      <trkpt lat="44.34778" lon="2.51638">
        <ele>604</ele>
        <time>2012-03-20T14:32:34Z</time>
      </trkpt>
      <trkpt lat="44.34788" lon="2.5164">
        <ele>603</ele>
        <time>2012-03-20T14:32:41Z</time>
      </trkpt>
      <trkpt lat="44.34794" lon="2.51641">
        <ele>601</ele>
        <time>2012-03-20T14:32:45Z</time>
      </trkpt>
      <trkpt lat="44.34799" lon="2.5164">
        <ele>602</ele>
        <time>2012-03-20T14:32:48Z</time>
      </trkpt>
      <trkpt lat="44.34815" lon="2.51641">
        <ele>596</ele>
        <time>2012-03-20T14:32:59Z</time>
      </trkpt>
      <trkpt lat="44.34823" lon="2.51642">
        <ele>599</ele>
        <time>2012-03-20T14:33:04Z</time>
      </trkpt>
      <trkpt lat="44.34827" lon="2.51642">
        <ele>597</ele>
        <time>2012-03-20T14:33:07Z</time>
      </trkpt>
      <trkpt lat="44.34833" lon="2.51641">
        <ele>596</ele>
        <time>2012-03-20T14:33:11Z</time>
      </trkpt>
      <trkpt lat="44.34843" lon="2.5164">
        <ele>600</ele>
        <time>2012-03-20T14:33:17Z</time>
      </trkpt>
      <trkpt lat="44.34847" lon="2.51642">
        <ele>599</ele>
        <time>2012-03-20T14:33:20Z</time>
      </trkpt>
      <trkpt lat="44.34853" lon="2.51643">
        <ele>598</ele>
        <time>2012-03-20T14:33:24Z</time>
      </trkpt>
      <trkpt lat="44.34859" lon="2.51644">
        <ele>598</ele>
        <time>2012-03-20T14:33:27Z</time>
      </trkpt>
      <trkpt lat="44.34865" lon="2.51645">
        <ele>596</ele>
        <time>2012-03-20T14:33:30Z</time>
      </trkpt>
      <trkpt lat="44.3487" lon="2.51645">
        <ele>597</ele>
        <time>2012-03-20T14:33:33Z</time>
      </trkpt>
      <trkpt lat="44.34885" lon="2.51646">
        <ele>597</ele>
        <time>2012-03-20T14:33:43Z</time>
      </trkpt>
      <trkpt lat="44.3489" lon="2.51646">
        <ele>598</ele>
        <time>2012-03-20T14:33:46Z</time>
      </trkpt>
      <trkpt lat="44.34905" lon="2.51645">
        <ele>594</ele>
        <time>2012-03-20T14:33:56Z</time>
      </trkpt>
      <trkpt lat="44.34916" lon="2.51645">
        <ele>595</ele>
        <time>2012-03-20T14:34:03Z</time>
      </trkpt>
      <trkpt lat="44.3492" lon="2.51642">
        <ele>592</ele>
        <time>2012-03-20T14:34:07Z</time>
      </trkpt>
      <trkpt lat="44.34926" lon="2.51641">
        <ele>593</ele>
        <time>2012-03-20T14:34:11Z</time>
      </trkpt>
      <trkpt lat="44.34931" lon="2.51642">
        <ele>592</ele>
        <time>2012-03-20T14:34:14Z</time>
      </trkpt>
      <trkpt lat="44.34936" lon="2.51642">
        <ele>595</ele>
        <time>2012-03-20T14:34:17Z</time>
      </trkpt>
      <trkpt lat="44.3494" lon="2.51641">
        <ele>595</ele>
        <time>2012-03-20T14:34:20Z</time>
      </trkpt>
      <trkpt lat="44.34945" lon="2.51641">
        <ele>595</ele>
        <time>2012-03-20T14:34:23Z</time>
      </trkpt>
      <trkpt lat="44.34958" lon="2.51638">
        <ele>588</ele>
        <time>2012-03-20T14:34:32Z</time>
      </trkpt>
      <trkpt lat="44.34968" lon="2.51632">
        <ele>593</ele>
        <time>2012-03-20T14:34:38Z</time>
      </trkpt>
      <trkpt lat="44.34974" lon="2.5163">
        <ele>592</ele>
        <time>2012-03-20T14:34:41Z</time>
      </trkpt>
      <trkpt lat="44.34978" lon="2.51628">
        <ele>592</ele>
        <time>2012-03-20T14:34:44Z</time>
      </trkpt>
      <trkpt lat="44.34983" lon="2.51627">
        <ele>593</ele>
        <time>2012-03-20T14:34:47Z</time>
      </trkpt>
      <trkpt lat="44.34994" lon="2.51625">
        <ele>591</ele>
        <time>2012-03-20T14:34:55Z</time>
      </trkpt>
      <trkpt lat="44.34999" lon="2.51623">
        <ele>591</ele>
        <time>2012-03-20T14:34:58Z</time>
      </trkpt>
      <trkpt lat="44.35003" lon="2.51621">
        <ele>591</ele>
        <time>2012-03-20T14:35:01Z</time>
      </trkpt>
      <trkpt lat="44.35008" lon="2.51619">
        <ele>588</ele>
        <time>2012-03-20T14:35:04Z</time>
      </trkpt>
      <trkpt lat="44.35013" lon="2.51617">
        <ele>588</ele>
        <time>2012-03-20T14:35:07Z</time>
      </trkpt>
      <trkpt lat="44.35016" lon="2.51611">
        <ele>589</ele>
        <time>2012-03-20T14:35:10Z</time>
      </trkpt>
      <trkpt lat="44.3502" lon="2.51607">
        <ele>588</ele>
        <time>2012-03-20T14:35:13Z</time>
      </trkpt>
      <trkpt lat="44.35023" lon="2.51601">
        <ele>591</ele>
        <time>2012-03-20T14:35:16Z</time>
      </trkpt>
      <trkpt lat="44.35026" lon="2.51595">
        <ele>589</ele>
        <time>2012-03-20T14:35:20Z</time>
      </trkpt>
      <trkpt lat="44.35034" lon="2.51572">
        <ele>590</ele>
        <time>2012-03-20T14:35:30Z</time>
      </trkpt>
      <trkpt lat="44.35038" lon="2.51565">
        <ele>589</ele>
        <time>2012-03-20T14:35:34Z</time>
      </trkpt>
      <trkpt lat="44.35041" lon="2.5156">
        <ele>589</ele>
        <time>2012-03-20T14:35:37Z</time>
      </trkpt>
      <trkpt lat="44.35055" lon="2.51552">
        <ele>581</ele>
        <time>2012-03-20T14:36:01Z</time>
      </trkpt>
      <trkpt lat="44.35075" lon="2.5156">
        <ele>575</ele>
        <time>2012-03-20T14:36:13Z</time>
      </trkpt>
      <trkpt lat="44.3509" lon="2.51567">
        <ele>579</ele>
        <time>2012-03-20T14:36:23Z</time>
      </trkpt>
      <trkpt lat="44.35095" lon="2.51568">
        <ele>577</ele>
        <time>2012-03-20T14:36:26Z</time>
      </trkpt>
      <trkpt lat="44.351" lon="2.51569">
        <ele>578</ele>
        <time>2012-03-20T14:36:29Z</time>
      </trkpt>
      <trkpt lat="44.3511" lon="2.51563">
        <ele>583</ele>
        <time>2012-03-20T14:36:37Z</time>
      </trkpt>
      <trkpt lat="44.35117" lon="2.51557">
        <ele>580</ele>
        <time>2012-03-20T14:36:43Z</time>
      </trkpt>
      <trkpt lat="44.35124" lon="2.51548">
        <ele>583</ele>
        <time>2012-03-20T14:36:49Z</time>
      </trkpt>
      <trkpt lat="44.35127" lon="2.51545">
        <ele>579</ele>
        <time>2012-03-20T14:36:52Z</time>
      </trkpt>
      <trkpt lat="44.35131" lon="2.5154">
        <ele>579</ele>
        <time>2012-03-20T14:36:55Z</time>
      </trkpt>
      <trkpt lat="44.35144" lon="2.51527">
        <ele>573</ele>
        <time>2012-03-20T14:37:07Z</time>
      </trkpt>
      <trkpt lat="44.35154" lon="2.5152">
        <ele>578</ele>
        <time>2012-03-20T14:37:14Z</time>
      </trkpt>
      <trkpt lat="44.35163" lon="2.51515">
        <ele>576</ele>
        <time>2012-03-20T14:37:25Z</time>
      </trkpt>
      <trkpt lat="44.35172" lon="2.51512">
        <ele>578</ele>
        <time>2012-03-20T14:37:31Z</time>
      </trkpt>
      <trkpt lat="44.35188" lon="2.51504">
        <ele>568</ele>
        <time>2012-03-20T14:37:42Z</time>
      </trkpt>
      <trkpt lat="44.35196" lon="2.51494">
        <ele>576</ele>
        <time>2012-03-20T14:37:56Z</time>
      </trkpt>
      <trkpt lat="44.35203" lon="2.51486">
        <ele>572</ele>
        <time>2012-03-20T14:38:03Z</time>
      </trkpt>
      <trkpt lat="44.35205" lon="2.51478">
        <ele>570</ele>
        <time>2012-03-20T14:38:07Z</time>
      </trkpt>
      <trkpt lat="44.35208" lon="2.51472">
        <ele>570</ele>
        <time>2012-03-20T14:38:10Z</time>
      </trkpt>
      <trkpt lat="44.35211" lon="2.51458">
        <ele>570</ele>
        <time>2012-03-20T14:38:21Z</time>
      </trkpt>
      <trkpt lat="44.35209" lon="2.51444">
        <ele>569</ele>
        <time>2012-03-20T14:38:27Z</time>
      </trkpt>
      <trkpt lat="44.35207" lon="2.51428">
        <ele>570</ele>
        <time>2012-03-20T14:38:35Z</time>
      </trkpt>
      <trkpt lat="44.35217" lon="2.51424">
        <ele>556</ele>
        <time>2012-03-20T14:38:49Z</time>
      </trkpt>
      <trkpt lat="44.35234" lon="2.51434">
        <ele>547</ele>
        <time>2012-03-20T14:39:06Z</time>
      </trkpt>
      <trkpt lat="44.35262" lon="2.51454">
        <ele>539</ele>
        <time>2012-03-20T14:39:28Z</time>
      </trkpt>
      <trkpt lat="44.35271" lon="2.51458">
        <ele>540</ele>
        <time>2012-03-20T14:39:36Z</time>
      </trkpt>
      <trkpt lat="44.35275" lon="2.51467">
        <ele>554</ele>
        <time>2012-03-20T14:40:03Z</time>
      </trkpt>
      <trkpt lat="44.35274" lon="2.51481">
        <ele>547</ele>
        <time>2012-03-20T14:40:44Z</time>
      </trkpt>
      <trkpt lat="44.3527" lon="2.5148">
        <ele>559</ele>
        <time>2012-03-20T14:41:32Z</time>
      </trkpt>
      <trkpt lat="44.35268" lon="2.51475">
        <ele>568</ele>
        <time>2012-03-20T14:42:04Z</time>
      </trkpt>
      <trkpt lat="44.35268" lon="2.51461">
        <ele>564</ele>
        <time>2012-03-20T14:42:35Z</time>
      </trkpt>
      <trkpt lat="44.35275" lon="2.51468">
        <ele>557</ele>
        <time>2012-03-20T14:43:06Z</time>
      </trkpt>
      <trkpt lat="44.3527" lon="2.5147">
        <ele>559</ele>
        <time>2012-03-20T14:44:08Z</time>
      </trkpt>
      <trkpt lat="44.35261" lon="2.51465">
        <ele>557</ele>
        <time>2012-03-20T14:44:16Z</time>
      </trkpt>
      <trkpt lat="44.35257" lon="2.51461">
        <ele>557</ele>
        <time>2012-03-20T14:44:19Z</time>
      </trkpt>
      <trkpt lat="44.35248" lon="2.51453">
        <ele>553</ele>
        <time>2012-03-20T14:44:27Z</time>
      </trkpt>
      <trkpt lat="44.35241" lon="2.51444">
        <ele>553</ele>
        <time>2012-03-20T14:44:33Z</time>
      </trkpt>
      <trkpt lat="44.35222" lon="2.51433">
        <ele>556</ele>
        <time>2012-03-20T14:44:47Z</time>
      </trkpt>
      <trkpt lat="44.35212" lon="2.51432">
        <ele>556</ele>
        <time>2012-03-20T14:44:54Z</time>
      </trkpt>
      <trkpt lat="44.35208" lon="2.51433">
        <ele>560</ele>
        <time>2012-03-20T14:44:58Z</time>
      </trkpt>
      <trkpt lat="44.35207" lon="2.51441">
        <ele>558</ele>
        <time>2012-03-20T14:45:04Z</time>
      </trkpt>
      <trkpt lat="44.35209" lon="2.51456">
        <ele>551</ele>
        <time>2012-03-20T14:45:14Z</time>
      </trkpt>
      <trkpt lat="44.35207" lon="2.5147">
        <ele>551</ele>
        <time>2012-03-20T14:45:21Z</time>
      </trkpt>
      <trkpt lat="44.35202" lon="2.51482">
        <ele>552</ele>
        <time>2012-03-20T14:45:27Z</time>
      </trkpt>
      <trkpt lat="44.35198" lon="2.51489">
        <ele>557</ele>
        <time>2012-03-20T14:45:32Z</time>
      </trkpt>
      <trkpt lat="44.35192" lon="2.51495">
        <ele>555</ele>
        <time>2012-03-20T14:45:38Z</time>
      </trkpt>
      <trkpt lat="44.35188" lon="2.51499">
        <ele>559</ele>
        <time>2012-03-20T14:45:42Z</time>
      </trkpt>
      <trkpt lat="44.3518" lon="2.51507">
        <ele>558</ele>
        <time>2012-03-20T14:45:48Z</time>
      </trkpt>
      <trkpt lat="44.35175" lon="2.51511">
        <ele>566</ele>
        <time>2012-03-20T14:45:52Z</time>
      </trkpt>
      <trkpt lat="44.3517" lon="2.51516">
        <ele>566</ele>
        <time>2012-03-20T14:45:56Z</time>
      </trkpt>
      <trkpt lat="44.35165" lon="2.51518">
        <ele>562</ele>
        <time>2012-03-20T14:46:02Z</time>
      </trkpt>
      <trkpt lat="44.35156" lon="2.51519">
        <ele>570</ele>
        <time>2012-03-20T14:46:08Z</time>
      </trkpt>
      <trkpt lat="44.35148" lon="2.51526">
        <ele>570</ele>
        <time>2012-03-20T14:46:14Z</time>
      </trkpt>
      <trkpt lat="44.35134" lon="2.51538">
        <ele>575</ele>
        <time>2012-03-20T14:46:26Z</time>
      </trkpt>
      <trkpt lat="44.35125" lon="2.51547">
        <ele>574</ele>
        <time>2012-03-20T14:46:31Z</time>
      </trkpt>
      <trkpt lat="44.35107" lon="2.51564">
        <ele>577</ele>
        <time>2012-03-20T14:46:38Z</time>
      </trkpt>
      <trkpt lat="44.35096" lon="2.51571">
        <ele>575</ele>
        <time>2012-03-20T14:46:42Z</time>
      </trkpt>
      <trkpt lat="44.35091" lon="2.51572">
        <ele>578</ele>
        <time>2012-03-20T14:46:44Z</time>
      </trkpt>
      <trkpt lat="44.35081" lon="2.5157">
        <ele>579</ele>
        <time>2012-03-20T14:46:48Z</time>
      </trkpt>
      <trkpt lat="44.35074" lon="2.51567">
        <ele>577</ele>
        <time>2012-03-20T14:46:51Z</time>
      </trkpt>
      <trkpt lat="44.3506" lon="2.51565">
        <ele>581</ele>
        <time>2012-03-20T14:46:56Z</time>
      </trkpt>
      <trkpt lat="44.35046" lon="2.51567">
        <ele>578</ele>
        <time>2012-03-20T14:47:00Z</time>
      </trkpt>
      <trkpt lat="44.3504" lon="2.51571">
        <ele>580</ele>
        <time>2012-03-20T14:47:02Z</time>
      </trkpt>
      <trkpt lat="44.35032" lon="2.51578">
        <ele>580</ele>
        <time>2012-03-20T14:47:05Z</time>
      </trkpt>
      <trkpt lat="44.35025" lon="2.51588">
        <ele>577</ele>
        <time>2012-03-20T14:47:08Z</time>
      </trkpt>
      <trkpt lat="44.35007" lon="2.51618">
        <ele>585</ele>
        <time>2012-03-20T14:47:17Z</time>
      </trkpt>
      <trkpt lat="44.34993" lon="2.51628">
        <ele>583</ele>
        <time>2012-03-20T14:47:21Z</time>
      </trkpt>
      <trkpt lat="44.34986" lon="2.5163">
        <ele>588</ele>
        <time>2012-03-20T14:47:23Z</time>
      </trkpt>
      <trkpt lat="44.34975" lon="2.51634">
        <ele>589</ele>
        <time>2012-03-20T14:47:26Z</time>
      </trkpt>
      <trkpt lat="44.34964" lon="2.51638">
        <ele>588</ele>
        <time>2012-03-20T14:47:29Z</time>
      </trkpt>
      <trkpt lat="44.34952" lon="2.51642">
        <ele>590</ele>
        <time>2012-03-20T14:47:32Z</time>
      </trkpt>
      <trkpt lat="44.34942" lon="2.51642">
        <ele>589</ele>
        <time>2012-03-20T14:47:34Z</time>
      </trkpt>
      <trkpt lat="44.3493" lon="2.51645">
        <ele>590</ele>
        <time>2012-03-20T14:47:37Z</time>
      </trkpt>
      <trkpt lat="44.3492" lon="2.51649">
        <ele>588</ele>
        <time>2012-03-20T14:47:41Z</time>
      </trkpt>
      <trkpt lat="44.34913" lon="2.51648">
        <ele>589</ele>
        <time>2012-03-20T14:47:46Z</time>
      </trkpt>
      <trkpt lat="44.34895" lon="2.51647">
        <ele>596</ele>
        <time>2012-03-20T14:48:10Z</time>
      </trkpt>
      <trkpt lat="44.34888" lon="2.51647">
        <ele>596</ele>
        <time>2012-03-20T14:48:16Z</time>
      </trkpt>
      <trkpt lat="44.34874" lon="2.51647">
        <ele>598</ele>
        <time>2012-03-20T14:48:26Z</time>
      </trkpt>
      <trkpt lat="44.3487" lon="2.51646">
        <ele>597</ele>
        <time>2012-03-20T14:48:30Z</time>
      </trkpt>
      <trkpt lat="44.34864" lon="2.51645">
        <ele>597</ele>
        <time>2012-03-20T14:48:34Z</time>
      </trkpt>
      <trkpt lat="44.3486" lon="2.51644">
        <ele>601</ele>
        <time>2012-03-20T14:48:37Z</time>
      </trkpt>
      <trkpt lat="44.34845" lon="2.51646">
        <ele>598</ele>
        <time>2012-03-20T14:48:44Z</time>
      </trkpt>
      <trkpt lat="44.34837" lon="2.51644">
        <ele>603</ele>
        <time>2012-03-20T14:48:50Z</time>
      </trkpt>
      <trkpt lat="44.34831" lon="2.51642">
        <ele>603</ele>
        <time>2012-03-20T14:48:54Z</time>
      </trkpt>
      <trkpt lat="44.34819" lon="2.51643">
        <ele>598</ele>
        <time>2012-03-20T14:49:02Z</time>
      </trkpt>
      <trkpt lat="44.34809" lon="2.51643">
        <ele>597</ele>
        <time>2012-03-20T14:49:06Z</time>
      </trkpt>
      <trkpt lat="44.34798" lon="2.51642">
        <ele>599</ele>
        <time>2012-03-20T14:49:10Z</time>
      </trkpt>
      <trkpt lat="44.34789" lon="2.51641">
        <ele>599</ele>
        <time>2012-03-20T14:49:13Z</time>
      </trkpt>
      <trkpt lat="44.34777" lon="2.5164">
        <ele>605</ele>
        <time>2012-03-20T14:49:16Z</time>
      </trkpt>
      <trkpt lat="44.34751" lon="2.51635">
        <ele>597</ele>
        <time>2012-03-20T14:49:22Z</time>
      </trkpt>
      <trkpt lat="44.3473" lon="2.51633">
        <ele>599</ele>
        <time>2012-03-20T14:49:27Z</time>
      </trkpt>
      <trkpt lat="44.34709" lon="2.51631">
        <ele>606</ele>
        <time>2012-03-20T14:49:34Z</time>
      </trkpt>
      <trkpt lat="44.34699" lon="2.5163">
        <ele>606</ele>
        <time>2012-03-20T14:49:37Z</time>
      </trkpt>
      <trkpt lat="44.34687" lon="2.51629">
        <ele>602</ele>
        <time>2012-03-20T14:49:40Z</time>
      </trkpt>
      <trkpt lat="44.34676" lon="2.51629">
        <ele>603</ele>
        <time>2012-03-20T14:49:43Z</time>
      </trkpt>
      <trkpt lat="44.34665" lon="2.51629">
        <ele>608</ele>
        <time>2012-03-20T14:49:47Z</time>
      </trkpt>
      <trkpt lat="44.34653" lon="2.5163">
        <ele>606</ele>
        <time>2012-03-20T14:49:51Z</time>
      </trkpt>
      <trkpt lat="44.34641" lon="2.51633">
        <ele>613</ele>
        <time>2012-03-20T14:49:55Z</time>
      </trkpt>
      <trkpt lat="44.34635" lon="2.51635">
        <ele>610</ele>
        <time>2012-03-20T14:49:57Z</time>
      </trkpt>
      <trkpt lat="44.34628" lon="2.51638">
        <ele>610</ele>
        <time>2012-03-20T14:49:59Z</time>
      </trkpt>
      <trkpt lat="44.34618" lon="2.51641">
        <ele>608</ele>
        <time>2012-03-20T14:50:02Z</time>
      </trkpt>
      <trkpt lat="44.34598" lon="2.5165">
        <ele>607</ele>
        <time>2012-03-20T14:50:08Z</time>
      </trkpt>
      <trkpt lat="44.34579" lon="2.5166">
        <ele>612</ele>
        <time>2012-03-20T14:50:14Z</time>
      </trkpt>
      <trkpt lat="44.34573" lon="2.51664">
        <ele>612</ele>
        <time>2012-03-20T14:50:16Z</time>
      </trkpt>
      <trkpt lat="44.34568" lon="2.51666">
        <ele>608</ele>
        <time>2012-03-20T14:50:18Z</time>
      </trkpt>
      <trkpt lat="44.34564" lon="2.51667">
        <ele>613</ele>
        <time>2012-03-20T14:50:22Z</time>
      </trkpt>
      <trkpt lat="44.34559" lon="2.51669">
        <ele>608</ele>
        <time>2012-03-20T14:50:27Z</time>
      </trkpt>
      <trkpt lat="44.34554" lon="2.51663">
        <ele>611</ele>
        <time>2012-03-20T14:50:31Z</time>
      </trkpt>
      <trkpt lat="44.34551" lon="2.51659">
        <ele>614</ele>
        <time>2012-03-20T14:50:34Z</time>
      </trkpt>
      <trkpt lat="44.34546" lon="2.51661">
        <ele>615</ele>
        <time>2012-03-20T14:50:39Z</time>
      </trkpt>
      <trkpt lat="44.34535" lon="2.51675">
        <ele>606</ele>
        <time>2012-03-20T14:50:48Z</time>
      </trkpt>
      <trkpt lat="44.34531" lon="2.5168">
        <ele>609</ele>
        <time>2012-03-20T14:50:51Z</time>
      </trkpt>
      <trkpt lat="44.34518" lon="2.51693">
        <ele>607</ele>
        <time>2012-03-20T14:51:02Z</time>
      </trkpt>
      <trkpt lat="44.34515" lon="2.51699">
        <ele>607</ele>
        <time>2012-03-20T14:51:06Z</time>
      </trkpt>
      <trkpt lat="44.34512" lon="2.51704">
        <ele>603</ele>
        <time>2012-03-20T14:51:09Z</time>
      </trkpt>
      <trkpt lat="44.34508" lon="2.51709">
        <ele>605</ele>
        <time>2012-03-20T14:51:13Z</time>
      </trkpt>
      <trkpt lat="44.34501" lon="2.51719">
        <ele>603</ele>
        <time>2012-03-20T14:51:27Z</time>
      </trkpt>
      <trkpt lat="44.34497" lon="2.51726">
        <ele>602</ele>
        <time>2012-03-20T14:51:31Z</time>
      </trkpt>
      <trkpt lat="44.34493" lon="2.51732">
        <ele>603</ele>
        <time>2012-03-20T14:51:35Z</time>
      </trkpt>
      <trkpt lat="44.3449" lon="2.51738">
        <ele>602</ele>
        <time>2012-03-20T14:51:38Z</time>
      </trkpt>
      <trkpt lat="44.34488" lon="2.51748">
        <ele>605</ele>
        <time>2012-03-20T14:51:42Z</time>
      </trkpt>
      <trkpt lat="44.34487" lon="2.51751">
        <ele>605</ele>
        <time>2012-03-20T14:51:48Z</time>
      </trkpt>
      <trkpt lat="44.34485" lon="2.51753">
        <ele>603</ele>
        <time>2012-03-20T14:51:54Z</time>
      </trkpt>
      <trkpt lat="44.3448" lon="2.51756">
        <ele>604</ele>
        <time>2012-03-20T14:52:02Z</time>
      </trkpt>
      <trkpt lat="44.34476" lon="2.5176">
        <ele>604</ele>
        <time>2012-03-20T14:52:06Z</time>
      </trkpt>
      <trkpt lat="44.34472" lon="2.51767">
        <ele>604</ele>
        <time>2012-03-20T14:52:10Z</time>
      </trkpt>
      <trkpt lat="44.3447" lon="2.51772">
        <ele>604</ele>
        <time>2012-03-20T14:52:13Z</time>
      </trkpt>
      <trkpt lat="44.34458" lon="2.51785">
        <ele>606</ele>
        <time>2012-03-20T14:52:21Z</time>
      </trkpt>
      <trkpt lat="44.34455" lon="2.5179">
        <ele>603</ele>
        <time>2012-03-20T14:52:25Z</time>
      </trkpt>
      <trkpt lat="44.34451" lon="2.51794">
        <ele>603</ele>
        <time>2012-03-20T14:52:28Z</time>
      </trkpt>
      <trkpt lat="44.34441" lon="2.51806">
        <ele>612</ele>
        <time>2012-03-20T14:52:42Z</time>
      </trkpt>
      <trkpt lat="44.34437" lon="2.51809">
        <ele>612</ele>
        <time>2012-03-20T14:52:46Z</time>
      </trkpt>
      <trkpt lat="44.34428" lon="2.51811">
        <ele>614</ele>
        <time>2012-03-20T14:52:52Z</time>
      </trkpt>
      <trkpt lat="44.34419" lon="2.51817">
        <ele>610</ele>
        <time>2012-03-20T14:52:59Z</time>
      </trkpt>
      <trkpt lat="44.34414" lon="2.51828">
        <ele>612</ele>
        <time>2012-03-20T14:53:05Z</time>
      </trkpt>
      <trkpt lat="44.34412" lon="2.51835">
        <ele>609</ele>
        <time>2012-03-20T14:53:09Z</time>
      </trkpt>
      <trkpt lat="44.3441" lon="2.51842">
        <ele>608</ele>
        <time>2012-03-20T14:53:13Z</time>
      </trkpt>
      <trkpt lat="44.34407" lon="2.51847">
        <ele>609</ele>
        <time>2012-03-20T14:53:16Z</time>
      </trkpt>
      <trkpt lat="44.34403" lon="2.51853">
        <ele>607</ele>
        <time>2012-03-20T14:53:20Z</time>
      </trkpt>
      <trkpt lat="44.34398" lon="2.51856">
        <ele>610</ele>
        <time>2012-03-20T14:53:24Z</time>
      </trkpt>
      <trkpt lat="44.34393" lon="2.51858">
        <ele>609</ele>
        <time>2012-03-20T14:53:28Z</time>
      </trkpt>
      <trkpt lat="44.34388" lon="2.51859">
        <ele>613</ele>
        <time>2012-03-20T14:53:32Z</time>
      </trkpt>
      <trkpt lat="44.34383" lon="2.51863">
        <ele>612</ele>
        <time>2012-03-20T14:53:38Z</time>
      </trkpt>
      <trkpt lat="44.34376" lon="2.51864">
        <ele>614</ele>
        <time>2012-03-20T14:53:45Z</time>
      </trkpt>
      <trkpt lat="44.34371" lon="2.51864">
        <ele>614</ele>
        <time>2012-03-20T14:53:49Z</time>
      </trkpt>
      <trkpt lat="44.34366" lon="2.51867">
        <ele>612</ele>
        <time>2012-03-20T14:53:53Z</time>
      </trkpt>
      <trkpt lat="44.34365" lon="2.51871">
        <ele>611</ele>
        <time>2012-03-20T14:53:59Z</time>
      </trkpt>
      <trkpt lat="44.34361" lon="2.51871">
        <ele>611</ele>
        <time>2012-03-20T14:54:06Z</time>
      </trkpt>
      <trkpt lat="44.34358" lon="2.51871">
        <ele>614</ele>
        <time>2012-03-20T14:54:12Z</time>
      </trkpt>
      <trkpt lat="44.3434" lon="2.5187">
        <ele>620</ele>
        <time>2012-03-20T14:54:30Z</time>
      </trkpt>
      <trkpt lat="44.3433" lon="2.51871">
        <ele>615</ele>
        <time>2012-03-20T14:54:37Z</time>
      </trkpt>
      <trkpt lat="44.34326" lon="2.51873">
        <ele>615</ele>
        <time>2012-03-20T14:54:41Z</time>
      </trkpt>
      <trkpt lat="44.3432" lon="2.51874">
        <ele>618</ele>
        <time>2012-03-20T14:54:45Z</time>
      </trkpt>
      <trkpt lat="44.34315" lon="2.51875">
        <ele>615</ele>
        <time>2012-03-20T14:54:49Z</time>
      </trkpt>
      <trkpt lat="44.34312" lon="2.5188">
        <ele>612</ele>
        <time>2012-03-20T14:54:55Z</time>
      </trkpt>
      <trkpt lat="44.34311" lon="2.51889">
        <ele>611</ele>
        <time>2012-03-20T14:54:59Z</time>
      </trkpt>
      <trkpt lat="44.34312" lon="2.51912">
        <ele>602</ele>
        <time>2012-03-20T14:55:15Z</time>
      </trkpt>
      <trkpt lat="44.3431" lon="2.51926">
        <ele>601</ele>
        <time>2012-03-20T14:55:22Z</time>
      </trkpt>
      <trkpt lat="44.34311" lon="2.51938">
        <ele>602</ele>
        <time>2012-03-20T14:55:28Z</time>
      </trkpt>
      <trkpt lat="44.34311" lon="2.51948">
        <ele>599</ele>
        <time>2012-03-20T14:55:35Z</time>
      </trkpt>
      <trkpt lat="44.34307" lon="2.51967">
        <ele>603</ele>
        <time>2012-03-20T14:55:46Z</time>
      </trkpt>
      <trkpt lat="44.34305" lon="2.51975">
        <ele>603</ele>
        <time>2012-03-20T14:55:50Z</time>
      </trkpt>
      <trkpt lat="44.34303" lon="2.51983">
        <ele>601</ele>
        <time>2012-03-20T14:55:54Z</time>
      </trkpt>
      <trkpt lat="44.34303" lon="2.5199">
        <ele>601</ele>
        <time>2012-03-20T14:55:58Z</time>
      </trkpt>
      <trkpt lat="44.34302" lon="2.52001">
        <ele>607</ele>
        <time>2012-03-20T14:56:02Z</time>
      </trkpt>
      <trkpt lat="44.34303" lon="2.52009">
        <ele>606</ele>
        <time>2012-03-20T14:56:06Z</time>
      </trkpt>
      <trkpt lat="44.3431" lon="2.52026">
        <ele>597</ele>
        <time>2012-03-20T14:56:17Z</time>
      </trkpt>
      <trkpt lat="44.34313" lon="2.52037">
        <ele>612</ele>
        <time>2012-03-20T14:56:51Z</time>
      </trkpt>
      <trkpt lat="44.34315" lon="2.52035">
        <ele>612</ele>
        <time>2012-03-20T14:56:57Z</time>
      </trkpt>
      <trkpt lat="44.34317" lon="2.52029">
        <ele>605</ele>
        <time>2012-03-20T14:57:16Z</time>
      </trkpt>
      <trkpt lat="44.34312" lon="2.52028">
        <ele>600</ele>
        <time>2012-03-20T14:58:14Z</time>
      </trkpt>
      <trkpt lat="44.34313" lon="2.52021">
        <ele>614</ele>
        <time>2012-03-20T14:58:33Z</time>
      </trkpt>
      <trkpt lat="44.34313" lon="2.52027">
        <ele>603</ele>
        <time>2012-03-20T14:59:05Z</time>
      </trkpt>
      <trkpt lat="44.3431" lon="2.52032">
        <ele>598</ele>
        <time>2012-03-20T14:59:10Z</time>
      </trkpt>
      <trkpt lat="44.34314" lon="2.52026">
        <ele>611</ele>
        <time>2012-03-20T14:59:59Z</time>
      </trkpt>
      <trkpt lat="44.34319" lon="2.52022">
        <ele>609</ele>
        <time>2012-03-20T15:00:03Z</time>
      </trkpt>
      <trkpt lat="44.3432" lon="2.52023">
        <ele>611</ele>
        <time>2012-03-20T15:00:38Z</time>
      </trkpt>
      <trkpt lat="44.34316" lon="2.52033">
        <ele>610</ele>
        <time>2012-03-20T15:01:51Z</time>
      </trkpt>
      <trkpt lat="44.34313" lon="2.52036">
        <ele>610</ele>
        <time>2012-03-20T15:02:36Z</time>
      </trkpt>
      <trkpt lat="44.34305" lon="2.52025">
        <ele>614</ele>
        <time>2012-03-20T15:04:16Z</time>
      </trkpt>
      <trkpt lat="44.34316" lon="2.52023">
        <ele>613</ele>
        <time>2012-03-20T15:04:26Z</time>
      </trkpt>
      <trkpt lat="44.34321" lon="2.52023">
        <ele>612</ele>
        <time>2012-03-20T15:04:33Z</time>
      </trkpt>
      <trkpt lat="44.34321" lon="2.52027">
        <ele>609</ele>
        <time>2012-03-20T15:04:55Z</time>
      </trkpt>
      <trkpt lat="44.34319" lon="2.52035">
        <ele>604</ele>
        <time>2012-03-20T15:07:40Z</time>
      </trkpt>
      <trkpt lat="44.34318" lon="2.52036">
        <ele>608</ele>
        <time>2012-03-20T15:08:35Z</time>
      </trkpt>
      <trkpt lat="44.3432" lon="2.52031">
        <ele>605</ele>
        <time>2012-03-20T15:11:13Z</time>
      </trkpt>
      <trkpt lat="44.34324" lon="2.52038">
        <ele>609</ele>
        <time>2012-03-20T15:11:25Z</time>
      </trkpt>
      <trkpt lat="44.34329" lon="2.52039">
        <ele>608</ele>
        <time>2012-03-20T15:11:28Z</time>
      </trkpt>
      <trkpt lat="44.34331" lon="2.52038">
        <ele>615</ele>
        <time>2012-03-20T15:12:07Z</time>
      </trkpt>
      <trkpt lat="44.34333" lon="2.52035">
        <ele>612</ele>
        <time>2012-03-20T15:12:29Z</time>
      </trkpt>
      <trkpt lat="44.34341" lon="2.52036">
        <ele>615</ele>
        <time>2012-03-20T15:15:11Z</time>
      </trkpt>
      <trkpt lat="44.34346" lon="2.52035">
        <ele>614</ele>
        <time>2012-03-20T15:15:15Z</time>
      </trkpt>
      <trkpt lat="44.3435" lon="2.52034">
        <ele>614</ele>
        <time>2012-03-20T15:15:19Z</time>
      </trkpt>
      <trkpt lat="44.34356" lon="2.52035">
        <ele>611</ele>
        <time>2012-03-20T15:15:26Z</time>
      </trkpt>
      <trkpt lat="44.3436" lon="2.52036">
        <ele>617</ele>
        <time>2012-03-20T15:15:30Z</time>
      </trkpt>
      <trkpt lat="44.34365" lon="2.52035">
        <ele>612</ele>
        <time>2012-03-20T15:15:33Z</time>
      </trkpt>
      <trkpt lat="44.3437" lon="2.52034">
        <ele>613</ele>
        <time>2012-03-20T15:15:36Z</time>
      </trkpt>
      <trkpt lat="44.34378" lon="2.52036">
        <ele>613</ele>
        <time>2012-03-20T15:15:42Z</time>
      </trkpt>
      <trkpt lat="44.34388" lon="2.52035">
        <ele>621</ele>
        <time>2012-03-20T15:15:49Z</time>
      </trkpt>
      <trkpt lat="44.34398" lon="2.52038">
        <ele>617</ele>
        <time>2012-03-20T15:15:58Z</time>
      </trkpt>
      <trkpt lat="44.34403" lon="2.52046">
        <ele>613</ele>
        <time>2012-03-20T15:16:03Z</time>
      </trkpt>
      <trkpt lat="44.34405" lon="2.52054">
        <ele>610</ele>
        <time>2012-03-20T15:16:08Z</time>
      </trkpt>
      <trkpt lat="44.34408" lon="2.52068">
        <ele>610</ele>
        <time>2012-03-20T15:16:15Z</time>
      </trkpt>
      <trkpt lat="44.34409" lon="2.52075">
        <ele>611</ele>
        <time>2012-03-20T15:16:19Z</time>
      </trkpt>
      <trkpt lat="44.34407" lon="2.52086">
        <ele>604</ele>
        <time>2012-03-20T15:16:25Z</time>
      </trkpt>
      <trkpt lat="44.34412" lon="2.52108">
        <ele>611</ele>
        <time>2012-03-20T15:16:36Z</time>
      </trkpt>
      <trkpt lat="44.34413" lon="2.52115">
        <ele>611</ele>
        <time>2012-03-20T15:16:40Z</time>
      </trkpt>
      <trkpt lat="44.34413" lon="2.52122">
        <ele>611</ele>
        <time>2012-03-20T15:16:44Z</time>
      </trkpt>
      <trkpt lat="44.34413" lon="2.52129">
        <ele>611</ele>
        <time>2012-03-20T15:16:49Z</time>
      </trkpt>
      <trkpt lat="44.34414" lon="2.52136">
        <ele>613</ele>
        <time>2012-03-20T15:16:52Z</time>
      </trkpt>
      <trkpt lat="44.34416" lon="2.52143">
        <ele>613</ele>
        <time>2012-03-20T15:16:55Z</time>
      </trkpt>
      <trkpt lat="44.34417" lon="2.5215">
        <ele>613</ele>
        <time>2012-03-20T15:16:59Z</time>
      </trkpt>
      <trkpt lat="44.34417" lon="2.52158">
        <ele>613</ele>
        <time>2012-03-20T15:17:04Z</time>
      </trkpt>
      <trkpt lat="44.34419" lon="2.52165">
        <ele>613</ele>
        <time>2012-03-20T15:17:09Z</time>
      </trkpt>
      <trkpt lat="44.34421" lon="2.52172">
        <ele>615</ele>
        <time>2012-03-20T15:17:13Z</time>
      </trkpt>
      <trkpt lat="44.34421" lon="2.52179">
        <ele>613</ele>
        <time>2012-03-20T15:17:17Z</time>
      </trkpt>
      <trkpt lat="44.34423" lon="2.52201">
        <ele>611</ele>
        <time>2012-03-20T15:17:29Z</time>
      </trkpt>
      <trkpt lat="44.34425" lon="2.52211">
        <ele>613</ele>
        <time>2012-03-20T15:17:32Z</time>
      </trkpt>
      <trkpt lat="44.34425" lon="2.52217">
        <ele>613</ele>
        <time>2012-03-20T15:17:35Z</time>
      </trkpt>
      <trkpt lat="44.34423" lon="2.52225">
        <ele>614</ele>
        <time>2012-03-20T15:17:39Z</time>
      </trkpt>
      <trkpt lat="44.34426" lon="2.52254">
        <ele>609</ele>
        <time>2012-03-20T15:17:57Z</time>
      </trkpt>
      <trkpt lat="44.34425" lon="2.5226">
        <ele>609</ele>
        <time>2012-03-20T15:18:00Z</time>
      </trkpt>
      <trkpt lat="44.34425" lon="2.52268">
        <ele>607</ele>
        <time>2012-03-20T15:18:03Z</time>
      </trkpt>
      <trkpt lat="44.34425" lon="2.52275">
        <ele>608</ele>
        <time>2012-03-20T15:18:07Z</time>
      </trkpt>
      <trkpt lat="44.34423" lon="2.52283">
        <ele>608</ele>
        <time>2012-03-20T15:18:11Z</time>
      </trkpt>
      <trkpt lat="44.34417" lon="2.5232">
        <ele>603</ele>
        <time>2012-03-20T15:18:33Z</time>
      </trkpt>
      <trkpt lat="44.34416" lon="2.52327">
        <ele>603</ele>
        <time>2012-03-20T15:18:38Z</time>
      </trkpt>
      <trkpt lat="44.34413" lon="2.5234">
        <ele>609</ele>
        <time>2012-03-20T15:18:46Z</time>
      </trkpt>
      <trkpt lat="44.34413" lon="2.52346">
        <ele>602</ele>
        <time>2012-03-20T15:18:49Z</time>
      </trkpt>
      <trkpt lat="44.34412" lon="2.52354">
        <ele>605</ele>
        <time>2012-03-20T15:18:52Z</time>
      </trkpt>
      <trkpt lat="44.34413" lon="2.52361">
        <ele>601</ele>
        <time>2012-03-20T15:18:56Z</time>
      </trkpt>
      <trkpt lat="44.34412" lon="2.52376">
        <ele>605</ele>
        <time>2012-03-20T15:19:02Z</time>
      </trkpt>
      <trkpt lat="44.34412" lon="2.52385">
        <ele>605</ele>
        <time>2012-03-20T15:19:07Z</time>
      </trkpt>
      <trkpt lat="44.34414" lon="2.52392">
        <ele>606</ele>
        <time>2012-03-20T15:19:12Z</time>
      </trkpt>
      <trkpt lat="44.34414" lon="2.52399">
        <ele>606</ele>
        <time>2012-03-20T15:19:16Z</time>
      </trkpt>
      <trkpt lat="44.34411" lon="2.52413">
        <ele>608</ele>
        <time>2012-03-20T15:19:24Z</time>
      </trkpt>
      <trkpt lat="44.34411" lon="2.52421">
        <ele>604</ele>
        <time>2012-03-20T15:19:29Z</time>
      </trkpt>
      <trkpt lat="44.34411" lon="2.52428">
        <ele>608</ele>
        <time>2012-03-20T15:19:33Z</time>
      </trkpt>
      <trkpt lat="44.34409" lon="2.52434">
        <ele>608</ele>
        <time>2012-03-20T15:19:38Z</time>
      </trkpt>
      <trkpt lat="44.34408" lon="2.52442">
        <ele>605</ele>
        <time>2012-03-20T15:19:42Z</time>
      </trkpt>
      <trkpt lat="44.34408" lon="2.52449">
        <ele>605</ele>
        <time>2012-03-20T15:19:46Z</time>
      </trkpt>
      <trkpt lat="44.34406" lon="2.52457">
        <ele>607</ele>
        <time>2012-03-20T15:19:57Z</time>
      </trkpt>
      <trkpt lat="44.34404" lon="2.52465">
        <ele>607</ele>
        <time>2012-03-20T15:20:01Z</time>
      </trkpt>
      <trkpt lat="44.34401" lon="2.52473">
        <ele>604</ele>
        <time>2012-03-20T15:20:06Z</time>
      </trkpt>
      <trkpt lat="44.34395" lon="2.5249">
        <ele>610</ele>
        <time>2012-03-20T15:20:17Z</time>
      </trkpt>
      <trkpt lat="44.34392" lon="2.52497">
        <ele>607</ele>
        <time>2012-03-20T15:20:21Z</time>
      </trkpt>
      <trkpt lat="44.34379" lon="2.52512">
        <ele>613</ele>
        <time>2012-03-20T15:20:34Z</time>
      </trkpt>
      <trkpt lat="44.34377" lon="2.52518">
        <ele>613</ele>
        <time>2012-03-20T15:20:37Z</time>
      </trkpt>
      <trkpt lat="44.34373" lon="2.52525">
        <ele>617</ele>
        <time>2012-03-20T15:20:41Z</time>
      </trkpt>
      <trkpt lat="44.3437" lon="2.5253">
        <ele>615</ele>
        <time>2012-03-20T15:20:45Z</time>
      </trkpt>
      <trkpt lat="44.34368" lon="2.52536">
        <ele>615</ele>
        <time>2012-03-20T15:20:49Z</time>
      </trkpt>
      <trkpt lat="44.34362" lon="2.52549">
        <ele>611</ele>
        <time>2012-03-20T15:20:56Z</time>
      </trkpt>
      <trkpt lat="44.3436" lon="2.52555">
        <ele>616</ele>
        <time>2012-03-20T15:21:00Z</time>
      </trkpt>
      <trkpt lat="44.34352" lon="2.52578">
        <ele>604</ele>
        <time>2012-03-20T15:21:15Z</time>
      </trkpt>
      <trkpt lat="44.34347" lon="2.52588">
        <ele>605</ele>
        <time>2012-03-20T15:21:22Z</time>
      </trkpt>
      <trkpt lat="44.34344" lon="2.52609">
        <ele>611</ele>
        <time>2012-03-20T15:21:35Z</time>
      </trkpt>
      <trkpt lat="44.34342" lon="2.52617">
        <ele>612</ele>
        <time>2012-03-20T15:21:40Z</time>
      </trkpt>
      <trkpt lat="44.34336" lon="2.52633">
        <ele>610</ele>
        <time>2012-03-20T15:21:47Z</time>
      </trkpt>
      <trkpt lat="44.34336" lon="2.5264">
        <ele>608</ele>
        <time>2012-03-20T15:21:51Z</time>
      </trkpt>
      <trkpt lat="44.34335" lon="2.52656">
        <ele>614</ele>
        <time>2012-03-20T15:22:00Z</time>
      </trkpt>
      <trkpt lat="44.34337" lon="2.52663">
        <ele>614</ele>
        <time>2012-03-20T15:22:03Z</time>
      </trkpt>
      <trkpt lat="44.34337" lon="2.5268">
        <ele>616</ele>
        <time>2012-03-20T15:22:12Z</time>
      </trkpt>
      <trkpt lat="44.34336" lon="2.52688">
        <ele>614</ele>
        <time>2012-03-20T15:22:16Z</time>
      </trkpt>
      <trkpt lat="44.34335" lon="2.52693">
        <ele>620</ele>
        <time>2012-03-20T15:22:24Z</time>
      </trkpt>
      <trkpt lat="44.34333" lon="2.527">
        <ele>614</ele>
        <time>2012-03-20T15:22:52Z</time>
      </trkpt>
      <trkpt lat="44.34333" lon="2.52708">
        <ele>615</ele>
        <time>2012-03-20T15:22:56Z</time>
      </trkpt>
      <trkpt lat="44.34335" lon="2.52709">
        <ele>612</ele>
        <time>2012-03-20T15:23:18Z</time>
      </trkpt>
      <trkpt lat="44.34333" lon="2.5272">
        <ele>612</ele>
        <time>2012-03-20T15:23:24Z</time>
      </trkpt>
      <trkpt lat="44.34326" lon="2.52743">
        <ele>621</ele>
        <time>2012-03-20T15:23:37Z</time>
      </trkpt>
      <trkpt lat="44.3432" lon="2.52764">
        <ele>614</ele>
        <time>2012-03-20T15:23:49Z</time>
      </trkpt>
      <trkpt lat="44.34318" lon="2.5277">
        <ele>617</ele>
        <time>2012-03-20T15:23:53Z</time>
      </trkpt>
      <trkpt lat="44.34311" lon="2.5279">
        <ele>610</ele>
        <time>2012-03-20T15:24:07Z</time>
      </trkpt>
      <trkpt lat="44.3431" lon="2.52796">
        <ele>615</ele>
        <time>2012-03-20T15:24:10Z</time>
      </trkpt>
      <trkpt lat="44.34309" lon="2.52805">
        <ele>615</ele>
        <time>2012-03-20T15:24:14Z</time>
      </trkpt>
      <trkpt lat="44.34308" lon="2.52811">
        <ele>613</ele>
        <time>2012-03-20T15:24:18Z</time>
      </trkpt>
      <trkpt lat="44.34305" lon="2.52816">
        <ele>612</ele>
        <time>2012-03-20T15:24:21Z</time>
      </trkpt>
      <trkpt lat="44.34301" lon="2.52821">
        <ele>617</ele>
        <time>2012-03-20T15:24:28Z</time>
      </trkpt>
      <trkpt lat="44.34292" lon="2.52825">
        <ele>614</ele>
        <time>2012-03-20T15:24:36Z</time>
      </trkpt>
      <trkpt lat="44.34287" lon="2.52828">
        <ele>616</ele>
        <time>2012-03-20T15:24:40Z</time>
      </trkpt>
      <trkpt lat="44.34279" lon="2.52834">
        <ele>611</ele>
        <time>2012-03-20T15:24:46Z</time>
      </trkpt>
      <trkpt lat="44.34275" lon="2.52837">
        <ele>611</ele>
        <time>2012-03-20T15:24:49Z</time>
      </trkpt>
      <trkpt lat="44.34271" lon="2.52841">
        <ele>613</ele>
        <time>2012-03-20T15:24:53Z</time>
      </trkpt>
      <trkpt lat="44.34267" lon="2.52846">
        <ele>611</ele>
        <time>2012-03-20T15:24:57Z</time>
      </trkpt>
      <trkpt lat="44.34263" lon="2.5285">
        <ele>612</ele>
        <time>2012-03-20T15:25:00Z</time>
      </trkpt>
      <trkpt lat="44.34247" lon="2.52871">
        <ele>607</ele>
        <time>2012-03-20T15:25:17Z</time>
      </trkpt>
      <trkpt lat="44.34232" lon="2.5289">
        <ele>616</ele>
        <time>2012-03-20T15:25:34Z</time>
      </trkpt>
      <trkpt lat="44.34228" lon="2.52895">
        <ele>616</ele>
        <time>2012-03-20T15:25:38Z</time>
      </trkpt>
      <trkpt lat="44.34224" lon="2.529">
        <ele>620</ele>
        <time>2012-03-20T15:25:42Z</time>
      </trkpt>
      <trkpt lat="44.34198" lon="2.52934">
        <ele>615</ele>
        <time>2012-03-20T15:26:09Z</time>
      </trkpt>
      <trkpt lat="44.34189" lon="2.52955">
        <ele>622</ele>
        <time>2012-03-20T15:26:22Z</time>
      </trkpt>
      <trkpt lat="44.34186" lon="2.52961">
        <ele>622</ele>
        <time>2012-03-20T15:26:26Z</time>
      </trkpt>
      <trkpt lat="44.34185" lon="2.52969">
        <ele>621</ele>
        <time>2012-03-20T15:26:30Z</time>
      </trkpt>
      <trkpt lat="44.3418" lon="2.52978">
        <ele>623</ele>
        <time>2012-03-20T15:26:35Z</time>
      </trkpt>
      <trkpt lat="44.34172" lon="2.52973">
        <ele>616</ele>
        <time>2012-03-20T15:26:44Z</time>
      </trkpt>
      <trkpt lat="44.34164" lon="2.52967">
        <ele>616</ele>
        <time>2012-03-20T15:26:51Z</time>
      </trkpt>
      <trkpt lat="44.34134" lon="2.52957">
        <ele>608</ele>
        <time>2012-03-20T15:27:18Z</time>
      </trkpt>
      <trkpt lat="44.34125" lon="2.52961">
        <ele>613</ele>
        <time>2012-03-20T15:27:24Z</time>
      </trkpt>
      <trkpt lat="44.34108" lon="2.52971">
        <ele>603</ele>
        <time>2012-03-20T15:27:39Z</time>
      </trkpt>
      <trkpt lat="44.34098" lon="2.52971">
        <ele>605</ele>
        <time>2012-03-20T15:27:46Z</time>
      </trkpt>
      <trkpt lat="44.34092" lon="2.52969">
        <ele>604</ele>
        <time>2012-03-20T15:27:51Z</time>
      </trkpt>
      <trkpt lat="44.34087" lon="2.52968">
        <ele>606</ele>
        <time>2012-03-20T15:28:01Z</time>
      </trkpt>
      <trkpt lat="44.3408" lon="2.52965">
        <ele>601</ele>
        <time>2012-03-20T15:28:14Z</time>
      </trkpt>
      <trkpt lat="44.34078" lon="2.52963">
        <ele>599</ele>
        <time>2012-03-20T15:28:26Z</time>
      </trkpt>
      <trkpt lat="44.34072" lon="2.52965">
        <ele>599</ele>
        <time>2012-03-20T15:28:49Z</time>
      </trkpt>
      <trkpt lat="44.3406" lon="2.52968">
        <ele>603</ele>
        <time>2012-03-20T15:29:00Z</time>
      </trkpt>
      <trkpt lat="44.34046" lon="2.52965">
        <ele>598</ele>
        <time>2012-03-20T15:29:13Z</time>
      </trkpt>
      <trkpt lat="44.34036" lon="2.52969">
        <ele>602</ele>
        <time>2012-03-20T15:29:21Z</time>
      </trkpt>
      <trkpt lat="44.34032" lon="2.52974">
        <ele>602</ele>
        <time>2012-03-20T15:29:26Z</time>
      </trkpt>
      <trkpt lat="44.34015" lon="2.5299">
        <ele>596</ele>
        <time>2012-03-20T15:29:42Z</time>
      </trkpt>
      <trkpt lat="44.34002" lon="2.52995">
        <ele>601</ele>
        <time>2012-03-20T15:29:55Z</time>
      </trkpt>
      <trkpt lat="44.33988" lon="2.53007">
        <ele>592</ele>
        <time>2012-03-20T15:30:08Z</time>
      </trkpt>
      <trkpt lat="44.33983" lon="2.5301">
        <ele>594</ele>
        <time>2012-03-20T15:30:12Z</time>
      </trkpt>
      <trkpt lat="44.33978" lon="2.53014">
        <ele>593</ele>
        <time>2012-03-20T15:30:16Z</time>
      </trkpt>
      <trkpt lat="44.33973" lon="2.53016">
        <ele>594</ele>
        <time>2012-03-20T15:30:19Z</time>
      </trkpt>
      <trkpt lat="44.33965" lon="2.53023">
        <ele>593</ele>
        <time>2012-03-20T15:30:27Z</time>
      </trkpt>
      <trkpt lat="44.33962" lon="2.53032">
        <ele>586</ele>
        <time>2012-03-20T15:30:44Z</time>
      </trkpt>
      <trkpt lat="44.33945" lon="2.53046">
        <ele>595</ele>
        <time>2012-03-20T15:30:56Z</time>
      </trkpt>
      <trkpt lat="44.33941" lon="2.5305">
        <ele>591</ele>
        <time>2012-03-20T15:31:00Z</time>
      </trkpt>
      <trkpt lat="44.33937" lon="2.53054">
        <ele>591</ele>
        <time>2012-03-20T15:31:03Z</time>
      </trkpt>
      <trkpt lat="44.33932" lon="2.53057">
        <ele>589</ele>
        <time>2012-03-20T15:31:07Z</time>
      </trkpt>
      <trkpt lat="44.33927" lon="2.53061">
        <ele>590</ele>
        <time>2012-03-20T15:31:11Z</time>
      </trkpt>
      <trkpt lat="44.3392" lon="2.53063">
        <ele>589</ele>
        <time>2012-03-20T15:31:17Z</time>
      </trkpt>
      <trkpt lat="44.33919" lon="2.53056">
        <ele>582</ele>
        <time>2012-03-20T15:31:21Z</time>
      </trkpt>
      <trkpt lat="44.33923" lon="2.5305">
        <ele>581</ele>
        <time>2012-03-20T15:31:24Z</time>
      </trkpt>
      <trkpt lat="44.33926" lon="2.53045">
        <ele>581</ele>
        <time>2012-03-20T15:31:27Z</time>
      </trkpt>
      <trkpt lat="44.33935" lon="2.53033">
        <ele>579</ele>
        <time>2012-03-20T15:31:35Z</time>
      </trkpt>
      <trkpt lat="44.33938" lon="2.53027">
        <ele>579</ele>
        <time>2012-03-20T15:31:38Z</time>
      </trkpt>
      <trkpt lat="44.3394" lon="2.53022">
        <ele>579</ele>
        <time>2012-03-20T15:31:41Z</time>
      </trkpt>
      <trkpt lat="44.33943" lon="2.53015">
        <ele>579</ele>
        <time>2012-03-20T15:31:44Z</time>
      </trkpt>
      <trkpt lat="44.33949" lon="2.53004">
        <ele>576</ele>
        <time>2012-03-20T15:31:51Z</time>
      </trkpt>
      <trkpt lat="44.33952" lon="2.52997">
        <ele>578</ele>
        <time>2012-03-20T15:31:55Z</time>
      </trkpt>
      <trkpt lat="44.33954" lon="2.52992">
        <ele>575</ele>
        <time>2012-03-20T15:31:58Z</time>
      </trkpt>
      <trkpt lat="44.33961" lon="2.52972">
        <ele>577</ele>
        <time>2012-03-20T15:32:08Z</time>
      </trkpt>
      <trkpt lat="44.33966" lon="2.5296">
        <ele>572</ele>
        <time>2012-03-20T15:32:14Z</time>
      </trkpt>
      <trkpt lat="44.33969" lon="2.52954">
        <ele>572</ele>
        <time>2012-03-20T15:32:17Z</time>
      </trkpt>
      <trkpt lat="44.33973" lon="2.52945">
        <ele>572</ele>
        <time>2012-03-20T15:32:22Z</time>
      </trkpt>
      <trkpt lat="44.33976" lon="2.52938">
        <ele>569</ele>
        <time>2012-03-20T15:32:25Z</time>
      </trkpt>
      <trkpt lat="44.33982" lon="2.52926">
        <ele>576</ele>
        <time>2012-03-20T15:32:33Z</time>
      </trkpt>
      <trkpt lat="44.33985" lon="2.52918">
        <ele>571</ele>
        <time>2012-03-20T15:32:37Z</time>
      </trkpt>
      <trkpt lat="44.33989" lon="2.52905">
        <ele>570</ele>
        <time>2012-03-20T15:32:43Z</time>
      </trkpt>
      <trkpt lat="44.33992" lon="2.52898">
        <ele>567</ele>
        <time>2012-03-20T15:32:47Z</time>
      </trkpt>
      <trkpt lat="44.33994" lon="2.52892">
        <ele>570</ele>
        <time>2012-03-20T15:32:51Z</time>
      </trkpt>
      <trkpt lat="44.33992" lon="2.52883">
        <ele>572</ele>
        <time>2012-03-20T15:33:01Z</time>
      </trkpt>
      <trkpt lat="44.33986" lon="2.52888">
        <ele>570</ele>
        <time>2012-03-20T15:33:07Z</time>
      </trkpt>
      <trkpt lat="44.3398" lon="2.52896">
        <ele>571</ele>
        <time>2012-03-20T15:33:11Z</time>
      </trkpt>
      <trkpt lat="44.33976" lon="2.52902">
        <ele>570</ele>
        <time>2012-03-20T15:33:14Z</time>
      </trkpt>
      <trkpt lat="44.33973" lon="2.52907">
        <ele>575</ele>
        <time>2012-03-20T15:33:19Z</time>
      </trkpt>
      <trkpt lat="44.33969" lon="2.52912">
        <ele>574</ele>
        <time>2012-03-20T15:33:22Z</time>
      </trkpt>
      <trkpt lat="44.33956" lon="2.52927">
        <ele>568</ele>
        <time>2012-03-20T15:33:35Z</time>
      </trkpt>
      <trkpt lat="44.33951" lon="2.52931">
        <ele>570</ele>
        <time>2012-03-20T15:33:39Z</time>
      </trkpt>
      <trkpt lat="44.33943" lon="2.5294">
        <ele>569</ele>
        <time>2012-03-20T15:33:46Z</time>
      </trkpt>
      <trkpt lat="44.33941" lon="2.52946">
        <ele>569</ele>
        <time>2012-03-20T15:33:50Z</time>
      </trkpt>
      <trkpt lat="44.33938" lon="2.52944">
        <ele>564</ele>
        <time>2012-03-20T15:33:58Z</time>
      </trkpt>
      <trkpt lat="44.33939" lon="2.52937">
        <ele>564</ele>
        <time>2012-03-20T15:34:04Z</time>
      </trkpt>
      <trkpt lat="44.3394" lon="2.52929">
        <ele>560</ele>
        <time>2012-03-20T15:34:08Z</time>
      </trkpt>
      <trkpt lat="44.33943" lon="2.52923">
        <ele>562</ele>
        <time>2012-03-20T15:34:12Z</time>
      </trkpt>
      <trkpt lat="44.33949" lon="2.52919">
        <ele>558</ele>
        <time>2012-03-20T15:34:16Z</time>
      </trkpt>
      <trkpt lat="44.33953" lon="2.52915">
        <ele>558</ele>
        <time>2012-03-20T15:34:19Z</time>
      </trkpt>
      <trkpt lat="44.33956" lon="2.5291">
        <ele>559</ele>
        <time>2012-03-20T15:34:23Z</time>
      </trkpt>
      <trkpt lat="44.33959" lon="2.52904">
        <ele>555</ele>
        <time>2012-03-20T15:34:27Z</time>
      </trkpt>
      <trkpt lat="44.33965" lon="2.5289">
        <ele>559</ele>
        <time>2012-03-20T15:34:35Z</time>
      </trkpt>
      <trkpt lat="44.33968" lon="2.52884">
        <ele>557</ele>
        <time>2012-03-20T15:34:39Z</time>
      </trkpt>
      <trkpt lat="44.33971" lon="2.52876">
        <ele>558</ele>
        <time>2012-03-20T15:34:44Z</time>
      </trkpt>
      <trkpt lat="44.33978" lon="2.52866">
        <ele>553</ele>
        <time>2012-03-20T15:34:50Z</time>
      </trkpt>
      <trkpt lat="44.33988" lon="2.52847">
        <ele>564</ele>
        <time>2012-03-20T15:35:01Z</time>
      </trkpt>
      <trkpt lat="44.33991" lon="2.52841">
        <ele>563</ele>
        <time>2012-03-20T15:35:04Z</time>
      </trkpt>
      <trkpt lat="44.33995" lon="2.52835">
        <ele>565</ele>
        <time>2012-03-20T15:35:08Z</time>
      </trkpt>
      <trkpt lat="44.34006" lon="2.52814">
        <ele>553</ele>
        <time>2012-03-20T15:35:22Z</time>
      </trkpt>
      <trkpt lat="44.3401" lon="2.52808">
        <ele>560</ele>
        <time>2012-03-20T15:35:25Z</time>
      </trkpt>
      <trkpt lat="44.34018" lon="2.52797">
        <ele>555</ele>
        <time>2012-03-20T15:35:32Z</time>
      </trkpt>
      <trkpt lat="44.34021" lon="2.52791">
        <ele>558</ele>
        <time>2012-03-20T15:35:36Z</time>
      </trkpt>
      <trkpt lat="44.3404" lon="2.5276">
        <ele>549</ele>
        <time>2012-03-20T15:35:57Z</time>
      </trkpt>
      <trkpt lat="44.3405" lon="2.52746">
        <ele>551</ele>
        <time>2012-03-20T15:36:06Z</time>
      </trkpt>
      <trkpt lat="44.34055" lon="2.52738">
        <ele>547</ele>
        <time>2012-03-20T15:36:11Z</time>
      </trkpt>
      <trkpt lat="44.34059" lon="2.52733">
        <ele>547</ele>
        <time>2012-03-20T15:36:14Z</time>
      </trkpt>
      <trkpt lat="44.34073" lon="2.52711">
        <ele>544</ele>
        <time>2012-03-20T15:36:28Z</time>
      </trkpt>
      <trkpt lat="44.34079" lon="2.5269">
        <ele>537</ele>
        <time>2012-03-20T15:36:39Z</time>
      </trkpt>
      <trkpt lat="44.34081" lon="2.52683">
        <ele>539</ele>
        <time>2012-03-20T15:36:43Z</time>
      </trkpt>
      <trkpt lat="44.34088" lon="2.5267">
        <ele>536</ele>
        <time>2012-03-20T15:36:50Z</time>
      </trkpt>
      <trkpt lat="44.3409" lon="2.52663">
        <ele>536</ele>
        <time>2012-03-20T15:36:53Z</time>
      </trkpt>
      <trkpt lat="44.34093" lon="2.52656">
        <ele>538</ele>
        <time>2012-03-20T15:36:56Z</time>
      </trkpt>
      <trkpt lat="44.34103" lon="2.52642">
        <ele>536</ele>
        <time>2012-03-20T15:37:04Z</time>
      </trkpt>
      <trkpt lat="44.34106" lon="2.52637">
        <ele>537</ele>
        <time>2012-03-20T15:37:08Z</time>
      </trkpt>
      <trkpt lat="44.34111" lon="2.52628">
        <ele>535</ele>
        <time>2012-03-20T15:37:13Z</time>
      </trkpt>
      <trkpt lat="44.34117" lon="2.52619">
        <ele>535</ele>
        <time>2012-03-20T15:37:18Z</time>
      </trkpt>
      <trkpt lat="44.34121" lon="2.52613">
        <ele>531</ele>
        <time>2012-03-20T15:37:22Z</time>
      </trkpt>
      <trkpt lat="44.34128" lon="2.526">
        <ele>530</ele>
        <time>2012-03-20T15:37:30Z</time>
      </trkpt>
      <trkpt lat="44.34134" lon="2.52572">
        <ele>523</ele>
        <time>2012-03-20T15:37:45Z</time>
      </trkpt>
      <trkpt lat="44.34134" lon="2.52565">
        <ele>528</ele>
        <time>2012-03-20T15:37:48Z</time>
      </trkpt>
      <trkpt lat="44.34137" lon="2.52542">
        <ele>528</ele>
        <time>2012-03-20T15:38:00Z</time>
      </trkpt>
      <trkpt lat="44.34141" lon="2.52526">
        <ele>518</ele>
        <time>2012-03-20T15:38:08Z</time>
      </trkpt>
      <trkpt lat="44.34143" lon="2.52518">
        <ele>518</ele>
        <time>2012-03-20T15:38:12Z</time>
      </trkpt>
      <trkpt lat="44.34145" lon="2.52513">
        <ele>524</ele>
        <time>2012-03-20T15:38:15Z</time>
      </trkpt>
      <trkpt lat="44.34148" lon="2.52507">
        <ele>519</ele>
        <time>2012-03-20T15:38:18Z</time>
      </trkpt>
      <trkpt lat="44.34152" lon="2.525">
        <ele>523</ele>
        <time>2012-03-20T15:38:22Z</time>
      </trkpt>
      <trkpt lat="44.34157" lon="2.52488">
        <ele>521</ele>
        <time>2012-03-20T15:38:28Z</time>
      </trkpt>
      <trkpt lat="44.34159" lon="2.52482">
        <ele>522</ele>
        <time>2012-03-20T15:38:31Z</time>
      </trkpt>
      <trkpt lat="44.34161" lon="2.52475">
        <ele>522</ele>
        <time>2012-03-20T15:38:34Z</time>
      </trkpt>
      <trkpt lat="44.34163" lon="2.52469">
        <ele>523</ele>
        <time>2012-03-20T15:38:37Z</time>
      </trkpt>
      <trkpt lat="44.34184" lon="2.52421">
        <ele>504</ele>
        <time>2012-03-20T15:39:03Z</time>
      </trkpt>
      <trkpt lat="44.34194" lon="2.524">
        <ele>511</ele>
        <time>2012-03-20T15:39:15Z</time>
      </trkpt>
      <trkpt lat="44.34201" lon="2.52391">
        <ele>510</ele>
        <time>2012-03-20T15:39:20Z</time>
      </trkpt>
      <trkpt lat="44.34206" lon="2.52373">
        <ele>518</ele>
        <time>2012-03-20T15:39:28Z</time>
      </trkpt>
      <trkpt lat="44.34208" lon="2.52363">
        <ele>518</ele>
        <time>2012-03-20T15:39:33Z</time>
      </trkpt>
      <trkpt lat="44.3421" lon="2.52357">
        <ele>519</ele>
        <time>2012-03-20T15:39:37Z</time>
      </trkpt>
      <trkpt lat="44.34216" lon="2.52316">
        <ele>509</ele>
        <time>2012-03-20T15:39:56Z</time>
      </trkpt>
      <trkpt lat="44.34217" lon="2.52306">
        <ele>511</ele>
        <time>2012-03-20T15:40:00Z</time>
      </trkpt>
      <trkpt lat="44.34217" lon="2.52299">
        <ele>507</ele>
        <time>2012-03-20T15:40:03Z</time>
      </trkpt>
      <trkpt lat="44.34216" lon="2.5229">
        <ele>507</ele>
        <time>2012-03-20T15:40:08Z</time>
      </trkpt>
      <trkpt lat="44.34215" lon="2.52283">
        <ele>507</ele>
        <time>2012-03-20T15:40:11Z</time>
      </trkpt>
      <trkpt lat="44.34214" lon="2.52275">
        <ele>507</ele>
        <time>2012-03-20T15:40:14Z</time>
      </trkpt>
      <trkpt lat="44.34214" lon="2.52267">
        <ele>508</ele>
        <time>2012-03-20T15:40:17Z</time>
      </trkpt>
      <trkpt lat="44.34214" lon="2.5226">
        <ele>507</ele>
        <time>2012-03-20T15:40:21Z</time>
      </trkpt>
      <trkpt lat="44.34204" lon="2.52237">
        <ele>517</ele>
        <time>2012-03-20T15:40:33Z</time>
      </trkpt>
      <trkpt lat="44.342" lon="2.52231">
        <ele>515</ele>
        <time>2012-03-20T15:40:37Z</time>
      </trkpt>
      <trkpt lat="44.34196" lon="2.52222">
        <ele>518</ele>
        <time>2012-03-20T15:40:42Z</time>
      </trkpt>
      <trkpt lat="44.34194" lon="2.52216">
        <ele>516</ele>
        <time>2012-03-20T15:40:45Z</time>
      </trkpt>
      <trkpt lat="44.34191" lon="2.5221">
        <ele>518</ele>
        <time>2012-03-20T15:40:48Z</time>
      </trkpt>
      <trkpt lat="44.34181" lon="2.52195">
        <ele>514</ele>
        <time>2012-03-20T15:40:57Z</time>
      </trkpt>
      <trkpt lat="44.34178" lon="2.52189">
        <ele>514</ele>
        <time>2012-03-20T15:41:00Z</time>
      </trkpt>
      <trkpt lat="44.34171" lon="2.52181">
        <ele>509</ele>
        <time>2012-03-20T15:41:06Z</time>
      </trkpt>
      <trkpt lat="44.34146" lon="2.52161">
        <ele>522</ele>
        <time>2012-03-20T15:41:23Z</time>
      </trkpt>
      <trkpt lat="44.34137" lon="2.52153">
        <ele>522</ele>
        <time>2012-03-20T15:41:29Z</time>
      </trkpt>
      <trkpt lat="44.34128" lon="2.5215">
        <ele>525</ele>
        <time>2012-03-20T15:41:35Z</time>
      </trkpt>
      <trkpt lat="44.34119" lon="2.52143">
        <ele>525</ele>
        <time>2012-03-20T15:41:42Z</time>
      </trkpt>
      <trkpt lat="44.34109" lon="2.52139">
        <ele>533</ele>
        <time>2012-03-20T15:41:48Z</time>
      </trkpt>
      <trkpt lat="44.341" lon="2.52136">
        <ele>533</ele>
        <time>2012-03-20T15:41:57Z</time>
      </trkpt>
      <trkpt lat="44.3407" lon="2.52133">
        <ele>528</ele>
        <time>2012-03-20T15:42:18Z</time>
      </trkpt>
      <trkpt lat="44.34061" lon="2.52132">
        <ele>527</ele>
        <time>2012-03-20T15:42:24Z</time>
      </trkpt>
      <trkpt lat="44.34052" lon="2.52132">
        <ele>528</ele>
        <time>2012-03-20T15:42:30Z</time>
      </trkpt>
      <trkpt lat="44.34044" lon="2.52139">
        <ele>521</ele>
        <time>2012-03-20T15:42:40Z</time>
      </trkpt>
      <trkpt lat="44.34045" lon="2.52153">
        <ele>514</ele>
        <time>2012-03-20T15:42:47Z</time>
      </trkpt>
      <trkpt lat="44.34047" lon="2.52165">
        <ele>514</ele>
        <time>2012-03-20T15:42:53Z</time>
      </trkpt>
      <trkpt lat="44.34049" lon="2.52174">
        <ele>516</ele>
        <time>2012-03-20T15:42:57Z</time>
      </trkpt>
      <trkpt lat="44.34051" lon="2.52204">
        <ele>514</ele>
        <time>2012-03-20T15:43:11Z</time>
      </trkpt>
      <trkpt lat="44.34052" lon="2.5221">
        <ele>515</ele>
        <time>2012-03-20T15:43:14Z</time>
      </trkpt>
      <trkpt lat="44.34056" lon="2.5222">
        <ele>514</ele>
        <time>2012-03-20T15:43:22Z</time>
      </trkpt>
      <trkpt lat="44.34062" lon="2.5223">
        <ele>504</ele>
        <time>2012-03-20T15:43:34Z</time>
      </trkpt>
      <trkpt lat="44.34066" lon="2.52245">
        <ele>505</ele>
        <time>2012-03-20T15:43:41Z</time>
      </trkpt>
      <trkpt lat="44.34065" lon="2.52252">
        <ele>513</ele>
        <time>2012-03-20T15:43:44Z</time>
      </trkpt>
      <trkpt lat="44.3406" lon="2.52263">
        <ele>514</ele>
        <time>2012-03-20T15:43:50Z</time>
      </trkpt>
      <trkpt lat="44.3405" lon="2.52265">
        <ele>515</ele>
        <time>2012-03-20T15:43:56Z</time>
      </trkpt>
      <trkpt lat="44.34045" lon="2.52266">
        <ele>510</ele>
        <time>2012-03-20T15:43:58Z</time>
      </trkpt>
      <trkpt lat="44.34029" lon="2.5227">
        <ele>523</ele>
        <time>2012-03-20T15:44:10Z</time>
      </trkpt>
      <trkpt lat="44.34021" lon="2.52276">
        <ele>522</ele>
        <time>2012-03-20T15:44:18Z</time>
      </trkpt>
      <trkpt lat="44.34017" lon="2.52278">
        <ele>519</ele>
        <time>2012-03-20T15:44:21Z</time>
      </trkpt>
      <trkpt lat="44.34007" lon="2.52284">
        <ele>524</ele>
        <time>2012-03-20T15:44:28Z</time>
      </trkpt>
      <trkpt lat="44.33997" lon="2.52288">
        <ele>522</ele>
        <time>2012-03-20T15:44:36Z</time>
      </trkpt>
      <trkpt lat="44.33991" lon="2.52289">
        <ele>527</ele>
        <time>2012-03-20T15:44:42Z</time>
      </trkpt>
      <trkpt lat="44.33986" lon="2.52291">
        <ele>527</ele>
        <time>2012-03-20T15:44:45Z</time>
      </trkpt>
      <trkpt lat="44.33981" lon="2.52292">
        <ele>531</ele>
        <time>2012-03-20T15:44:48Z</time>
      </trkpt>
      <trkpt lat="44.33971" lon="2.52296">
        <ele>527</ele>
        <time>2012-03-20T15:44:58Z</time>
      </trkpt>
      <trkpt lat="44.33964" lon="2.52302">
        <ele>530</ele>
        <time>2012-03-20T15:45:04Z</time>
      </trkpt>
      <trkpt lat="44.33958" lon="2.52307">
        <ele>529</ele>
        <time>2012-03-20T15:45:10Z</time>
      </trkpt>
      <trkpt lat="44.33954" lon="2.5231">
        <ele>522</ele>
        <time>2012-03-20T15:45:13Z</time>
      </trkpt>
      <trkpt lat="44.33949" lon="2.52312">
        <ele>526</ele>
        <time>2012-03-20T15:45:16Z</time>
      </trkpt>
      <trkpt lat="44.33945" lon="2.52313">
        <ele>526</ele>
        <time>2012-03-20T15:45:20Z</time>
      </trkpt>
      <trkpt lat="44.3394" lon="2.52315">
        <ele>525</ele>
        <time>2012-03-20T15:45:25Z</time>
      </trkpt>
      <trkpt lat="44.33935" lon="2.52318">
        <ele>530</ele>
        <time>2012-03-20T15:45:30Z</time>
      </trkpt>
      <trkpt lat="44.3393" lon="2.5232">
        <ele>531</ele>
        <time>2012-03-20T15:45:33Z</time>
      </trkpt>
      <trkpt lat="44.33926" lon="2.52322">
        <ele>533</ele>
        <time>2012-03-20T15:45:36Z</time>
      </trkpt>
      <trkpt lat="44.3392" lon="2.52324">
        <ele>534</ele>
        <time>2012-03-20T15:45:40Z</time>
      </trkpt>
      <trkpt lat="44.33904" lon="2.52333">
        <ele>528</ele>
        <time>2012-03-20T15:45:52Z</time>
      </trkpt>
      <trkpt lat="44.33898" lon="2.52336">
        <ele>528</ele>
        <time>2012-03-20T15:45:57Z</time>
      </trkpt>
      <trkpt lat="44.33893" lon="2.52338">
        <ele>527</ele>
        <time>2012-03-20T15:46:01Z</time>
      </trkpt>
      <trkpt lat="44.33888" lon="2.5234">
        <ele>529</ele>
        <time>2012-03-20T15:46:05Z</time>
      </trkpt>
      <trkpt lat="44.33881" lon="2.52344">
        <ele>527</ele>
        <time>2012-03-20T15:46:11Z</time>
      </trkpt>
      <trkpt lat="44.33872" lon="2.52347">
        <ele>534</ele>
        <time>2012-03-20T15:46:18Z</time>
      </trkpt>
      <trkpt lat="44.33864" lon="2.52353">
        <ele>532</ele>
        <time>2012-03-20T15:46:24Z</time>
      </trkpt>
      <trkpt lat="44.33854" lon="2.52365">
        <ele>542</ele>
        <time>2012-03-20T15:46:36Z</time>
      </trkpt>
      <trkpt lat="44.3385" lon="2.5237">
        <ele>540</ele>
        <time>2012-03-20T15:46:40Z</time>
      </trkpt>
      <trkpt lat="44.33844" lon="2.52371">
        <ele>536</ele>
        <time>2012-03-20T15:46:44Z</time>
      </trkpt>
      <trkpt lat="44.33839" lon="2.52372">
        <ele>537</ele>
        <time>2012-03-20T15:46:48Z</time>
      </trkpt>
      <trkpt lat="44.33833" lon="2.52372">
        <ele>532</ele>
        <time>2012-03-20T15:46:52Z</time>
      </trkpt>
      <trkpt lat="44.33829" lon="2.52374">
        <ele>535</ele>
        <time>2012-03-20T15:46:55Z</time>
      </trkpt>
      <trkpt lat="44.33819" lon="2.52374">
        <ele>528</ele>
        <time>2012-03-20T15:47:03Z</time>
      </trkpt>
      <trkpt lat="44.33805" lon="2.52373">
        <ele>537</ele>
        <time>2012-03-20T15:47:15Z</time>
      </trkpt>
      <trkpt lat="44.338" lon="2.52372">
        <ele>537</ele>
        <time>2012-03-20T15:47:19Z</time>
      </trkpt>
      <trkpt lat="44.33794" lon="2.52371">
        <ele>535</ele>
        <time>2012-03-20T15:47:23Z</time>
      </trkpt>
      <trkpt lat="44.3379" lon="2.5237">
        <ele>537</ele>
        <time>2012-03-20T15:47:27Z</time>
      </trkpt>
      <trkpt lat="44.33778" lon="2.52368">
        <ele>535</ele>
        <time>2012-03-20T15:47:35Z</time>
      </trkpt>
      <trkpt lat="44.33773" lon="2.52366">
        <ele>537</ele>
        <time>2012-03-20T15:47:39Z</time>
      </trkpt>
      <trkpt lat="44.33768" lon="2.52365">
        <ele>537</ele>
        <time>2012-03-20T15:47:44Z</time>
      </trkpt>
      <trkpt lat="44.33748" lon="2.52358">
        <ele>538</ele>
        <time>2012-03-20T15:47:58Z</time>
      </trkpt>
      <trkpt lat="44.33743" lon="2.52357">
        <ele>540</ele>
        <time>2012-03-20T15:48:02Z</time>
      </trkpt>
      <trkpt lat="44.33738" lon="2.52356">
        <ele>540</ele>
        <time>2012-03-20T15:48:06Z</time>
      </trkpt>
      <trkpt lat="44.33732" lon="2.52356">
        <ele>542</ele>
        <time>2012-03-20T15:48:11Z</time>
      </trkpt>
      <trkpt lat="44.33724" lon="2.52357">
        <ele>536</ele>
        <time>2012-03-20T15:48:16Z</time>
      </trkpt>
      <trkpt lat="44.33718" lon="2.52358">
        <ele>536</ele>
        <time>2012-03-20T15:48:19Z</time>
      </trkpt>
      <trkpt lat="44.33703" lon="2.52357">
        <ele>544</ele>
        <time>2012-03-20T15:48:33Z</time>
      </trkpt>
      <trkpt lat="44.33698" lon="2.52356">
        <ele>542</ele>
        <time>2012-03-20T15:48:36Z</time>
      </trkpt>
      <trkpt lat="44.33693" lon="2.52356">
        <ele>542</ele>
        <time>2012-03-20T15:48:39Z</time>
      </trkpt>
      <trkpt lat="44.33689" lon="2.52355">
        <ele>540</ele>
        <time>2012-03-20T15:48:42Z</time>
      </trkpt>
      <trkpt lat="44.33683" lon="2.52354">
        <ele>539</ele>
        <time>2012-03-20T15:48:46Z</time>
      </trkpt>
      <trkpt lat="44.33679" lon="2.52354">
        <ele>542</ele>
        <time>2012-03-20T15:48:50Z</time>
      </trkpt>
      <trkpt lat="44.33668" lon="2.52354">
        <ele>538</ele>
        <time>2012-03-20T15:48:58Z</time>
      </trkpt>
      <trkpt lat="44.33663" lon="2.52353">
        <ele>540</ele>
        <time>2012-03-20T15:49:02Z</time>
      </trkpt>
      <trkpt lat="44.33658" lon="2.52352">
        <ele>540</ele>
        <time>2012-03-20T15:49:07Z</time>
      </trkpt>
      <trkpt lat="44.33653" lon="2.52352">
        <ele>538</ele>
        <time>2012-03-20T15:49:11Z</time>
      </trkpt>
      <trkpt lat="44.33647" lon="2.5235">
        <ele>542</ele>
        <time>2012-03-20T15:49:15Z</time>
      </trkpt>
      <trkpt lat="44.33634" lon="2.52347">
        <ele>543</ele>
        <time>2012-03-20T15:49:25Z</time>
      </trkpt>
      <trkpt lat="44.33629" lon="2.52344">
        <ele>545</ele>
        <time>2012-03-20T15:49:29Z</time>
      </trkpt>
      <trkpt lat="44.33624" lon="2.52344">
        <ele>544</ele>
        <time>2012-03-20T15:49:33Z</time>
      </trkpt>
      <trkpt lat="44.33619" lon="2.52344">
        <ele>548</ele>
        <time>2012-03-20T15:49:38Z</time>
      </trkpt>
      <trkpt lat="44.3361" lon="2.5234">
        <ele>548</ele>
        <time>2012-03-20T15:49:45Z</time>
      </trkpt>
      <trkpt lat="44.33603" lon="2.52339">
        <ele>546</ele>
        <time>2012-03-20T15:49:51Z</time>
      </trkpt>
      <trkpt lat="44.33591" lon="2.52332">
        <ele>550</ele>
        <time>2012-03-20T15:50:00Z</time>
      </trkpt>
      <trkpt lat="44.33586" lon="2.5233">
        <ele>550</ele>
        <time>2012-03-20T15:50:04Z</time>
      </trkpt>
      <trkpt lat="44.33581" lon="2.52328">
        <ele>550</ele>
        <time>2012-03-20T15:50:08Z</time>
      </trkpt>
      <trkpt lat="44.33571" lon="2.52323">
        <ele>544</ele>
        <time>2012-03-20T15:50:15Z</time>
      </trkpt>
      <trkpt lat="44.33562" lon="2.52317">
        <ele>551</ele>
        <time>2012-03-20T15:50:22Z</time>
      </trkpt>
      <trkpt lat="44.33555" lon="2.52311">
        <ele>546</ele>
        <time>2012-03-20T15:50:29Z</time>
      </trkpt>
      <trkpt lat="44.33551" lon="2.52307">
        <ele>547</ele>
        <time>2012-03-20T15:50:34Z</time>
      </trkpt>
      <trkpt lat="44.33547" lon="2.52302">
        <ele>545</ele>
        <time>2012-03-20T15:50:38Z</time>
      </trkpt>
      <trkpt lat="44.3354" lon="2.52291">
        <ele>558</ele>
        <time>2012-03-20T15:50:47Z</time>
      </trkpt>
      <trkpt lat="44.33533" lon="2.5228">
        <ele>557</ele>
        <time>2012-03-20T15:50:55Z</time>
      </trkpt>
      <trkpt lat="44.3353" lon="2.52275">
        <ele>557</ele>
        <time>2012-03-20T15:50:59Z</time>
      </trkpt>
      <trkpt lat="44.33518" lon="2.5226">
        <ele>548</ele>
        <time>2012-03-20T15:51:10Z</time>
      </trkpt>
      <trkpt lat="44.33499" lon="2.52248">
        <ele>556</ele>
        <time>2012-03-20T15:51:32Z</time>
      </trkpt>
      <trkpt lat="44.33491" lon="2.52243">
        <ele>549</ele>
        <time>2012-03-20T15:51:38Z</time>
      </trkpt>
      <trkpt lat="44.33481" lon="2.5224">
        <ele>551</ele>
        <time>2012-03-20T15:51:46Z</time>
      </trkpt>
      <trkpt lat="44.3347" lon="2.52233">
        <ele>545</ele>
        <time>2012-03-20T15:51:54Z</time>
      </trkpt>
      <trkpt lat="44.33442" lon="2.52219">
        <ele>561</ele>
        <time>2012-03-20T15:52:19Z</time>
      </trkpt>
      <trkpt lat="44.33433" lon="2.52212">
        <ele>560</ele>
        <time>2012-03-20T15:52:26Z</time>
      </trkpt>
      <trkpt lat="44.33411" lon="2.52184">
        <ele>576</ele>
        <time>2012-03-20T15:52:43Z</time>
      </trkpt>
      <trkpt lat="44.33402" lon="2.52176">
        <ele>574</ele>
        <time>2012-03-20T15:52:50Z</time>
      </trkpt>
      <trkpt lat="44.33385" lon="2.52162">
        <ele>581</ele>
        <time>2012-03-20T15:53:07Z</time>
      </trkpt>
      <trkpt lat="44.3338" lon="2.5215">
        <ele>574</ele>
        <time>2012-03-20T15:53:16Z</time>
      </trkpt>
      <trkpt lat="44.33365" lon="2.52123">
        <ele>605</ele>
        <time>2012-03-20T15:54:35Z</time>
      </trkpt>
      <trkpt lat="44.33363" lon="2.52118">
        <ele>600</ele>
        <time>2012-03-20T15:55:21Z</time>
      </trkpt>
      <trkpt lat="44.33353" lon="2.52111">
        <ele>596</ele>
        <time>2012-03-20T15:55:46Z</time>
      </trkpt>
      <trkpt lat="44.33348" lon="2.52107">
        <ele>597</ele>
        <time>2012-03-20T15:55:50Z</time>
      </trkpt>
      <trkpt lat="44.33344" lon="2.52102">
        <ele>597</ele>
        <time>2012-03-20T15:55:54Z</time>
      </trkpt>
      <trkpt lat="44.33339" lon="2.52096">
        <ele>600</ele>
        <time>2012-03-20T15:55:59Z</time>
      </trkpt>
      <trkpt lat="44.33336" lon="2.52091">
        <ele>598</ele>
        <time>2012-03-20T15:56:04Z</time>
      </trkpt>
      <trkpt lat="44.33333" lon="2.52086">
        <ele>600</ele>
        <time>2012-03-20T15:56:08Z</time>
      </trkpt>
      <trkpt lat="44.3333" lon="2.5208">
        <ele>593</ele>
        <time>2012-03-20T15:56:12Z</time>
      </trkpt>
      <trkpt lat="44.33318" lon="2.52066">
        <ele>595</ele>
        <time>2012-03-20T15:56:24Z</time>
      </trkpt>
      <trkpt lat="44.33309" lon="2.52057">
        <ele>603</ele>
        <time>2012-03-20T15:56:32Z</time>
      </trkpt>
      <trkpt lat="44.33304" lon="2.52053">
        <ele>602</ele>
        <time>2012-03-20T15:56:36Z</time>
      </trkpt>
      <trkpt lat="44.33299" lon="2.52048">
        <ele>602</ele>
        <time>2012-03-20T15:56:41Z</time>
      </trkpt>
      <trkpt lat="44.33291" lon="2.52042">
        <ele>595</ele>
        <time>2012-03-20T15:56:48Z</time>
      </trkpt>
      <trkpt lat="44.3327" lon="2.52022">
        <ele>603</ele>
        <time>2012-03-20T15:57:08Z</time>
      </trkpt>
      <trkpt lat="44.33245" lon="2.51999">
        <ele>599</ele>
        <time>2012-03-20T15:57:33Z</time>
      </trkpt>
      <trkpt lat="44.3323" lon="2.5198">
        <ele>606</ele>
        <time>2012-03-20T15:57:50Z</time>
      </trkpt>
      <trkpt lat="44.33223" lon="2.51971">
        <ele>599</ele>
        <time>2012-03-20T15:58:03Z</time>
      </trkpt>
      <trkpt lat="44.33207" lon="2.51935">
        <ele>617</ele>
        <time>2012-03-20T15:58:24Z</time>
      </trkpt>
      <trkpt lat="44.33202" lon="2.51928">
        <ele>613</ele>
        <time>2012-03-20T15:58:29Z</time>
      </trkpt>
      <trkpt lat="44.33199" lon="2.51923">
        <ele>615</ele>
        <time>2012-03-20T15:58:33Z</time>
      </trkpt>
      <trkpt lat="44.33195" lon="2.51916">
        <ele>614</ele>
        <time>2012-03-20T15:58:38Z</time>
      </trkpt>
      <trkpt lat="44.33183" lon="2.519">
        <ele>620</ele>
        <time>2012-03-20T15:58:51Z</time>
      </trkpt>
      <trkpt lat="44.3318" lon="2.51894">
        <ele>619</ele>
        <time>2012-03-20T15:58:55Z</time>
      </trkpt>
      <trkpt lat="44.33177" lon="2.51889">
        <ele>621</ele>
        <time>2012-03-20T15:58:59Z</time>
      </trkpt>
      <trkpt lat="44.33175" lon="2.51882">
        <ele>621</ele>
        <time>2012-03-20T15:59:04Z</time>
      </trkpt>
      <trkpt lat="44.33178" lon="2.5187">
        <ele>622</ele>
        <time>2012-03-20T15:59:11Z</time>
      </trkpt>
      <trkpt lat="44.33183" lon="2.51858">
        <ele>620</ele>
        <time>2012-03-20T15:59:20Z</time>
      </trkpt>
      <trkpt lat="44.3319" lon="2.51836">
        <ele>626</ele>
        <time>2012-03-20T15:59:41Z</time>
      </trkpt>
      <trkpt lat="44.33191" lon="2.51825">
        <ele>625</ele>
        <time>2012-03-20T16:00:02Z</time>
      </trkpt>
      <trkpt lat="44.33193" lon="2.51813">
        <ele>628</ele>
        <time>2012-03-20T16:00:09Z</time>
      </trkpt>
      <trkpt lat="44.33192" lon="2.51805">
        <ele>626</ele>
        <time>2012-03-20T16:00:14Z</time>
      </trkpt>
      <trkpt lat="44.33192" lon="2.51798">
        <ele>625</ele>
        <time>2012-03-20T16:00:18Z</time>
      </trkpt>
      <trkpt lat="44.33193" lon="2.51783">
        <ele>623</ele>
        <time>2012-03-20T16:00:25Z</time>
      </trkpt>
      <trkpt lat="44.33193" lon="2.51775">
        <ele>623</ele>
        <time>2012-03-20T16:00:29Z</time>
      </trkpt>
      <trkpt lat="44.33192" lon="2.51768">
        <ele>625</ele>
        <time>2012-03-20T16:00:33Z</time>
      </trkpt>
      <trkpt lat="44.33193" lon="2.51761">
        <ele>625</ele>
        <time>2012-03-20T16:00:36Z</time>
      </trkpt>
      <trkpt lat="44.33194" lon="2.51753">
        <ele>622</ele>
        <time>2012-03-20T16:00:39Z</time>
      </trkpt>
      <trkpt lat="44.33195" lon="2.51738">
        <ele>626</ele>
        <time>2012-03-20T16:00:46Z</time>
      </trkpt>
      <trkpt lat="44.33195" lon="2.51731">
        <ele>626</ele>
        <time>2012-03-20T16:00:49Z</time>
      </trkpt>
      <trkpt lat="44.33196" lon="2.51723">
        <ele>627</ele>
        <time>2012-03-20T16:00:53Z</time>
      </trkpt>
      <trkpt lat="44.33197" lon="2.51714">
        <ele>626</ele>
        <time>2012-03-20T16:00:57Z</time>
      </trkpt>
      <trkpt lat="44.33199" lon="2.51707">
        <ele>623</ele>
        <time>2012-03-20T16:01:01Z</time>
      </trkpt>
      <trkpt lat="44.332" lon="2.517">
        <ele>624</ele>
        <time>2012-03-20T16:01:05Z</time>
      </trkpt>
      <trkpt lat="44.33202" lon="2.51682">
        <ele>622</ele>
        <time>2012-03-20T16:01:16Z</time>
      </trkpt>
      <trkpt lat="44.33202" lon="2.51675">
        <ele>622</ele>
        <time>2012-03-20T16:01:19Z</time>
      </trkpt>
      <trkpt lat="44.33202" lon="2.51668">
        <ele>621</ele>
        <time>2012-03-20T16:01:22Z</time>
      </trkpt>
      <trkpt lat="44.33203" lon="2.51654">
        <ele>621</ele>
        <time>2012-03-20T16:01:28Z</time>
      </trkpt>
      <trkpt lat="44.33203" lon="2.51644">
        <ele>622</ele>
        <time>2012-03-20T16:01:33Z</time>
      </trkpt>
      <trkpt lat="44.33206" lon="2.51627">
        <ele>616</ele>
        <time>2012-03-20T16:01:41Z</time>
      </trkpt>
      <trkpt lat="44.33208" lon="2.51617">
        <ele>617</ele>
        <time>2012-03-20T16:01:46Z</time>
      </trkpt>
      <trkpt lat="44.3321" lon="2.51607">
        <ele>619</ele>
        <time>2012-03-20T16:01:51Z</time>
      </trkpt>
      <trkpt lat="44.33211" lon="2.51597">
        <ele>618</ele>
        <time>2012-03-20T16:01:55Z</time>
      </trkpt>
      <trkpt lat="44.33212" lon="2.5159">
        <ele>620</ele>
        <time>2012-03-20T16:01:58Z</time>
      </trkpt>
      <trkpt lat="44.33214" lon="2.51574">
        <ele>617</ele>
        <time>2012-03-20T16:02:05Z</time>
      </trkpt>
      <trkpt lat="44.33218" lon="2.51569">
        <ele>620</ele>
        <time>2012-03-20T16:02:12Z</time>
      </trkpt>
      <trkpt lat="44.33217" lon="2.51556">
        <ele>615</ele>
        <time>2012-03-20T16:02:34Z</time>
      </trkpt>
      <trkpt lat="44.33221" lon="2.51543">
        <ele>614</ele>
        <time>2012-03-20T16:02:40Z</time>
      </trkpt>
      <trkpt lat="44.33222" lon="2.51536">
        <ele>617</ele>
        <time>2012-03-20T16:02:44Z</time>
      </trkpt>
      <trkpt lat="44.33222" lon="2.51529">
        <ele>612</ele>
        <time>2012-03-20T16:02:47Z</time>
      </trkpt>
      <trkpt lat="44.33221" lon="2.51521">
        <ele>615</ele>
        <time>2012-03-20T16:02:51Z</time>
      </trkpt>
      <trkpt lat="44.33212" lon="2.51503">
        <ele>620</ele>
        <time>2012-03-20T16:03:04Z</time>
      </trkpt>
      <trkpt lat="44.33209" lon="2.51497">
        <ele>620</ele>
        <time>2012-03-20T16:03:07Z</time>
      </trkpt>
      <trkpt lat="44.33206" lon="2.51488">
        <ele>619</ele>
        <time>2012-03-20T16:03:12Z</time>
      </trkpt>
      <trkpt lat="44.33201" lon="2.5148">
        <ele>619</ele>
        <time>2012-03-20T16:03:18Z</time>
      </trkpt>
      <trkpt lat="44.33197" lon="2.51475">
        <ele>618</ele>
        <time>2012-03-20T16:03:22Z</time>
      </trkpt>
      <trkpt lat="44.33191" lon="2.51474">
        <ele>617</ele>
        <time>2012-03-20T16:03:24Z</time>
      </trkpt>
      <trkpt lat="44.3318" lon="2.51475">
        <ele>623</ele>
        <time>2012-03-20T16:03:28Z</time>
      </trkpt>
      <trkpt lat="44.3317" lon="2.51477">
        <ele>621</ele>
        <time>2012-03-20T16:03:31Z</time>
      </trkpt>
      <trkpt lat="44.33138" lon="2.51486">
        <ele>631</ele>
        <time>2012-03-20T16:03:40Z</time>
      </trkpt>
      <trkpt lat="44.3313" lon="2.51489">
        <ele>627</ele>
        <time>2012-03-20T16:03:42Z</time>
      </trkpt>
      <trkpt lat="44.33122" lon="2.51491">
        <ele>627</ele>
        <time>2012-03-20T16:03:44Z</time>
      </trkpt>
      <trkpt lat="44.33101" lon="2.51498">
        <ele>635</ele>
        <time>2012-03-20T16:03:49Z</time>
      </trkpt>
      <trkpt lat="44.33089" lon="2.515">
        <ele>634</ele>
        <time>2012-03-20T16:03:52Z</time>
      </trkpt>
      <trkpt lat="44.33077" lon="2.51498">
        <ele>634</ele>
        <time>2012-03-20T16:03:55Z</time>
      </trkpt>
      <trkpt lat="44.3307" lon="2.51492">
        <ele>633</ele>
        <time>2012-03-20T16:03:57Z</time>
      </trkpt>
      <trkpt lat="44.33064" lon="2.51485">
        <ele>630</ele>
        <time>2012-03-20T16:03:59Z</time>
      </trkpt>
      <trkpt lat="44.3305" lon="2.51472">
        <ele>635</ele>
        <time>2012-03-20T16:04:03Z</time>
      </trkpt>
      <trkpt lat="44.33042" lon="2.51465">
        <ele>635</ele>
        <time>2012-03-20T16:04:05Z</time>
      </trkpt>
      <trkpt lat="44.33034" lon="2.51458">
        <ele>635</ele>
        <time>2012-03-20T16:04:07Z</time>
      </trkpt>
      <trkpt lat="44.33022" lon="2.5145">
        <ele>633</ele>
        <time>2012-03-20T16:04:10Z</time>
      </trkpt>
      <trkpt lat="44.33003" lon="2.51441">
        <ele>638</ele>
        <time>2012-03-20T16:04:14Z</time>
      </trkpt>
      <trkpt lat="44.32994" lon="2.51436">
        <ele>637</ele>
        <time>2012-03-20T16:04:16Z</time>
      </trkpt>
      <trkpt lat="44.32989" lon="2.51434">
        <ele>635</ele>
        <time>2012-03-20T16:04:17Z</time>
      </trkpt>
      <trkpt lat="44.32969" lon="2.51429">
        <ele>640</ele>
        <time>2012-03-20T16:04:22Z</time>
      </trkpt>
      <trkpt lat="44.3296" lon="2.51426">
        <ele>628</ele>
        <time>2012-03-20T16:04:37Z</time>
      </trkpt>
      <trkpt lat="44.32952" lon="2.51421">
        <ele>637</ele>
        <time>2012-03-20T16:04:59Z</time>
      </trkpt>
      <trkpt lat="44.32947" lon="2.51422">
        <ele>624</ele>
        <time>2012-03-20T16:05:25Z</time>
      </trkpt>
      <trkpt lat="44.32928" lon="2.51417">
        <ele>633</ele>
        <time>2012-03-20T16:05:33Z</time>
      </trkpt>
      <trkpt lat="44.3291" lon="2.51413">
        <ele>628</ele>
        <time>2012-03-20T16:05:39Z</time>
      </trkpt>
      <trkpt lat="44.32904" lon="2.51412">
        <ele>629</ele>
        <time>2012-03-20T16:05:41Z</time>
      </trkpt>
      <trkpt lat="44.32899" lon="2.5141">
        <ele>632</ele>
        <time>2012-03-20T16:05:43Z</time>
      </trkpt>
      <trkpt lat="44.32894" lon="2.51408">
        <ele>632</ele>
        <time>2012-03-20T16:05:45Z</time>
      </trkpt>
      <trkpt lat="44.32888" lon="2.51405">
        <ele>632</ele>
        <time>2012-03-20T16:05:48Z</time>
      </trkpt>
      <trkpt lat="44.32884" lon="2.51403">
        <ele>629</ele>
        <time>2012-03-20T16:05:50Z</time>
      </trkpt>
      <trkpt lat="44.32878" lon="2.514">
        <ele>630</ele>
        <time>2012-03-20T16:05:52Z</time>
      </trkpt>
      <trkpt lat="44.32873" lon="2.51397">
        <ele>632</ele>
        <time>2012-03-20T16:05:54Z</time>
      </trkpt>
      <trkpt lat="44.32868" lon="2.51394">
        <ele>633</ele>
        <time>2012-03-20T16:05:56Z</time>
      </trkpt>
      <trkpt lat="44.32863" lon="2.51392">
        <ele>627</ele>
        <time>2012-03-20T16:05:58Z</time>
      </trkpt>
      <trkpt lat="44.32857" lon="2.51389">
        <ele>630</ele>
        <time>2012-03-20T16:05:59Z</time>
      </trkpt>
      <trkpt lat="44.32847" lon="2.51383">
        <ele>627</ele>
        <time>2012-03-20T16:06:03Z</time>
      </trkpt>
      <trkpt lat="44.32836" lon="2.51376">
        <ele>637</ele>
        <time>2012-03-20T16:06:10Z</time>
      </trkpt>
      <trkpt lat="44.32829" lon="2.51372">
        <ele>637</ele>
        <time>2012-03-20T16:06:15Z</time>
      </trkpt>
      <trkpt lat="44.32825" lon="2.51369">
        <ele>638</ele>
        <time>2012-03-20T16:06:18Z</time>
      </trkpt>
      <trkpt lat="44.32815" lon="2.51363">
        <ele>636</ele>
        <time>2012-03-20T16:06:25Z</time>
      </trkpt>
      <trkpt lat="44.3281" lon="2.5136">
        <ele>637</ele>
        <time>2012-03-20T16:06:29Z</time>
      </trkpt>
      <trkpt lat="44.32805" lon="2.51357">
        <ele>636</ele>
        <time>2012-03-20T16:06:33Z</time>
      </trkpt>
      <trkpt lat="44.328" lon="2.51354">
        <ele>637</ele>
        <time>2012-03-20T16:06:37Z</time>
      </trkpt>
      <trkpt lat="44.32796" lon="2.51352">
        <ele>635</ele>
        <time>2012-03-20T16:06:41Z</time>
      </trkpt>
      <trkpt lat="44.32791" lon="2.51349">
        <ele>635</ele>
        <time>2012-03-20T16:06:44Z</time>
      </trkpt>
      <trkpt lat="44.32787" lon="2.51347">
        <ele>635</ele>
        <time>2012-03-20T16:06:47Z</time>
      </trkpt>
      <trkpt lat="44.32777" lon="2.51344">
        <ele>635</ele>
        <time>2012-03-20T16:06:54Z</time>
      </trkpt>
      <trkpt lat="44.32771" lon="2.51344">
        <ele>635</ele>
        <time>2012-03-20T16:06:59Z</time>
      </trkpt>
      <trkpt lat="44.32754" lon="2.51347">
        <ele>630</ele>
        <time>2012-03-20T16:07:11Z</time>
      </trkpt>
      <trkpt lat="44.32744" lon="2.5135">
        <ele>631</ele>
        <time>2012-03-20T16:07:20Z</time>
      </trkpt>
      <trkpt lat="44.32733" lon="2.51351">
        <ele>635</ele>
        <time>2012-03-20T16:07:28Z</time>
      </trkpt>
      <trkpt lat="44.32727" lon="2.51352">
        <ele>633</ele>
        <time>2012-03-20T16:07:32Z</time>
      </trkpt>
      <trkpt lat="44.32716" lon="2.51348">
        <ele>634</ele>
        <time>2012-03-20T16:07:40Z</time>
      </trkpt>
      <trkpt lat="44.3271" lon="2.51344">
        <ele>634</ele>
        <time>2012-03-20T16:07:43Z</time>
      </trkpt>
      <trkpt lat="44.32705" lon="2.5134">
        <ele>637</ele>
        <time>2012-03-20T16:07:46Z</time>
      </trkpt>
      <trkpt lat="44.32701" lon="2.51335">
        <ele>636</ele>
        <time>2012-03-20T16:07:51Z</time>
      </trkpt>
      <trkpt lat="44.32698" lon="2.51329">
        <ele>638</ele>
        <time>2012-03-20T16:07:54Z</time>
      </trkpt>
      <trkpt lat="44.32696" lon="2.51321">
        <ele>637</ele>
        <time>2012-03-20T16:07:58Z</time>
      </trkpt>
      <trkpt lat="44.32694" lon="2.51314">
        <ele>633</ele>
        <time>2012-03-20T16:08:02Z</time>
      </trkpt>
      <trkpt lat="44.32688" lon="2.513">
        <ele>638</ele>
        <time>2012-03-20T16:08:10Z</time>
      </trkpt>
      <trkpt lat="44.32682" lon="2.51289">
        <ele>634</ele>
        <time>2012-03-20T16:08:18Z</time>
      </trkpt>
      <trkpt lat="44.32679" lon="2.51281">
        <ele>633</ele>
        <time>2012-03-20T16:08:22Z</time>
      </trkpt>
      <trkpt lat="44.32675" lon="2.51274">
        <ele>633</ele>
        <time>2012-03-20T16:08:27Z</time>
      </trkpt>
      <trkpt lat="44.32669" lon="2.51261">
        <ele>630</ele>
        <time>2012-03-20T16:08:34Z</time>
      </trkpt>
      <trkpt lat="44.32667" lon="2.51255">
        <ele>629</ele>
        <time>2012-03-20T16:08:37Z</time>
      </trkpt>
      <trkpt lat="44.32664" lon="2.51249">
        <ele>629</ele>
        <time>2012-03-20T16:08:41Z</time>
      </trkpt>
      <trkpt lat="44.32656" lon="2.51222">
        <ele>624</ele>
        <time>2012-03-20T16:08:54Z</time>
      </trkpt>
      <trkpt lat="44.32654" lon="2.51214">
        <ele>628</ele>
        <time>2012-03-20T16:08:58Z</time>
      </trkpt>
      <trkpt lat="44.32651" lon="2.51199">
        <ele>625</ele>
        <time>2012-03-20T16:09:05Z</time>
      </trkpt>
      <trkpt lat="44.32648" lon="2.51186">
        <ele>629</ele>
        <time>2012-03-20T16:09:11Z</time>
      </trkpt>
      <trkpt lat="44.32646" lon="2.5118">
        <ele>623</ele>
        <time>2012-03-20T16:09:14Z</time>
      </trkpt>
      <trkpt lat="44.32644" lon="2.51171">
        <ele>625</ele>
        <time>2012-03-20T16:09:19Z</time>
      </trkpt>
      <trkpt lat="44.32642" lon="2.51163">
        <ele>624</ele>
        <time>2012-03-20T16:09:23Z</time>
      </trkpt>
      <trkpt lat="44.3264" lon="2.51157">
        <ele>626</ele>
        <time>2012-03-20T16:09:26Z</time>
      </trkpt>
      <trkpt lat="44.32639" lon="2.5115">
        <ele>626</ele>
        <time>2012-03-20T16:09:29Z</time>
      </trkpt>
      <trkpt lat="44.32638" lon="2.51141">
        <ele>627</ele>
        <time>2012-03-20T16:09:33Z</time>
      </trkpt>
      <trkpt lat="44.32636" lon="2.51134">
        <ele>628</ele>
        <time>2012-03-20T16:09:36Z</time>
      </trkpt>
      <trkpt lat="44.32634" lon="2.51126">
        <ele>625</ele>
        <time>2012-03-20T16:09:40Z</time>
      </trkpt>
      <trkpt lat="44.32632" lon="2.5112">
        <ele>627</ele>
        <time>2012-03-20T16:09:44Z</time>
      </trkpt>
      <trkpt lat="44.3263" lon="2.51114">
        <ele>625</ele>
        <time>2012-03-20T16:09:47Z</time>
      </trkpt>
      <trkpt lat="44.32628" lon="2.51108">
        <ele>627</ele>
        <time>2012-03-20T16:09:50Z</time>
      </trkpt>
      <trkpt lat="44.32625" lon="2.51102">
        <ele>627</ele>
        <time>2012-03-20T16:09:53Z</time>
      </trkpt>
      <trkpt lat="44.32622" lon="2.51093">
        <ele>625</ele>
        <time>2012-03-20T16:09:57Z</time>
      </trkpt>
      <trkpt lat="44.3262" lon="2.51086">
        <ele>627</ele>
        <time>2012-03-20T16:10:01Z</time>
      </trkpt>
      <trkpt lat="44.32612" lon="2.51065">
        <ele>622</ele>
        <time>2012-03-20T16:10:18Z</time>
      </trkpt>
      <trkpt lat="44.32604" lon="2.51058">
        <ele>631</ele>
        <time>2012-03-20T16:10:29Z</time>
      </trkpt>
      <trkpt lat="44.326" lon="2.51056">
        <ele>630</ele>
        <time>2012-03-20T16:10:34Z</time>
      </trkpt>
      <trkpt lat="44.32596" lon="2.5105">
        <ele>626</ele>
        <time>2012-03-20T16:10:39Z</time>
      </trkpt>
      <trkpt lat="44.32595" lon="2.51046">
        <ele>629</ele>
        <time>2012-03-20T16:10:46Z</time>
      </trkpt>
      <trkpt lat="44.32591" lon="2.51041">
        <ele>627</ele>
        <time>2012-03-20T16:11:11Z</time>
      </trkpt>
      <trkpt lat="44.32591" lon="2.51038">
        <ele>639</ele>
        <time>2012-03-20T16:11:44Z</time>
      </trkpt>
      <trkpt lat="44.32595" lon="2.51034">
        <ele>632</ele>
        <time>2012-03-20T16:12:40Z</time>
      </trkpt>
      <trkpt lat="44.32597" lon="2.51038">
        <ele>628</ele>
        <time>2012-03-20T16:13:42Z</time>
      </trkpt>
      <trkpt lat="44.32597" lon="2.51042">
        <ele>622</ele>
        <time>2012-03-20T16:13:50Z</time>
      </trkpt>
      <trkpt lat="44.32593" lon="2.51039">
        <ele>626</ele>
        <time>2012-03-20T16:13:53Z</time>
      </trkpt>
      <trkpt lat="44.32587" lon="2.51038">
        <ele>629</ele>
        <time>2012-03-20T16:13:56Z</time>
      </trkpt>
      <trkpt lat="44.32581" lon="2.51037">
        <ele>627</ele>
        <time>2012-03-20T16:14:00Z</time>
      </trkpt>
      <trkpt lat="44.32575" lon="2.51034">
        <ele>626</ele>
        <time>2012-03-20T16:14:05Z</time>
      </trkpt>
      <trkpt lat="44.32571" lon="2.5103">
        <ele>624</ele>
        <time>2012-03-20T16:14:10Z</time>
      </trkpt>
      <trkpt lat="44.32552" lon="2.51019">
        <ele>633</ele>
        <time>2012-03-20T16:14:27Z</time>
      </trkpt>
      <trkpt lat="44.32546" lon="2.51016">
        <ele>633</ele>
        <time>2012-03-20T16:14:32Z</time>
      </trkpt>
      <trkpt lat="44.32538" lon="2.51009">
        <ele>637</ele>
        <time>2012-03-20T16:14:41Z</time>
      </trkpt>
      <trkpt lat="44.32532" lon="2.51004">
        <ele>633</ele>
        <time>2012-03-20T16:14:50Z</time>
      </trkpt>
      <trkpt lat="44.32518" lon="2.5099">
        <ele>642</ele>
        <time>2012-03-20T16:15:03Z</time>
      </trkpt>
      <trkpt lat="44.3251" lon="2.5098">
        <ele>637</ele>
        <time>2012-03-20T16:15:12Z</time>
      </trkpt>
      <trkpt lat="44.32494" lon="2.50965">
        <ele>644</ele>
        <time>2012-03-20T16:15:32Z</time>
      </trkpt>
      <trkpt lat="44.3249" lon="2.50953">
        <ele>643</ele>
        <time>2012-03-20T16:15:39Z</time>
      </trkpt>
      <trkpt lat="44.3249" lon="2.50944">
        <ele>643</ele>
        <time>2012-03-20T16:15:45Z</time>
      </trkpt>
      <trkpt lat="44.32492" lon="2.50935">
        <ele>641</ele>
        <time>2012-03-20T16:15:50Z</time>
      </trkpt>
      <trkpt lat="44.32496" lon="2.50929">
        <ele>643</ele>
        <time>2012-03-20T16:15:54Z</time>
      </trkpt>
      <trkpt lat="44.32497" lon="2.50921">
        <ele>643</ele>
        <time>2012-03-20T16:15:58Z</time>
      </trkpt>
      <trkpt lat="44.32497" lon="2.50912">
        <ele>643</ele>
        <time>2012-03-20T16:16:04Z</time>
      </trkpt>
      <trkpt lat="44.325" lon="2.50899">
        <ele>645</ele>
        <time>2012-03-20T16:16:13Z</time>
      </trkpt>
      <trkpt lat="44.32502" lon="2.50892">
        <ele>647</ele>
        <time>2012-03-20T16:16:16Z</time>
      </trkpt>
      <trkpt lat="44.32506" lon="2.50887">
        <ele>645</ele>
        <time>2012-03-20T16:16:20Z</time>
      </trkpt>
      <trkpt lat="44.32509" lon="2.50881">
        <ele>648</ele>
        <time>2012-03-20T16:16:25Z</time>
      </trkpt>
      <trkpt lat="44.32517" lon="2.5087">
        <ele>644</ele>
        <time>2012-03-20T16:16:35Z</time>
      </trkpt>
      <trkpt lat="44.32519" lon="2.50864">
        <ele>646</ele>
        <time>2012-03-20T16:16:39Z</time>
      </trkpt>
      <trkpt lat="44.32522" lon="2.50858">
        <ele>646</ele>
        <time>2012-03-20T16:16:43Z</time>
      </trkpt>
      <trkpt lat="44.32525" lon="2.50852">
        <ele>650</ele>
        <time>2012-03-20T16:16:47Z</time>
      </trkpt>
      <trkpt lat="44.32532" lon="2.50836">
        <ele>647</ele>
        <time>2012-03-20T16:16:57Z</time>
      </trkpt>
      <trkpt lat="44.32534" lon="2.50829">
        <ele>648</ele>
        <time>2012-03-20T16:17:00Z</time>
      </trkpt>
      <trkpt lat="44.32536" lon="2.50823">
        <ele>647</ele>
        <time>2012-03-20T16:17:03Z</time>
      </trkpt>
      <trkpt lat="44.3254" lon="2.50819">
        <ele>647</ele>
        <time>2012-03-20T16:17:07Z</time>
      </trkpt>
      <trkpt lat="44.32543" lon="2.50815">
        <ele>646</ele>
        <time>2012-03-20T16:17:16Z</time>
      </trkpt>
      <trkpt lat="44.32549" lon="2.50799">
        <ele>653</ele>
        <time>2012-03-20T16:17:41Z</time>
      </trkpt>
      <trkpt lat="44.32555" lon="2.50787">
        <ele>650</ele>
        <time>2012-03-20T16:17:51Z</time>
      </trkpt>
      <trkpt lat="44.32558" lon="2.50781">
        <ele>650</ele>
        <time>2012-03-20T16:17:55Z</time>
      </trkpt>
      <trkpt lat="44.32562" lon="2.50775">
        <ele>650</ele>
        <time>2012-03-20T16:17:59Z</time>
      </trkpt>
      <trkpt lat="44.32566" lon="2.5077">
        <ele>651</ele>
        <time>2012-03-20T16:18:03Z</time>
      </trkpt>
      <trkpt lat="44.32574" lon="2.50761">
        <ele>652</ele>
        <time>2012-03-20T16:18:11Z</time>
      </trkpt>
      <trkpt lat="44.32578" lon="2.50757">
        <ele>651</ele>
        <time>2012-03-20T16:18:15Z</time>
      </trkpt>
      <trkpt lat="44.32586" lon="2.50746">
        <ele>653</ele>
        <time>2012-03-20T16:18:23Z</time>
      </trkpt>
      <trkpt lat="44.32589" lon="2.50742">
        <ele>651</ele>
        <time>2012-03-20T16:18:27Z</time>
      </trkpt>
      <trkpt lat="44.32593" lon="2.50737">
        <ele>652</ele>
        <time>2012-03-20T16:18:30Z</time>
      </trkpt>
      <trkpt lat="44.326" lon="2.50728">
        <ele>658</ele>
        <time>2012-03-20T16:18:38Z</time>
      </trkpt>
      <trkpt lat="44.32606" lon="2.50715">
        <ele>653</ele>
        <time>2012-03-20T16:18:46Z</time>
      </trkpt>
      <trkpt lat="44.32609" lon="2.50709">
        <ele>655</ele>
        <time>2012-03-20T16:18:50Z</time>
      </trkpt>
      <trkpt lat="44.32618" lon="2.50699">
        <ele>653</ele>
        <time>2012-03-20T16:18:58Z</time>
      </trkpt>
      <trkpt lat="44.32632" lon="2.5068">
        <ele>656</ele>
        <time>2012-03-20T16:19:11Z</time>
      </trkpt>
      <trkpt lat="44.32636" lon="2.50675">
        <ele>656</ele>
        <time>2012-03-20T16:19:15Z</time>
      </trkpt>
      <trkpt lat="44.32639" lon="2.5067">
        <ele>656</ele>
        <time>2012-03-20T16:19:19Z</time>
      </trkpt>
      <trkpt lat="44.32649" lon="2.50661">
        <ele>657</ele>
        <time>2012-03-20T16:19:27Z</time>
      </trkpt>
      <trkpt lat="44.32656" lon="2.50653">
        <ele>652</ele>
        <time>2012-03-20T16:19:34Z</time>
      </trkpt>
      <trkpt lat="44.32662" lon="2.50641">
        <ele>655</ele>
        <time>2012-03-20T16:19:42Z</time>
      </trkpt>
      <trkpt lat="44.32662" lon="2.50628">
        <ele>650</ele>
        <time>2012-03-20T16:19:50Z</time>
      </trkpt>
      <trkpt lat="44.32661" lon="2.50621">
        <ele>648</ele>
        <time>2012-03-20T16:19:55Z</time>
      </trkpt>
      <trkpt lat="44.32657" lon="2.50602">
        <ele>658</ele>
        <time>2012-03-20T16:20:08Z</time>
      </trkpt>
      <trkpt lat="44.32651" lon="2.50582">
        <ele>652</ele>
        <time>2012-03-20T16:20:21Z</time>
      </trkpt>
      <trkpt lat="44.32649" lon="2.50573">
        <ele>657</ele>
        <time>2012-03-20T16:20:26Z</time>
      </trkpt>
      <trkpt lat="44.32648" lon="2.50566">
        <ele>657</ele>
        <time>2012-03-20T16:20:29Z</time>
      </trkpt>
      <trkpt lat="44.32646" lon="2.50558">
        <ele>654</ele>
        <time>2012-03-20T16:20:33Z</time>
      </trkpt>
      <trkpt lat="44.32637" lon="2.50531">
        <ele>650</ele>
        <time>2012-03-20T16:20:47Z</time>
      </trkpt>
      <trkpt lat="44.32635" lon="2.50522">
        <ele>651</ele>
        <time>2012-03-20T16:20:52Z</time>
      </trkpt>
      <trkpt lat="44.32634" lon="2.50514">
        <ele>650</ele>
        <time>2012-03-20T16:20:56Z</time>
      </trkpt>
      <trkpt lat="44.3263" lon="2.50498">
        <ele>647</ele>
        <time>2012-03-20T16:21:04Z</time>
      </trkpt>
      <trkpt lat="44.32628" lon="2.50491">
        <ele>649</ele>
        <time>2012-03-20T16:21:07Z</time>
      </trkpt>
      <trkpt lat="44.32627" lon="2.50483">
        <ele>647</ele>
        <time>2012-03-20T16:21:11Z</time>
      </trkpt>
      <trkpt lat="44.32625" lon="2.50476">
        <ele>651</ele>
        <time>2012-03-20T16:21:14Z</time>
      </trkpt>
      <trkpt lat="44.32622" lon="2.50468">
        <ele>648</ele>
        <time>2012-03-20T16:21:18Z</time>
      </trkpt>
      <trkpt lat="44.32621" lon="2.50462">
        <ele>651</ele>
        <time>2012-03-20T16:21:21Z</time>
      </trkpt>
      <trkpt lat="44.3262" lon="2.50455">
        <ele>651</ele>
        <time>2012-03-20T16:21:24Z</time>
      </trkpt>
      <trkpt lat="44.32617" lon="2.5044">
        <ele>648</ele>
        <time>2012-03-20T16:21:31Z</time>
      </trkpt>
      <trkpt lat="44.32615" lon="2.50433">
        <ele>650</ele>
        <time>2012-03-20T16:21:35Z</time>
      </trkpt>
      <trkpt lat="44.32612" lon="2.5042">
        <ele>641</ele>
        <time>2012-03-20T16:21:41Z</time>
      </trkpt>
      <trkpt lat="44.32609" lon="2.50405">
        <ele>643</ele>
        <time>2012-03-20T16:21:49Z</time>
      </trkpt>
      <trkpt lat="44.32607" lon="2.5039">
        <ele>640</ele>
        <time>2012-03-20T16:21:58Z</time>
      </trkpt>
      <trkpt lat="44.32605" lon="2.50382">
        <ele>641</ele>
        <time>2012-03-20T16:22:01Z</time>
      </trkpt>
      <trkpt lat="44.32603" lon="2.50376">
        <ele>640</ele>
        <time>2012-03-20T16:22:04Z</time>
      </trkpt>
      <trkpt lat="44.32596" lon="2.50354">
        <ele>638</ele>
        <time>2012-03-20T16:22:15Z</time>
      </trkpt>
      <trkpt lat="44.32595" lon="2.50346">
        <ele>638</ele>
        <time>2012-03-20T16:22:19Z</time>
      </trkpt>
      <trkpt lat="44.32593" lon="2.50339">
        <ele>637</ele>
        <time>2012-03-20T16:22:23Z</time>
      </trkpt>
      <trkpt lat="44.32592" lon="2.50332">
        <ele>634</ele>
        <time>2012-03-20T16:22:27Z</time>
      </trkpt>
      <trkpt lat="44.32593" lon="2.50325">
        <ele>634</ele>
        <time>2012-03-20T16:22:31Z</time>
      </trkpt>
      <trkpt lat="44.32597" lon="2.50316">
        <ele>637</ele>
        <time>2012-03-20T16:22:36Z</time>
      </trkpt>
      <trkpt lat="44.32609" lon="2.50301">
        <ele>631</ele>
        <time>2012-03-20T16:22:46Z</time>
      </trkpt>
      <trkpt lat="44.32613" lon="2.50297">
        <ele>634</ele>
        <time>2012-03-20T16:22:50Z</time>
      </trkpt>
      <trkpt lat="44.32617" lon="2.50294">
        <ele>630</ele>
        <time>2012-03-20T16:22:53Z</time>
      </trkpt>
      <trkpt lat="44.32621" lon="2.50291">
        <ele>634</ele>
        <time>2012-03-20T16:22:55Z</time>
      </trkpt>
      <trkpt lat="44.32637" lon="2.50281">
        <ele>630</ele>
        <time>2012-03-20T16:23:00Z</time>
      </trkpt>
      <trkpt lat="44.32648" lon="2.50276">
        <ele>629</ele>
        <time>2012-03-20T16:23:03Z</time>
      </trkpt>
      <trkpt lat="44.3266" lon="2.5027">
        <ele>632</ele>
        <time>2012-03-20T16:23:06Z</time>
      </trkpt>
      <trkpt lat="44.32672" lon="2.50264">
        <ele>629</ele>
        <time>2012-03-20T16:23:09Z</time>
      </trkpt>
      <trkpt lat="44.32692" lon="2.50254">
        <ele>628</ele>
        <time>2012-03-20T16:23:13Z</time>
      </trkpt>
      <trkpt lat="44.327" lon="2.50249">
        <ele>627</ele>
        <time>2012-03-20T16:23:15Z</time>
      </trkpt>
      <trkpt lat="44.32709" lon="2.50245">
        <ele>627</ele>
        <time>2012-03-20T16:23:17Z</time>
      </trkpt>
      <trkpt lat="44.32714" lon="2.50243">
        <ele>631</ele>
        <time>2012-03-20T16:23:18Z</time>
      </trkpt>
      <trkpt lat="44.32726" lon="2.50237">
        <ele>623</ele>
        <time>2012-03-20T16:23:21Z</time>
      </trkpt>
      <trkpt lat="44.32757" lon="2.50228">
        <ele>633</ele>
        <time>2012-03-20T16:23:29Z</time>
      </trkpt>
      <trkpt lat="44.32766" lon="2.50226">
        <ele>634</ele>
        <time>2012-03-20T16:23:33Z</time>
      </trkpt>
      <trkpt lat="44.3278" lon="2.50228">
        <ele>646</ele>
        <time>2012-03-20T16:23:54Z</time>
      </trkpt>
      <trkpt lat="44.32789" lon="2.50225">
        <ele>633</ele>
        <time>2012-03-20T16:23:58Z</time>
      </trkpt>
      <trkpt lat="44.32799" lon="2.50225">
        <ele>634</ele>
        <time>2012-03-20T16:24:07Z</time>
      </trkpt>
      <trkpt lat="44.32803" lon="2.50224">
        <ele>640</ele>
        <time>2012-03-20T16:24:13Z</time>
      </trkpt>
      <trkpt lat="44.3282" lon="2.50223">
        <ele>620</ele>
        <time>2012-03-20T16:24:24Z</time>
      </trkpt>
      <trkpt lat="44.32825" lon="2.50224">
        <ele>626</ele>
        <time>2012-03-20T16:24:28Z</time>
      </trkpt>
      <trkpt lat="44.32831" lon="2.50223">
        <ele>627</ele>
        <time>2012-03-20T16:24:32Z</time>
      </trkpt>
      <trkpt lat="44.32835" lon="2.50224">
        <ele>629</ele>
        <time>2012-03-20T16:24:36Z</time>
      </trkpt>
      <trkpt lat="44.32843" lon="2.50225">
        <ele>625</ele>
        <time>2012-03-20T16:24:41Z</time>
      </trkpt>
      <trkpt lat="44.32857" lon="2.50226">
        <ele>632</ele>
        <time>2012-03-20T16:24:50Z</time>
      </trkpt>
      <trkpt lat="44.32868" lon="2.50226">
        <ele>625</ele>
        <time>2012-03-20T16:24:57Z</time>
      </trkpt>
      <trkpt lat="44.32877" lon="2.50224">
        <ele>626</ele>
        <time>2012-03-20T16:25:03Z</time>
      </trkpt>
      <trkpt lat="44.32887" lon="2.5022">
        <ele>630</ele>
        <time>2012-03-20T16:25:10Z</time>
      </trkpt>
      <trkpt lat="44.32891" lon="2.50217">
        <ele>627</ele>
        <time>2012-03-20T16:25:13Z</time>
      </trkpt>
      <trkpt lat="44.32895" lon="2.50214">
        <ele>627</ele>
        <time>2012-03-20T16:25:16Z</time>
      </trkpt>
      <trkpt lat="44.32899" lon="2.50209">
        <ele>627</ele>
        <time>2012-03-20T16:25:20Z</time>
      </trkpt>
      <trkpt lat="44.32904" lon="2.50206">
        <ele>626</ele>
        <time>2012-03-20T16:25:25Z</time>
      </trkpt>
      <trkpt lat="44.32905" lon="2.50199">
        <ele>627</ele>
        <time>2012-03-20T16:25:28Z</time>
      </trkpt>
      <trkpt lat="44.32908" lon="2.50192">
        <ele>626</ele>
        <time>2012-03-20T16:25:32Z</time>
      </trkpt>
      <trkpt lat="44.32911" lon="2.50186">
        <ele>626</ele>
        <time>2012-03-20T16:25:36Z</time>
      </trkpt>
      <trkpt lat="44.32914" lon="2.5018">
        <ele>624</ele>
        <time>2012-03-20T16:25:40Z</time>
      </trkpt>
      <trkpt lat="44.32918" lon="2.50172">
        <ele>623</ele>
        <time>2012-03-20T16:25:45Z</time>
      </trkpt>
      <trkpt lat="44.32926" lon="2.50162">
        <ele>616</ele>
        <time>2012-03-20T16:25:51Z</time>
      </trkpt>
      <trkpt lat="44.32933" lon="2.50152">
        <ele>618</ele>
        <time>2012-03-20T16:25:58Z</time>
      </trkpt>
      <trkpt lat="44.32961" lon="2.50128">
        <ele>607</ele>
        <time>2012-03-20T16:26:22Z</time>
      </trkpt>
      <trkpt lat="44.32965" lon="2.50125">
        <ele>613</ele>
        <time>2012-03-20T16:26:26Z</time>
      </trkpt>
      <trkpt lat="44.32969" lon="2.50121">
        <ele>611</ele>
        <time>2012-03-20T16:26:29Z</time>
      </trkpt>
      <trkpt lat="44.32973" lon="2.50119">
        <ele>611</ele>
        <time>2012-03-20T16:26:32Z</time>
      </trkpt>
      <trkpt lat="44.32978" lon="2.50114">
        <ele>610</ele>
        <time>2012-03-20T16:26:36Z</time>
      </trkpt>
      <trkpt lat="44.32988" lon="2.50102">
        <ele>610</ele>
        <time>2012-03-20T16:26:45Z</time>
      </trkpt>
      <trkpt lat="44.32999" lon="2.50085">
        <ele>604</ele>
        <time>2012-03-20T16:26:56Z</time>
      </trkpt>
      <trkpt lat="44.33005" lon="2.50072">
        <ele>608</ele>
        <time>2012-03-20T16:27:03Z</time>
      </trkpt>
      <trkpt lat="44.3301" lon="2.50063">
        <ele>602</ele>
        <time>2012-03-20T16:27:30Z</time>
      </trkpt>
      <trkpt lat="44.33012" lon="2.50063">
        <ele>610</ele>
        <time>2012-03-20T16:28:33Z</time>
      </trkpt>
      <trkpt lat="44.33016" lon="2.50057">
        <ele>604</ele>
        <time>2012-03-20T16:28:46Z</time>
      </trkpt>
      <trkpt lat="44.3302" lon="2.50049">
        <ele>605</ele>
        <time>2012-03-20T16:28:50Z</time>
      </trkpt>
      <trkpt lat="44.33024" lon="2.50043">
        <ele>604</ele>
        <time>2012-03-20T16:28:54Z</time>
      </trkpt>
      <trkpt lat="44.33028" lon="2.50036">
        <ele>605</ele>
        <time>2012-03-20T16:28:58Z</time>
      </trkpt>
      <trkpt lat="44.3303" lon="2.5003">
        <ele>605</ele>
        <time>2012-03-20T16:29:01Z</time>
      </trkpt>
      <trkpt lat="44.33034" lon="2.50025">
        <ele>601</ele>
        <time>2012-03-20T16:29:05Z</time>
      </trkpt>
      <trkpt lat="44.33038" lon="2.5002">
        <ele>602</ele>
        <time>2012-03-20T16:29:09Z</time>
      </trkpt>
      <trkpt lat="44.33042" lon="2.50013">
        <ele>601</ele>
        <time>2012-03-20T16:29:13Z</time>
      </trkpt>
      <trkpt lat="44.33047" lon="2.50003">
        <ele>601</ele>
        <time>2012-03-20T16:29:19Z</time>
      </trkpt>
      <trkpt lat="44.3305" lon="2.49997">
        <ele>600</ele>
        <time>2012-03-20T16:29:23Z</time>
      </trkpt>
      <trkpt lat="44.33053" lon="2.4999">
        <ele>595</ele>
        <time>2012-03-20T16:29:27Z</time>
      </trkpt>
      <trkpt lat="44.33055" lon="2.49977">
        <ele>596</ele>
        <time>2012-03-20T16:29:35Z</time>
      </trkpt>
      <trkpt lat="44.33057" lon="2.49962">
        <ele>593</ele>
        <time>2012-03-20T16:29:42Z</time>
      </trkpt>
      <trkpt lat="44.33058" lon="2.49955">
        <ele>598</ele>
        <time>2012-03-20T16:29:45Z</time>
      </trkpt>
      <trkpt lat="44.33071" lon="2.49935">
        <ele>584</ele>
        <time>2012-03-20T16:30:00Z</time>
      </trkpt>
      <trkpt lat="44.33076" lon="2.49924">
        <ele>584</ele>
        <time>2012-03-20T16:30:06Z</time>
      </trkpt>
      <trkpt lat="44.33087" lon="2.49911">
        <ele>591</ele>
        <time>2012-03-20T16:30:15Z</time>
      </trkpt>
      <trkpt lat="44.33091" lon="2.49896">
        <ele>593</ele>
        <time>2012-03-20T16:30:21Z</time>
      </trkpt>
      <trkpt lat="44.33094" lon="2.49883">
        <ele>593</ele>
        <time>2012-03-20T16:30:28Z</time>
      </trkpt>
      <trkpt lat="44.33101" lon="2.49871">
        <ele>597</ele>
        <time>2012-03-20T16:30:38Z</time>
      </trkpt>
      <trkpt lat="44.33108" lon="2.49861">
        <ele>593</ele>
        <time>2012-03-20T16:30:43Z</time>
      </trkpt>
      <trkpt lat="44.33111" lon="2.49854">
        <ele>595</ele>
        <time>2012-03-20T16:30:48Z</time>
      </trkpt>
      <trkpt lat="44.33117" lon="2.49841">
        <ele>594</ele>
        <time>2012-03-20T16:30:55Z</time>
      </trkpt>
      <trkpt lat="44.33129" lon="2.49818">
        <ele>587</ele>
        <time>2012-03-20T16:31:06Z</time>
      </trkpt>
      <trkpt lat="44.33155" lon="2.49797">
        <ele>593</ele>
        <time>2012-03-20T16:31:30Z</time>
      </trkpt>
      <trkpt lat="44.33162" lon="2.49788">
        <ele>592</ele>
        <time>2012-03-20T16:31:34Z</time>
      </trkpt>
      <trkpt lat="44.33169" lon="2.49783">
        <ele>595</ele>
        <time>2012-03-20T16:31:39Z</time>
      </trkpt>
      <trkpt lat="44.33177" lon="2.49777">
        <ele>591</ele>
        <time>2012-03-20T16:31:44Z</time>
      </trkpt>
      <trkpt lat="44.33188" lon="2.49775">
        <ele>591</ele>
        <time>2012-03-20T16:31:50Z</time>
      </trkpt>
      <trkpt lat="44.33197" lon="2.49768">
        <ele>593</ele>
        <time>2012-03-20T16:31:57Z</time>
      </trkpt>
      <trkpt lat="44.332" lon="2.49756">
        <ele>587</ele>
        <time>2012-03-20T16:32:04Z</time>
      </trkpt>
      <trkpt lat="44.33208" lon="2.49743">
        <ele>599</ele>
        <time>2012-03-20T16:32:10Z</time>
      </trkpt>
      <trkpt lat="44.33227" lon="2.49704">
        <ele>585</ele>
        <time>2012-03-20T16:32:32Z</time>
      </trkpt>
      <trkpt lat="44.33232" lon="2.49695">
        <ele>588</ele>
        <time>2012-03-20T16:32:38Z</time>
      </trkpt>
      <trkpt lat="44.33234" lon="2.4969">
        <ele>587</ele>
        <time>2012-03-20T16:32:42Z</time>
      </trkpt>
      <trkpt lat="44.33242" lon="2.49681">
        <ele>587</ele>
        <time>2012-03-20T16:32:49Z</time>
      </trkpt>
      <trkpt lat="44.33247" lon="2.49675">
        <ele>588</ele>
        <time>2012-03-20T16:32:53Z</time>
      </trkpt>
      <trkpt lat="44.33257" lon="2.49668">
        <ele>582</ele>
        <time>2012-03-20T16:32:58Z</time>
      </trkpt>
      <trkpt lat="44.33266" lon="2.49661">
        <ele>585</ele>
        <time>2012-03-20T16:33:02Z</time>
      </trkpt>
      <trkpt lat="44.33277" lon="2.49659">
        <ele>583</ele>
        <time>2012-03-20T16:33:07Z</time>
      </trkpt>
      <trkpt lat="44.33294" lon="2.49645">
        <ele>587</ele>
        <time>2012-03-20T16:33:18Z</time>
      </trkpt>
      <trkpt lat="44.33304" lon="2.49641">
        <ele>587</ele>
        <time>2012-03-20T16:33:24Z</time>
      </trkpt>
      <trkpt lat="44.33322" lon="2.49635">
        <ele>580</ele>
        <time>2012-03-20T16:33:35Z</time>
      </trkpt>
      <trkpt lat="44.33332" lon="2.49643">
        <ele>579</ele>
        <time>2012-03-20T16:33:41Z</time>
      </trkpt>
      <trkpt lat="44.33347" lon="2.49663">
        <ele>566</ele>
        <time>2012-03-20T16:33:54Z</time>
      </trkpt>
      <trkpt lat="44.33357" lon="2.49666">
        <ele>571</ele>
        <time>2012-03-20T16:33:57Z</time>
      </trkpt>
      <trkpt lat="44.33366" lon="2.49665">
        <ele>572</ele>
        <time>2012-03-20T16:33:59Z</time>
      </trkpt>
      <trkpt lat="44.33377" lon="2.49662">
        <ele>571</ele>
        <time>2012-03-20T16:34:01Z</time>
      </trkpt>
      <trkpt lat="44.3341" lon="2.49651">
        <ele>575</ele>
        <time>2012-03-20T16:34:10Z</time>
      </trkpt>
      <trkpt lat="44.33421" lon="2.49649">
        <ele>579</ele>
        <time>2012-03-20T16:34:13Z</time>
      </trkpt>
      <trkpt lat="44.3343" lon="2.49648">
        <ele>579</ele>
        <time>2012-03-20T16:34:16Z</time>
      </trkpt>
      <trkpt lat="44.33482" lon="2.49653">
        <ele>593</ele>
        <time>2012-03-20T16:34:51Z</time>
      </trkpt>
      <trkpt lat="44.33491" lon="2.49652">
        <ele>593</ele>
        <time>2012-03-20T16:34:59Z</time>
      </trkpt>
      <trkpt lat="44.335" lon="2.49654">
        <ele>587</ele>
        <time>2012-03-20T16:35:05Z</time>
      </trkpt>
      <trkpt lat="44.3352" lon="2.49659">
        <ele>599</ele>
        <time>2012-03-20T16:35:28Z</time>
      </trkpt>
      <trkpt lat="44.33522" lon="2.49667">
        <ele>602</ele>
        <time>2012-03-20T16:35:41Z</time>
      </trkpt>
      <trkpt lat="44.33522" lon="2.4968">
        <ele>601</ele>
        <time>2012-03-20T16:35:52Z</time>
      </trkpt>
      <trkpt lat="44.33529" lon="2.49704">
        <ele>607</ele>
        <time>2012-03-20T16:36:09Z</time>
      </trkpt>
      <trkpt lat="44.3353" lon="2.49717">
        <ele>603</ele>
        <time>2012-03-20T16:36:19Z</time>
      </trkpt>
      <trkpt lat="44.33534" lon="2.4973">
        <ele>606</ele>
        <time>2012-03-20T16:36:31Z</time>
      </trkpt>
      <trkpt lat="44.33532" lon="2.49744">
        <ele>609</ele>
        <time>2012-03-20T16:36:44Z</time>
      </trkpt>
      <trkpt lat="44.33535" lon="2.49758">
        <ele>600</ele>
        <time>2012-03-20T16:36:51Z</time>
      </trkpt>
      <trkpt lat="44.33536" lon="2.49773">
        <ele>602</ele>
        <time>2012-03-20T16:36:55Z</time>
      </trkpt>
      <trkpt lat="44.33539" lon="2.49787">
        <ele>600</ele>
        <time>2012-03-20T16:37:02Z</time>
      </trkpt>
      <trkpt lat="44.3354" lon="2.49815">
        <ele>607</ele>
        <time>2012-03-20T16:37:16Z</time>
      </trkpt>
      <trkpt lat="44.3354" lon="2.4983">
        <ele>606</ele>
        <time>2012-03-20T16:37:23Z</time>
      </trkpt>
      <trkpt lat="44.33543" lon="2.49844">
        <ele>609</ele>
        <time>2012-03-20T16:37:30Z</time>
      </trkpt>
      <trkpt lat="44.33549" lon="2.49871">
        <ele>592</ele>
        <time>2012-03-20T16:37:47Z</time>
      </trkpt>
      <trkpt lat="44.33553" lon="2.49885">
        <ele>593</ele>
        <time>2012-03-20T16:37:52Z</time>
      </trkpt>
      <trkpt lat="44.33554" lon="2.49902">
        <ele>586</ele>
        <time>2012-03-20T16:38:03Z</time>
      </trkpt>
      <trkpt lat="44.33556" lon="2.49918">
        <ele>589</ele>
        <time>2012-03-20T16:38:17Z</time>
      </trkpt>
      <trkpt lat="44.33561" lon="2.49963">
        <ele>581</ele>
        <time>2012-03-20T16:38:41Z</time>
      </trkpt>
      <trkpt lat="44.33567" lon="2.49978">
        <ele>582</ele>
        <time>2012-03-20T16:38:47Z</time>
      </trkpt>
      <trkpt lat="44.33586" lon="2.50013">
        <ele>592</ele>
        <time>2012-03-20T16:39:09Z</time>
      </trkpt>
      <trkpt lat="44.33592" lon="2.50024">
        <ele>591</ele>
        <time>2012-03-20T16:39:16Z</time>
      </trkpt>
      <trkpt lat="44.33619" lon="2.50067">
        <ele>575</ele>
        <time>2012-03-20T16:39:43Z</time>
      </trkpt>
      <trkpt lat="44.33625" lon="2.50078">
        <ele>580</ele>
        <time>2012-03-20T16:39:50Z</time>
      </trkpt>
      <trkpt lat="44.33627" lon="2.50068">
        <ele>565</ele>
        <time>2012-03-20T16:40:13Z</time>
      </trkpt>
      <trkpt lat="44.33621" lon="2.50054">
        <ele>572</ele>
        <time>2012-03-20T16:40:21Z</time>
      </trkpt>
      <trkpt lat="44.33611" lon="2.50028">
        <ele>565</ele>
        <time>2012-03-20T16:40:36Z</time>
      </trkpt>
      <trkpt lat="44.33619" lon="2.50024">
        <ele>568</ele>
        <time>2012-03-20T16:40:52Z</time>
      </trkpt>
      <trkpt lat="44.33626" lon="2.50033">
        <ele>568</ele>
        <time>2012-03-20T16:40:58Z</time>
      </trkpt>
      <trkpt lat="44.33634" lon="2.50042">
        <ele>572</ele>
        <time>2012-03-20T16:41:04Z</time>
      </trkpt>
      <trkpt lat="44.33646" lon="2.50066">
        <ele>566</ele>
        <time>2012-03-20T16:41:18Z</time>
      </trkpt>
      <trkpt lat="44.33656" lon="2.5007">
        <ele>565</ele>
        <time>2012-03-20T16:41:27Z</time>
      </trkpt>
      <trkpt lat="44.33665" lon="2.50077">
        <ele>559</ele>
        <time>2012-03-20T16:41:34Z</time>
      </trkpt>
      <trkpt lat="44.33674" lon="2.50084">
        <ele>562</ele>
        <time>2012-03-20T16:41:40Z</time>
      </trkpt>
      <trkpt lat="44.33682" lon="2.50091">
        <ele>550</ele>
        <time>2012-03-20T16:41:46Z</time>
      </trkpt>
      <trkpt lat="44.33689" lon="2.50099">
        <ele>556</ele>
        <time>2012-03-20T16:41:54Z</time>
      </trkpt>
      <trkpt lat="44.33705" lon="2.50136">
        <ele>544</ele>
        <time>2012-03-20T16:42:15Z</time>
      </trkpt>
      <trkpt lat="44.33709" lon="2.50148">
        <ele>544</ele>
        <time>2012-03-20T16:42:22Z</time>
      </trkpt>
      <trkpt lat="44.33715" lon="2.5016">
        <ele>543</ele>
        <time>2012-03-20T16:42:29Z</time>
      </trkpt>
      <trkpt lat="44.33719" lon="2.50171">
        <ele>535</ele>
        <time>2012-03-20T16:42:34Z</time>
      </trkpt>
      <trkpt lat="44.33726" lon="2.50181">
        <ele>542</ele>
        <time>2012-03-20T16:42:40Z</time>
      </trkpt>
      <trkpt lat="44.33732" lon="2.50191">
        <ele>537</ele>
        <time>2012-03-20T16:42:47Z</time>
      </trkpt>
      <trkpt lat="44.33736" lon="2.50178">
        <ele>537</ele>
        <time>2012-03-20T16:43:26Z</time>
      </trkpt>
      <trkpt lat="44.33738" lon="2.50162">
        <ele>542</ele>
        <time>2012-03-20T16:43:32Z</time>
      </trkpt>
      <trkpt lat="44.33739" lon="2.50147">
        <ele>543</ele>
        <time>2012-03-20T16:43:39Z</time>
      </trkpt>
      <trkpt lat="44.33738" lon="2.50134">
        <ele>537</ele>
        <time>2012-03-20T16:43:46Z</time>
      </trkpt>
      <trkpt lat="44.33738" lon="2.50121">
        <ele>543</ele>
        <time>2012-03-20T16:43:53Z</time>
      </trkpt>
      <trkpt lat="44.33732" lon="2.50092">
        <ele>535</ele>
        <time>2012-03-20T16:44:06Z</time>
      </trkpt>
      <trkpt lat="44.33727" lon="2.50079">
        <ele>535</ele>
        <time>2012-03-20T16:44:13Z</time>
      </trkpt>
      <trkpt lat="44.33731" lon="2.50072">
        <ele>543</ele>
        <time>2012-03-20T16:44:44Z</time>
      </trkpt>
      <trkpt lat="44.33723" lon="2.50062">
        <ele>532</ele>
        <time>2012-03-20T16:44:58Z</time>
      </trkpt>
      <trkpt lat="44.33716" lon="2.50053">
        <ele>537</ele>
        <time>2012-03-20T16:45:04Z</time>
      </trkpt>
      <trkpt lat="44.33706" lon="2.50042">
        <ele>529</ele>
        <time>2012-03-20T16:45:14Z</time>
      </trkpt>
      <trkpt lat="44.33698" lon="2.50034">
        <ele>536</ele>
        <time>2012-03-20T16:45:19Z</time>
      </trkpt>
      <trkpt lat="44.33682" lon="2.50017">
        <ele>522</ele>
        <time>2012-03-20T16:45:32Z</time>
      </trkpt>
      <trkpt lat="44.33664" lon="2.49984">
        <ele>531</ele>
        <time>2012-03-20T16:45:50Z</time>
      </trkpt>
      <trkpt lat="44.33661" lon="2.4997">
        <ele>524</ele>
        <time>2012-03-20T16:45:58Z</time>
      </trkpt>
      <trkpt lat="44.33661" lon="2.49954">
        <ele>525</ele>
        <time>2012-03-20T16:46:04Z</time>
      </trkpt>
      <trkpt lat="44.33661" lon="2.49925">
        <ele>533</ele>
        <time>2012-03-20T16:46:16Z</time>
      </trkpt>
      <trkpt lat="44.33659" lon="2.49912">
        <ele>530</ele>
        <time>2012-03-20T16:46:22Z</time>
      </trkpt>
      <trkpt lat="44.33654" lon="2.499">
        <ele>534</ele>
        <time>2012-03-20T16:46:31Z</time>
      </trkpt>
      <trkpt lat="44.33647" lon="2.49889">
        <ele>526</ele>
        <time>2012-03-20T16:46:38Z</time>
      </trkpt>
      <trkpt lat="44.33643" lon="2.49875">
        <ele>526</ele>
        <time>2012-03-20T16:46:43Z</time>
      </trkpt>
      <trkpt lat="44.33643" lon="2.49862">
        <ele>522</ele>
        <time>2012-03-20T16:46:49Z</time>
      </trkpt>
      <trkpt lat="44.33641" lon="2.49835">
        <ele>531</ele>
        <time>2012-03-20T16:47:02Z</time>
      </trkpt>
      <trkpt lat="44.33633" lon="2.49809">
        <ele>506</ele>
        <time>2012-03-20T16:47:18Z</time>
      </trkpt>
      <trkpt lat="44.33626" lon="2.49782">
        <ele>521</ele>
        <time>2012-03-20T16:47:33Z</time>
      </trkpt>
      <trkpt lat="44.33622" lon="2.49769">
        <ele>518</ele>
        <time>2012-03-20T16:47:38Z</time>
      </trkpt>
      <trkpt lat="44.33619" lon="2.49757">
        <ele>525</ele>
        <time>2012-03-20T16:47:43Z</time>
      </trkpt>
      <trkpt lat="44.33613" lon="2.49717">
        <ele>512</ele>
        <time>2012-03-20T16:48:02Z</time>
      </trkpt>
      <trkpt lat="44.33612" lon="2.49703">
        <ele>515</ele>
        <time>2012-03-20T16:48:08Z</time>
      </trkpt>
      <trkpt lat="44.3361" lon="2.49688">
        <ele>513</ele>
        <time>2012-03-20T16:48:15Z</time>
      </trkpt>
      <trkpt lat="44.33605" lon="2.49646">
        <ele>527</ele>
        <time>2012-03-20T16:48:34Z</time>
      </trkpt>
      <trkpt lat="44.33608" lon="2.49603">
        <ele>514</ele>
        <time>2012-03-20T16:48:54Z</time>
      </trkpt>
      <trkpt lat="44.33613" lon="2.49591">
        <ele>519</ele>
        <time>2012-03-20T16:49:02Z</time>
      </trkpt>
      <trkpt lat="44.33623" lon="2.49551">
        <ele>504</ele>
        <time>2012-03-20T16:49:22Z</time>
      </trkpt>
      <trkpt lat="44.33624" lon="2.49538">
        <ele>509</ele>
        <time>2012-03-20T16:49:29Z</time>
      </trkpt>
      <trkpt lat="44.33624" lon="2.49523">
        <ele>507</ele>
        <time>2012-03-20T16:49:35Z</time>
      </trkpt>
      <trkpt lat="44.33624" lon="2.49513">
        <ele>508</ele>
        <time>2012-03-20T16:49:40Z</time>
      </trkpt>
      <trkpt lat="44.33628" lon="2.49503">
        <ele>506</ele>
        <time>2012-03-20T16:49:46Z</time>
      </trkpt>
      <trkpt lat="44.3363" lon="2.49496">
        <ele>509</ele>
        <time>2012-03-20T16:49:49Z</time>
      </trkpt>
      <trkpt lat="44.33632" lon="2.4949">
        <ele>510</ele>
        <time>2012-03-20T16:49:52Z</time>
      </trkpt>
      <trkpt lat="44.33643" lon="2.49476">
        <ele>504</ele>
        <time>2012-03-20T16:50:01Z</time>
      </trkpt>
      <trkpt lat="44.33647" lon="2.49471">
        <ele>508</ele>
        <time>2012-03-20T16:50:05Z</time>
      </trkpt>
      <trkpt lat="44.33654" lon="2.49463">
        <ele>505</ele>
        <time>2012-03-20T16:50:10Z</time>
      </trkpt>
      <trkpt lat="44.33662" lon="2.49454">
        <ele>507</ele>
        <time>2012-03-20T16:50:16Z</time>
      </trkpt>
      <trkpt lat="44.3367" lon="2.49446">
        <ele>507</ele>
        <time>2012-03-20T16:50:22Z</time>
      </trkpt>
      <trkpt lat="44.33686" lon="2.49429">
        <ele>501</ele>
        <time>2012-03-20T16:50:34Z</time>
      </trkpt>
      <trkpt lat="44.33695" lon="2.49423">
        <ele>506</ele>
        <time>2012-03-20T16:50:40Z</time>
      </trkpt>
      <trkpt lat="44.33702" lon="2.49415">
        <ele>503</ele>
        <time>2012-03-20T16:50:46Z</time>
      </trkpt>
      <trkpt lat="44.33709" lon="2.49404">
        <ele>505</ele>
        <time>2012-03-20T16:50:52Z</time>
      </trkpt>
      <trkpt lat="44.33716" lon="2.49395">
        <ele>505</ele>
        <time>2012-03-20T16:50:58Z</time>
      </trkpt>
      <trkpt lat="44.33724" lon="2.49386">
        <ele>508</ele>
        <time>2012-03-20T16:51:05Z</time>
      </trkpt>
      <trkpt lat="44.33744" lon="2.49378">
        <ele>501</ele>
        <time>2012-03-20T16:51:17Z</time>
      </trkpt>
      <trkpt lat="44.33753" lon="2.49372">
        <ele>507</ele>
        <time>2012-03-20T16:51:23Z</time>
      </trkpt>
      <trkpt lat="44.33762" lon="2.49363">
        <ele>506</ele>
        <time>2012-03-20T16:51:29Z</time>
      </trkpt>
      <trkpt lat="44.33766" lon="2.49351">
        <ele>502</ele>
        <time>2012-03-20T16:51:36Z</time>
      </trkpt>
      <trkpt lat="44.33776" lon="2.49356">
        <ele>494</ele>
        <time>2012-03-20T16:51:45Z</time>
      </trkpt>
      <trkpt lat="44.3378" lon="2.49368">
        <ele>494</ele>
        <time>2012-03-20T16:51:54Z</time>
      </trkpt>
      <trkpt lat="44.33797" lon="2.49404">
        <ele>498</ele>
        <time>2012-03-20T16:52:15Z</time>
      </trkpt>
      <trkpt lat="44.33804" lon="2.49415">
        <ele>490</ele>
        <time>2012-03-20T16:52:22Z</time>
      </trkpt>
      <trkpt lat="44.33809" lon="2.49425">
        <ele>494</ele>
        <time>2012-03-20T16:52:28Z</time>
      </trkpt>
      <trkpt lat="44.33813" lon="2.49431">
        <ele>493</ele>
        <time>2012-03-20T16:52:32Z</time>
      </trkpt>
      <trkpt lat="44.33819" lon="2.49443">
        <ele>497</ele>
        <time>2012-03-20T16:52:38Z</time>
      </trkpt>
      <trkpt lat="44.33822" lon="2.49447">
        <ele>493</ele>
        <time>2012-03-20T16:52:41Z</time>
      </trkpt>
      <trkpt lat="44.3383" lon="2.49459">
        <ele>496</ele>
        <time>2012-03-20T16:52:50Z</time>
      </trkpt>
      <trkpt lat="44.33837" lon="2.49469">
        <ele>494</ele>
        <time>2012-03-20T16:52:58Z</time>
      </trkpt>
      <trkpt lat="44.33843" lon="2.49479">
        <ele>496</ele>
        <time>2012-03-20T16:53:03Z</time>
      </trkpt>
      <trkpt lat="44.33863" lon="2.49508">
        <ele>491</ele>
        <time>2012-03-20T16:53:23Z</time>
      </trkpt>
      <trkpt lat="44.3387" lon="2.49519">
        <ele>496</ele>
        <time>2012-03-20T16:53:30Z</time>
      </trkpt>
      <trkpt lat="44.33874" lon="2.49526">
        <ele>497</ele>
        <time>2012-03-20T16:53:34Z</time>
      </trkpt>
      <trkpt lat="44.33878" lon="2.49532">
        <ele>497</ele>
        <time>2012-03-20T16:53:39Z</time>
      </trkpt>
      <trkpt lat="44.33886" lon="2.49542">
        <ele>497</ele>
        <time>2012-03-20T16:53:48Z</time>
      </trkpt>
      <trkpt lat="44.33893" lon="2.49547">
        <ele>499</ele>
        <time>2012-03-20T16:54:00Z</time>
      </trkpt>
      <trkpt lat="44.33895" lon="2.49548">
        <ele>495</ele>
        <time>2012-03-20T16:54:28Z</time>
      </trkpt>
      <trkpt lat="44.33898" lon="2.49551">
        <ele>502</ele>
        <time>2012-03-20T16:56:23Z</time>
      </trkpt>
      <trkpt lat="44.33898" lon="2.49551">
        <ele>492</ele>
        <time>2012-03-20T16:58:07Z</time>
      </trkpt>
      <trkpt lat="44.33894" lon="2.49559">
        <ele>501</ele>
        <time>2012-03-20T16:59:30Z</time>
      </trkpt>
      <trkpt lat="44.33897" lon="2.49561">
        <ele>501</ele>
        <time>2012-03-20T16:59:47Z</time>
      </trkpt>
      <trkpt lat="44.33901" lon="2.49556">
        <ele>492</ele>
        <time>2012-03-20T17:01:26Z</time>
      </trkpt>
      <trkpt lat="44.33898" lon="2.49554">
        <ele>492</ele>
        <time>2012-03-20T17:02:38Z</time>
      </trkpt>
      <trkpt lat="44.33897" lon="2.49551">
        <ele>498</ele>
        <time>2012-03-20T17:03:16Z</time>
      </trkpt>
      <trkpt lat="44.33895" lon="2.49554">
        <ele>496</ele>
        <time>2012-03-20T17:04:44Z</time>
      </trkpt>
      <trkpt lat="44.33903" lon="2.49563">
        <ele>505</ele>
        <time>2012-03-20T17:04:54Z</time>
      </trkpt>
      <trkpt lat="44.33908" lon="2.49568">
        <ele>501</ele>
        <time>2012-03-20T17:04:59Z</time>
      </trkpt>
      <trkpt lat="44.33918" lon="2.49572">
        <ele>502</ele>
        <time>2012-03-20T17:05:06Z</time>
      </trkpt>
      <trkpt lat="44.33925" lon="2.49573">
        <ele>502</ele>
        <time>2012-03-20T17:05:12Z</time>
      </trkpt>
      <trkpt lat="44.33931" lon="2.49571">
        <ele>498</ele>
        <time>2012-03-20T17:05:17Z</time>
      </trkpt>
      <trkpt lat="44.33939" lon="2.49569">
        <ele>497</ele>
        <time>2012-03-20T17:05:23Z</time>
      </trkpt>
      <trkpt lat="44.33944" lon="2.49568">
        <ele>500</ele>
        <time>2012-03-20T17:05:26Z</time>
      </trkpt>
      <trkpt lat="44.33955" lon="2.49562">
        <ele>491</ele>
        <time>2012-03-20T17:05:35Z</time>
      </trkpt>
      <trkpt lat="44.33981" lon="2.49552">
        <ele>502</ele>
        <time>2012-03-20T17:05:57Z</time>
      </trkpt>
      <trkpt lat="44.33986" lon="2.4955">
        <ele>499</ele>
        <time>2012-03-20T17:06:01Z</time>
      </trkpt>
      <trkpt lat="44.33996" lon="2.49547">
        <ele>498</ele>
        <time>2012-03-20T17:06:08Z</time>
      </trkpt>
      <trkpt lat="44.34005" lon="2.49544">
        <ele>499</ele>
        <time>2012-03-20T17:06:15Z</time>
      </trkpt>
      <trkpt lat="44.34014" lon="2.49542">
        <ele>499</ele>
        <time>2012-03-20T17:06:22Z</time>
      </trkpt>
      <trkpt lat="44.34022" lon="2.49537">
        <ele>506</ele>
        <time>2012-03-20T17:06:30Z</time>
      </trkpt>
      <trkpt lat="44.34031" lon="2.49531">
        <ele>499</ele>
        <time>2012-03-20T17:06:37Z</time>
      </trkpt>
      <trkpt lat="44.34045" lon="2.49523">
        <ele>504</ele>
        <time>2012-03-20T17:06:49Z</time>
      </trkpt>
      <trkpt lat="44.3405" lon="2.4952">
        <ele>499</ele>
        <time>2012-03-20T17:06:53Z</time>
      </trkpt>
      <trkpt lat="44.34059" lon="2.49517">
        <ele>504</ele>
        <time>2012-03-20T17:07:05Z</time>
      </trkpt>
      <trkpt lat="44.34062" lon="2.49516">
        <ele>506</ele>
        <time>2012-03-20T17:07:49Z</time>
      </trkpt>
      <trkpt lat="44.34065" lon="2.49513">
        <ele>507</ele>
        <time>2012-03-20T17:08:12Z</time>
      </trkpt>
      <trkpt lat="44.34069" lon="2.4951">
        <ele>510</ele>
        <time>2012-03-20T17:08:17Z</time>
      </trkpt>
      <trkpt lat="44.34071" lon="2.4951">
        <ele>500</ele>
        <time>2012-03-20T17:08:23Z</time>
      </trkpt>
      <trkpt lat="44.34096" lon="2.49498">
        <ele>512</ele>
        <time>2012-03-20T17:08:58Z</time>
      </trkpt>
      <trkpt lat="44.34114" lon="2.4949">
        <ele>517</ele>
        <time>2012-03-20T17:09:21Z</time>
      </trkpt>
      <trkpt lat="44.34129" lon="2.49485">
        <ele>513</ele>
        <time>2012-03-20T17:09:53Z</time>
      </trkpt>
      <trkpt lat="44.34134" lon="2.49483">
        <ele>508</ele>
        <time>2012-03-20T17:10:00Z</time>
      </trkpt>
      <trkpt lat="44.34156" lon="2.49473">
        <ele>521</ele>
        <time>2012-03-20T17:10:24Z</time>
      </trkpt>
      <trkpt lat="44.34166" lon="2.4947">
        <ele>521</ele>
        <time>2012-03-20T17:10:31Z</time>
      </trkpt>
      <trkpt lat="44.34171" lon="2.49469">
        <ele>524</ele>
        <time>2012-03-20T17:10:34Z</time>
      </trkpt>
      <trkpt lat="44.34176" lon="2.49467">
        <ele>518</ele>
        <time>2012-03-20T17:10:37Z</time>
      </trkpt>
      <trkpt lat="44.34182" lon="2.49467">
        <ele>518</ele>
        <time>2012-03-20T17:10:42Z</time>
      </trkpt>
      <trkpt lat="44.34197" lon="2.49468">
        <ele>514</ele>
        <time>2012-03-20T17:10:53Z</time>
      </trkpt>
      <trkpt lat="44.34207" lon="2.49468">
        <ele>519</ele>
        <time>2012-03-20T17:11:01Z</time>
      </trkpt>
      <trkpt lat="44.34217" lon="2.49471">
        <ele>519</ele>
        <time>2012-03-20T17:11:08Z</time>
      </trkpt>
      <trkpt lat="44.34223" lon="2.49472">
        <ele>515</ele>
        <time>2012-03-20T17:11:12Z</time>
      </trkpt>
      <trkpt lat="44.34233" lon="2.49474">
        <ele>515</ele>
        <time>2012-03-20T17:11:20Z</time>
      </trkpt>
      <trkpt lat="44.3424" lon="2.49476">
        <ele>518</ele>
        <time>2012-03-20T17:11:27Z</time>
      </trkpt>
      <trkpt lat="44.3425" lon="2.49477">
        <ele>517</ele>
        <time>2012-03-20T17:11:35Z</time>
      </trkpt>
      <trkpt lat="44.34259" lon="2.4948">
        <ele>517</ele>
        <time>2012-03-20T17:11:44Z</time>
      </trkpt>
      <trkpt lat="44.34278" lon="2.49484">
        <ele>510</ele>
        <time>2012-03-20T17:12:00Z</time>
      </trkpt>
      <trkpt lat="44.34298" lon="2.49488">
        <ele>527</ele>
        <time>2012-03-20T17:12:12Z</time>
      </trkpt>
      <trkpt lat="44.34298" lon="2.49497">
        <ele>522</ele>
        <time>2012-03-20T17:12:18Z</time>
      </trkpt>
      <trkpt lat="44.34295" lon="2.49503">
        <ele>526</ele>
        <time>2012-03-20T17:12:23Z</time>
      </trkpt>
      <trkpt lat="44.34291" lon="2.49508">
        <ele>525</ele>
        <time>2012-03-20T17:12:27Z</time>
      </trkpt>
      <trkpt lat="44.34287" lon="2.49512">
        <ele>531</ele>
        <time>2012-03-20T17:12:31Z</time>
      </trkpt>
      <trkpt lat="44.34284" lon="2.49518">
        <ele>528</ele>
        <time>2012-03-20T17:12:35Z</time>
      </trkpt>
      <trkpt lat="44.34271" lon="2.49529">
        <ele>532</ele>
        <time>2012-03-20T17:12:48Z</time>
      </trkpt>
      <trkpt lat="44.3426" lon="2.49535">
        <ele>523</ele>
        <time>2012-03-20T17:13:00Z</time>
      </trkpt>
      <trkpt lat="44.34256" lon="2.49537">
        <ele>526</ele>
        <time>2012-03-20T17:14:44Z</time>
      </trkpt>
      <trkpt lat="44.34255" lon="2.49535">
        <ele>524</ele>
        <time>2012-03-20T17:17:15Z</time>
      </trkpt>
      <trkpt lat="44.34257" lon="2.49534">
        <ele>530</ele>
        <time>2012-03-20T17:23:58Z</time>
      </trkpt>
      <trkpt lat="44.3426" lon="2.49537">
        <ele>529</ele>
        <time>2012-03-20T17:25:02Z</time>
      </trkpt>
      <trkpt lat="44.34258" lon="2.49535">
        <ele>520</ele>
        <time>2012-03-20T17:26:16Z</time>
      </trkpt>
      <trkpt lat="44.34258" lon="2.49533">
        <ele>520</ele>
        <time>2012-03-20T17:32:37Z</time>
      </trkpt>
      <trkpt lat="44.34258" lon="2.49533">
        <ele>518</ele>
        <time>2012-03-20T17:35:18Z</time>
      </trkpt>
      <trkpt lat="44.3426" lon="2.49537">
        <ele>522</ele>
        <time>2012-03-20T17:37:30Z</time>
      </trkpt>
      <trkpt lat="44.34259" lon="2.4954">
        <ele>505</ele>
        <time>2012-03-20T17:37:57Z</time>
      </trkpt>
      <trkpt lat="44.34262" lon="2.4954">
        <ele>528</ele>
        <time>2012-03-20T17:40:48Z</time>
      </trkpt>
      <trkpt lat="44.34266" lon="2.49544">
        <ele>529</ele>
        <time>2012-03-20T17:40:53Z</time>
      </trkpt>
      <trkpt lat="44.34269" lon="2.4955">
        <ele>526</ele>
        <time>2012-03-20T17:40:59Z</time>
      </trkpt>
      <trkpt lat="44.34271" lon="2.49556">
        <ele>528</ele>
        <time>2012-03-20T17:41:03Z</time>
      </trkpt>
      <trkpt lat="44.34274" lon="2.4957">
        <ele>527</ele>
        <time>2012-03-20T17:41:12Z</time>
      </trkpt>
      <trkpt lat="44.34276" lon="2.49576">
        <ele>524</ele>
        <time>2012-03-20T17:41:16Z</time>
      </trkpt>
      <trkpt lat="44.34283" lon="2.49605">
        <ele>534</ele>
        <time>2012-03-20T17:41:36Z</time>
      </trkpt>
      <trkpt lat="44.34285" lon="2.49611">
        <ele>533</ele>
        <time>2012-03-20T17:41:41Z</time>
      </trkpt>
      <trkpt lat="44.34288" lon="2.49625">
        <ele>530</ele>
        <time>2012-03-20T17:41:48Z</time>
      </trkpt>
      <trkpt lat="44.34293" lon="2.49638">
        <ele>535</ele>
        <time>2012-03-20T17:41:57Z</time>
      </trkpt>
      <trkpt lat="44.34292" lon="2.4965">
        <ele>542</ele>
        <time>2012-03-20T17:42:30Z</time>
      </trkpt>
      <trkpt lat="44.34291" lon="2.49655">
        <ele>534</ele>
        <time>2012-03-20T17:43:06Z</time>
      </trkpt>
      <trkpt lat="44.34293" lon="2.49654">
        <ele>533</ele>
        <time>2012-03-20T17:44:27Z</time>
      </trkpt>
    </trkseg>
  </trk>
</gpx>